PWSweather.com
Personal Weather Stations
Station Observations
DL5ARK
SonnebergDE

SonnebergDE

Lat: 50.34904861, Lon: 11.18112087

Elevation: 1214

Station Type: Selfmade

http://www.sumbarg.de

High Low Average
Temperature 73.3°F22.9°C 51.2°F10.7°C 60.8°F16.0°C
Dew Point 66.8°F19.3°C 53.8°F12.1°C 59.4°F15.2°C
Winds 12.1 mph 19.5 kmh Calm Calm 3.0 mph WSW4.8 kmh WSW
Wind Gusts 12.1 mph19.5 kmh -- 3.0 mph4.8 kmh
Humidity 82% 60% 71%
Pressure 30.03 in1016.9 mb 29.64 in1003.7 mb -
Precipitation 0.14 in3.6 mm - -
Hour Temp Dew Point Humidity Winds Wind Gusts Pressure Precip Precip Rate Daily Precip Total
12:00 AM 66.4°F19.1°C 62.6°F17.0°C 66% 4.3 mph SE6.9 kmh SE 4.3 mph6.9 kmh 29.66 in1004.4 mb 0.00 in0.0 mm 0.00 in0.0 mm 0.00 in0.0 mm
12:02 AM 66.3°F19.1°C 62.3°F16.8°C 66% 2.7 mph SE4.3 kmh SE 2.7 mph4.3 kmh 29.66 in1004.4 mb 0.00 in0.0 mm 0.00 in0.0 mm 0.00 in0.0 mm
12:03 AM 66.4°F19.1°C 62.0°F16.7°C 65% 3.5 mph SE5.6 kmh SE 3.7 mph6.0 kmh 29.66 in1004.4 mb 0.00 in0.0 mm 0.00 in0.0 mm 0.00 in0.0 mm
12:05 AM 66.3°F19.1°C 61.7°F16.5°C 65% 6.0 mph NNW9.7 kmh NNW 6.0 mph9.7 kmh 29.66 in1004.4 mb 0.00 in0.0 mm 0.00 in0.0 mm 0.00 in0.0 mm
12:06 AM 66.3°F19.1°C 62.1°F16.7°C 65% 5.3 mph SE8.5 kmh SE 5.3 mph8.5 kmh 29.66 in1004.4 mb 0.00 in0.0 mm 0.00 in0.0 mm 0.00 in0.0 mm
12:08 AM 66.5°F19.2°C 61.8°F16.6°C 65% 2.4 mph SE3.9 kmh SE 2.4 mph3.9 kmh 29.66 in1004.4 mb 0.00 in0.0 mm 0.00 in0.0 mm 0.00 in0.0 mm
12:09 AM 66.5°F19.2°C 62.2°F16.8°C 65% 2.3 mph SE3.7 kmh SE 2.3 mph3.7 kmh 29.66 in1004.4 mb 0.00 in0.0 mm 0.00 in0.0 mm 0.00 in0.0 mm
12:11 AM 66.7°F19.3°C 62.2°F16.8°C 65% 6.5 mph SE10.5 kmh SE 6.5 mph10.5 kmh 29.66 in1004.4 mb 0.00 in0.0 mm 0.00 in0.0 mm 0.00 in0.0 mm
12:12 AM 66.7°F19.3°C 61.7°F16.5°C 65% 5.8 mph ESE9.3 kmh ESE 5.8 mph9.3 kmh 29.66 in1004.4 mb 0.00 in0.0 mm 0.00 in0.0 mm 0.00 in0.0 mm
12:14 AM 66.8°F19.3°C 62.0°F16.7°C 65% 5.3 mph ESE8.5 kmh ESE 5.3 mph8.5 kmh 29.66 in1004.4 mb 0.00 in0.0 mm 0.00 in0.0 mm 0.00 in0.0 mm
12:15 AM 66.8°F19.3°C 61.8°F16.6°C 65% 4.6 mph SE7.4 kmh SE 4.6 mph7.4 kmh 29.66 in1004.4 mb 0.00 in0.0 mm 0.00 in0.0 mm 0.00 in0.0 mm
12:17 AM 66.8°F19.3°C 61.7°F16.5°C 65% 3.2 mph SE5.1 kmh SE 3.3 mph5.3 kmh 29.66 in1004.4 mb 0.00 in0.0 mm 0.00 in0.0 mm 0.00 in0.0 mm
12:18 AM 66.8°F19.3°C 62.1°F16.7°C 65% 3.4 mph SE5.5 kmh SE 3.4 mph5.5 kmh 29.66 in1004.4 mb 0.00 in0.0 mm 0.00 in0.0 mm 0.00 in0.0 mm
12:20 AM 66.0°F18.9°C 62.4°F16.9°C 66% 4.8 mph ESE7.7 kmh ESE 4.9 mph7.9 kmh 29.66 in1004.4 mb 0.00 in0.0 mm 0.00 in0.0 mm 0.00 in0.0 mm
12:23 AM 66.1°F18.9°C 62.0°F16.7°C 65% 3.2 mph SE5.1 kmh SE 3.2 mph5.1 kmh 29.66 in1004.4 mb 0.00 in0.0 mm 0.00 in0.0 mm 0.00 in0.0 mm
12:24 AM 66.1°F18.9°C 62.4°F16.9°C 66% 3.2 mph SE5.1 kmh SE 3.2 mph5.1 kmh 29.66 in1004.4 mb 0.00 in0.0 mm 0.00 in0.0 mm 0.00 in0.0 mm
12:26 AM 65.9°F18.8°C 61.8°F16.6°C 66% 4.3 mph NNW6.9 kmh NNW 4.3 mph6.9 kmh 29.66 in1004.4 mb 0.00 in0.0 mm 0.00 in0.0 mm 0.00 in0.0 mm
12:27 AM 65.9°F18.8°C 62.4°F16.9°C 66% 4.2 mph NNW6.8 kmh NNW 4.2 mph6.8 kmh 29.66 in1004.4 mb 0.00 in0.0 mm 0.00 in0.0 mm 0.00 in0.0 mm
12:29 AM 66.2°F19.0°C 61.5°F16.4°C 65% 2.4 mph NNW3.9 kmh NNW 2.4 mph3.9 kmh 29.66 in1004.4 mb 0.00 in0.0 mm 0.00 in0.0 mm 0.00 in0.0 mm
12:32 AM 65.8°F18.8°C 62.0°F16.7°C 66% 1.2 mph SE1.9 kmh SE 1.2 mph1.9 kmh 29.66 in1004.4 mb 0.00 in0.0 mm 0.00 in0.0 mm 0.00 in0.0 mm
12:33 AM 65.8°F18.8°C 62.4°F16.9°C 66% 0.7 mph SE1.1 kmh SE 0.8 mph1.3 kmh 29.66 in1004.4 mb 0.00 in0.0 mm 0.00 in0.0 mm 0.00 in0.0 mm
12:35 AM 65.3°F18.5°C 61.8°F16.6°C 66% 1.2 mph NNW1.9 kmh NNW 1.2 mph1.9 kmh 29.66 in1004.4 mb 0.00 in0.0 mm 0.00 in0.0 mm 0.00 in0.0 mm
12:38 AM 64.6°F18.1°C 62.2°F16.8°C 66% Calm Calm -- 29.66 in1004.4 mb 0.00 in0.0 mm 0.00 in0.0 mm 0.00 in0.0 mm
12:39 AM 64.5°F18.1°C 62.4°F16.9°C 67% 0.7 mph SE1.1 kmh SE 0.7 mph1.1 kmh 29.66 in1004.4 mb 0.00 in0.0 mm 0.00 in0.0 mm 0.00 in0.0 mm
12:41 AM 63.8°F17.7°C 62.1°F16.7°C 67% Calm Calm -- 29.66 in1004.4 mb 0.00 in0.0 mm 0.00 in0.0 mm 0.00 in0.0 mm
12:44 AM 63.5°F17.5°C 61.7°F16.5°C 67% Calm Calm -- 29.66 in1004.4 mb 0.00 in0.0 mm 0.00 in0.0 mm 0.00 in0.0 mm
12:45 AM 63.5°F17.5°C 62.0°F16.7°C 67% Calm Calm -- 29.66 in1004.4 mb 0.00 in0.0 mm 0.00 in0.0 mm 0.00 in0.0 mm
12:47 AM 63.2°F17.3°C 61.7°F16.5°C 67% Calm Calm -- 29.66 in1004.4 mb 0.00 in0.0 mm 0.00 in0.0 mm 0.00 in0.0 mm
12:48 AM 63.2°F17.3°C 61.9°F16.6°C 67% Calm Calm -- 29.66 in1004.4 mb 0.00 in0.0 mm 0.00 in0.0 mm 0.00 in0.0 mm
12:50 AM 63.1°F17.3°C 61.8°F16.6°C 67% Calm Calm -- 29.66 in1004.4 mb 0.00 in0.0 mm 0.00 in0.0 mm 0.00 in0.0 mm
12:51 AM 63.1°F17.3°C 61.6°F16.4°C 67% 0.2 mph SSW0.3 kmh SSW 0.3 mph0.5 kmh 29.66 in1004.4 mb 0.00 in0.0 mm 0.00 in0.0 mm 0.00 in0.0 mm
12:53 AM 63.4°F17.4°C 61.5°F16.4°C 67% 1.6 mph WSW2.6 kmh WSW 1.6 mph2.6 kmh 29.66 in1004.4 mb 0.00 in0.0 mm 0.00 in0.0 mm 0.00 in0.0 mm
12:54 AM 63.4°F17.4°C 61.8°F16.6°C 67% 2.5 mph WSW4.0 kmh WSW 2.5 mph4.0 kmh 29.66 in1004.4 mb 0.00 in0.0 mm 0.00 in0.0 mm 0.00 in0.0 mm
12:56 AM 63.5°F17.5°C 61.4°F16.3°C 67% 2.4 mph WSW3.9 kmh WSW 2.4 mph3.9 kmh 29.66 in1004.4 mb 0.00 in0.0 mm 0.00 in0.0 mm 0.00 in0.0 mm
01:02 AM 62.8°F17.1°C 61.5°F16.4°C 68% Calm Calm -- 29.66 in1004.4 mb 0.00 in0.0 mm 0.00 in0.0 mm 0.00 in0.0 mm
01:03 AM 62.9°F17.2°C 61.7°F16.5°C 68% Calm Calm -- 29.66 in1004.4 mb 0.00 in0.0 mm 0.00 in0.0 mm 0.00 in0.0 mm
01:05 AM 61.7°F16.5°C 61.6°F16.4°C 68% Calm Calm -- 29.66 in1004.4 mb 0.00 in0.0 mm 0.00 in0.0 mm 0.00 in0.0 mm
01:06 AM 61.7°F16.5°C 61.3°F16.3°C 68% Calm Calm -- 29.66 in1004.4 mb 0.00 in0.0 mm 0.00 in0.0 mm 0.00 in0.0 mm
01:08 AM 61.7°F16.5°C 61.4°F16.3°C 68% Calm Calm -- 29.66 in1004.4 mb 0.00 in0.0 mm 0.00 in0.0 mm 0.00 in0.0 mm
01:09 AM 61.8°F16.6°C 61.4°F16.3°C 68% Calm Calm -- 29.66 in1004.4 mb 0.00 in0.0 mm 0.00 in0.0 mm 0.00 in0.0 mm
01:11 AM 61.4°F16.3°C 61.3°F16.3°C 69% Calm Calm -- 29.66 in1004.4 mb 0.00 in0.0 mm 0.00 in0.0 mm 0.00 in0.0 mm
01:12 AM 61.4°F16.3°C 61.1°F16.2°C 68% Calm Calm -- 29.66 in1004.4 mb 0.00 in0.0 mm 0.00 in0.0 mm 0.00 in0.0 mm
01:14 AM 61.1°F16.2°C 61.3°F16.3°C 69% Calm Calm -- 29.66 in1004.4 mb 0.00 in0.0 mm 0.00 in0.0 mm 0.00 in0.0 mm
01:15 AM 61.3°F16.3°C 61.5°F16.4°C 69% Calm Calm -- 29.66 in1004.4 mb 0.00 in0.0 mm 0.00 in0.0 mm 0.00 in0.0 mm
01:17 AM 60.8°F16.0°C 61.2°F16.2°C 70% 2.0 mph WSW3.2 kmh WSW 2.0 mph3.2 kmh 29.66 in1004.4 mb 0.00 in0.0 mm 0.00 in0.0 mm 0.00 in0.0 mm
01:18 AM 60.8°F16.0°C 60.9°F16.1°C 69% 1.6 mph WSW2.6 kmh WSW 1.7 mph2.7 kmh 29.66 in1004.4 mb 0.00 in0.0 mm 0.00 in0.0 mm 0.00 in0.0 mm
01:20 AM 60.8°F16.0°C 61.1°F16.2°C 70% 1.2 mph SE1.9 kmh SE 1.2 mph1.9 kmh 29.66 in1004.4 mb 0.00 in0.0 mm 0.00 in0.0 mm 0.00 in0.0 mm
01:21 AM 60.8°F16.0°C 61.2°F16.2°C 70% 1.3 mph SE2.1 kmh SE 1.3 mph2.1 kmh 29.66 in1004.4 mb 0.00 in0.0 mm 0.00 in0.0 mm 0.00 in0.0 mm
01:26 AM 60.6°F15.9°C 61.0°F16.1°C 70% Calm Calm -- 29.66 in1004.4 mb 0.00 in0.0 mm 0.00 in0.0 mm 0.00 in0.0 mm
01:27 AM 60.6°F15.9°C 61.1°F16.2°C 70% Calm Calm -- 29.66 in1004.4 mb 0.00 in0.0 mm 0.00 in0.0 mm 0.00 in0.0 mm
01:29 AM 60.6°F15.9°C 61.1°F16.2°C 70% Calm Calm -- 29.66 in1004.4 mb 0.00 in0.0 mm 0.00 in0.0 mm 0.00 in0.0 mm
01:32 AM 60.7°F15.9°C 60.8°F16.0°C 70% Calm Calm -- 29.66 in1004.4 mb 0.00 in0.0 mm 0.00 in0.0 mm 0.00 in0.0 mm
01:33 AM 60.7°F15.9°C 60.8°F16.0°C 71% Calm Calm -- 29.66 in1004.4 mb 0.00 in0.0 mm 0.00 in0.0 mm 0.00 in0.0 mm
01:35 AM 59.9°F15.5°C 60.7°F15.9°C 70% Calm Calm -- 29.66 in1004.4 mb 0.00 in0.0 mm 0.00 in0.0 mm 0.00 in0.0 mm
01:36 AM 59.9°F15.5°C 60.8°F16.0°C 70% Calm Calm -- 29.66 in1004.4 mb 0.00 in0.0 mm 0.00 in0.0 mm 0.00 in0.0 mm
01:38 AM 60.1°F15.6°C 60.8°F16.0°C 71% Calm Calm -- 29.65 in1004.1 mb 0.00 in0.0 mm 0.00 in0.0 mm 0.00 in0.0 mm
01:39 AM 60.2°F15.7°C 60.8°F16.0°C 71% Calm Calm -- 29.65 in1004.1 mb 0.00 in0.0 mm 0.00 in0.0 mm 0.00 in0.0 mm
01:41 AM 59.3°F15.2°C 60.6°F15.9°C 71% Calm Calm -- 29.65 in1004.1 mb 0.00 in0.0 mm 0.00 in0.0 mm 0.00 in0.0 mm
01:42 AM 59.2°F15.1°C 60.6°F15.9°C 71% Calm Calm -- 29.66 in1004.4 mb 0.00 in0.0 mm 0.00 in0.0 mm 0.00 in0.0 mm
01:44 AM 59.0°F15.0°C 60.4°F15.8°C 70% Calm Calm -- 29.65 in1004.1 mb 0.00 in0.0 mm 0.00 in0.0 mm 0.00 in0.0 mm
01:45 AM 59.0°F15.0°C 60.4°F15.8°C 71% Calm Calm -- 29.65 in1004.1 mb 0.00 in0.0 mm 0.00 in0.0 mm 0.00 in0.0 mm
01:47 AM 58.8°F14.9°C 60.5°F15.8°C 71% Calm Calm -- 29.66 in1004.4 mb 0.00 in0.0 mm 0.00 in0.0 mm 0.00 in0.0 mm
01:48 AM 59.0°F15.0°C 60.3°F15.7°C 71% Calm Calm -- 29.66 in1004.4 mb 0.00 in0.0 mm 0.00 in0.0 mm 0.00 in0.0 mm
01:50 AM 58.8°F14.9°C 60.5°F15.8°C 71% Calm Calm -- 29.65 in1004.1 mb 0.00 in0.0 mm 0.00 in0.0 mm 0.00 in0.0 mm
01:51 AM 59.1°F15.1°C 60.3°F15.7°C 71% Calm Calm -- 29.65 in1004.1 mb 0.00 in0.0 mm 0.00 in0.0 mm 0.00 in0.0 mm
01:53 AM 58.9°F14.9°C 60.1°F15.6°C 71% Calm Calm -- 29.65 in1004.1 mb 0.00 in0.0 mm 0.00 in0.0 mm 0.00 in0.0 mm
01:54 AM 59.3°F15.2°C 60.4°F15.8°C 72% Calm Calm -- 29.65 in1004.1 mb 0.00 in0.0 mm 0.00 in0.0 mm 0.00 in0.0 mm
01:56 AM 58.6°F14.8°C 60.3°F15.7°C 72% Calm Calm -- 29.65 in1004.1 mb 0.00 in0.0 mm 0.00 in0.0 mm 0.00 in0.0 mm
01:57 AM 58.7°F14.8°C 60.0°F15.6°C 71% Calm Calm -- 29.64 in1003.7 mb 0.00 in0.0 mm 0.00 in0.0 mm 0.00 in0.0 mm
02:02 AM 59.2°F15.1°C 60.0°F15.6°C 72% Calm Calm -- 29.64 in1003.7 mb 0.00 in0.0 mm 0.00 in0.0 mm 0.00 in0.0 mm
02:03 AM 59.2°F15.1°C 59.9°F15.5°C 72% Calm Calm -- 29.65 in1004.1 mb 0.00 in0.0 mm 0.00 in0.0 mm 0.00 in0.0 mm
02:05 AM 58.9°F14.9°C 60.3°F15.7°C 73% Calm Calm -- 29.65 in1004.1 mb 0.00 in0.0 mm 0.00 in0.0 mm 0.00 in0.0 mm
02:06 AM 58.9°F14.9°C 60.0°F15.6°C 72% Calm Calm -- 29.64 in1003.7 mb 0.00 in0.0 mm 0.00 in0.0 mm 0.00 in0.0 mm
02:08 AM 58.9°F14.9°C 59.9°F15.5°C 72% Calm Calm -- 29.64 in1003.7 mb 0.00 in0.0 mm 0.00 in0.0 mm 0.00 in0.0 mm
02:09 AM 58.9°F14.9°C 60.1°F15.6°C 72% Calm Calm -- 29.64 in1003.7 mb 0.00 in0.0 mm 0.00 in0.0 mm 0.00 in0.0 mm
02:11 AM 59.2°F15.1°C 60.2°F15.7°C 73% Calm Calm -- 29.64 in1003.7 mb 0.00 in0.0 mm 0.00 in0.0 mm 0.00 in0.0 mm
02:12 AM 59.2°F15.1°C 60.2°F15.7°C 73% 0.4 mph WSW0.6 kmh WSW 0.4 mph0.6 kmh 29.64 in1003.7 mb 0.00 in0.0 mm 0.00 in0.0 mm 0.00 in0.0 mm
02:14 AM 59.2°F15.1°C 60.2°F15.7°C 73% Calm Calm -- 29.65 in1004.1 mb 0.00 in0.0 mm 0.00 in0.0 mm 0.00 in0.0 mm
02:15 AM 59.2°F15.1°C 60.1°F15.6°C 73% Calm Calm -- 29.65 in1004.1 mb 0.00 in0.0 mm 0.00 in0.0 mm 0.00 in0.0 mm
02:17 AM 59.5°F15.3°C 60.5°F15.8°C 74% Calm Calm -- 29.65 in1004.1 mb 0.00 in0.0 mm 0.00 in0.0 mm 0.00 in0.0 mm
02:18 AM 59.5°F15.3°C 60.4°F15.8°C 73% Calm Calm -- 29.65 in1004.1 mb 0.00 in0.0 mm 0.00 in0.0 mm 0.00 in0.0 mm
02:20 AM 58.9°F14.9°C 60.4°F15.8°C 74% Calm Calm -- 29.65 in1004.1 mb 0.00 in0.0 mm 0.00 in0.0 mm 0.00 in0.0 mm
02:23 AM 58.8°F14.9°C 60.3°F15.7°C 73% Calm Calm -- 29.65 in1004.1 mb 0.00 in0.0 mm 0.00 in0.0 mm 0.00 in0.0 mm
02:24 AM 58.9°F14.9°C 60.4°F15.8°C 73% Calm Calm -- 29.65 in1004.1 mb 0.00 in0.0 mm 0.00 in0.0 mm 0.00 in0.0 mm
02:26 AM 58.6°F14.8°C 60.3°F15.7°C 73% Calm Calm -- 29.65 in1004.1 mb 0.00 in0.0 mm 0.00 in0.0 mm 0.00 in0.0 mm
02:27 AM 58.7°F14.8°C 60.3°F15.7°C 74% Calm Calm -- 29.65 in1004.1 mb 0.00 in0.0 mm 0.00 in0.0 mm 0.00 in0.0 mm
02:29 AM 58.2°F14.6°C 60.0°F15.6°C 73% Calm Calm -- 29.65 in1004.1 mb 0.00 in0.0 mm 0.00 in0.0 mm 0.00 in0.0 mm
02:30 AM 58.3°F14.6°C 60.2°F15.7°C 73% Calm Calm -- 29.65 in1004.1 mb 0.00 in0.0 mm 0.00 in0.0 mm 0.00 in0.0 mm
02:32 AM 58.0°F14.4°C 59.6°F15.3°C 73% Calm Calm -- 29.65 in1004.1 mb 0.00 in0.0 mm 0.00 in0.0 mm 0.00 in0.0 mm
02:33 AM 58.1°F14.5°C 60.0°F15.6°C 73% Calm Calm -- 29.65 in1004.1 mb 0.00 in0.0 mm 0.00 in0.0 mm 0.00 in0.0 mm
02:35 AM 58.0°F14.4°C 59.7°F15.4°C 73% Calm Calm -- 29.65 in1004.1 mb 0.00 in0.0 mm 0.00 in0.0 mm 0.00 in0.0 mm
02:36 AM 58.0°F14.4°C 59.9°F15.5°C 73% Calm Calm -- 29.65 in1004.1 mb 0.00 in0.0 mm 0.00 in0.0 mm 0.00 in0.0 mm
02:38 AM 57.8°F14.3°C 59.7°F15.4°C 73% Calm Calm -- 29.66 in1004.4 mb 0.00 in0.0 mm 0.00 in0.0 mm 0.00 in0.0 mm
02:39 AM 57.8°F14.3°C 59.4°F15.2°C 73% Calm Calm -- 29.66 in1004.4 mb 0.00 in0.0 mm 0.00 in0.0 mm 0.00 in0.0 mm
02:41 AM 57.9°F14.4°C 59.5°F15.3°C 73% Calm Calm -- 29.66 in1004.4 mb 0.00 in0.0 mm 0.00 in0.0 mm 0.00 in0.0 mm
02:42 AM 58.0°F14.4°C 59.6°F15.3°C 73% Calm Calm -- 29.66 in1004.4 mb 0.00 in0.0 mm 0.00 in0.0 mm 0.00 in0.0 mm
02:44 AM 57.5°F14.2°C 59.3°F15.2°C 73% Calm Calm -- 29.66 in1004.4 mb 0.00 in0.0 mm 0.00 in0.0 mm 0.00 in0.0 mm
02:45 AM 57.4°F14.1°C 59.5°F15.3°C 73% Calm Calm -- 29.66 in1004.4 mb 0.00 in0.0 mm 0.00 in0.0 mm 0.00 in0.0 mm
02:47 AM 56.6°F13.7°C 59.3°F15.2°C 73% Calm Calm -- 29.66 in1004.4 mb 0.00 in0.0 mm 0.00 in0.0 mm 0.00 in0.0 mm
02:48 AM 56.9°F13.8°C 59.1°F15.1°C 73% Calm Calm -- 29.66 in1004.4 mb 0.00 in0.0 mm 0.00 in0.0 mm 0.00 in0.0 mm
02:50 AM 56.9°F13.8°C 59.1°F15.1°C 73% Calm Calm -- 29.66 in1004.4 mb 0.00 in0.0 mm 0.00 in0.0 mm 0.00 in0.0 mm
02:51 AM 57.0°F13.9°C 59.2°F15.1°C 74% Calm Calm -- 29.66 in1004.4 mb 0.00 in0.0 mm 0.00 in0.0 mm 0.00 in0.0 mm
02:53 AM 57.2°F14.0°C 59.3°F15.2°C 74% Calm Calm -- 29.66 in1004.4 mb 0.00 in0.0 mm 0.00 in0.0 mm 0.00 in0.0 mm
02:54 AM 57.1°F13.9°C 59.2°F15.1°C 74% Calm Calm -- 29.66 in1004.4 mb 0.00 in0.0 mm 0.00 in0.0 mm 0.00 in0.0 mm
02:56 AM 57.0°F13.9°C 59.2°F15.1°C 74% Calm Calm -- 29.66 in1004.4 mb 0.00 in0.0 mm 0.00 in0.0 mm 0.00 in0.0 mm
02:57 AM 57.0°F13.9°C 59.2°F15.1°C 74% Calm Calm -- 29.66 in1004.4 mb 0.00 in0.0 mm 0.00 in0.0 mm 0.00 in0.0 mm
02:59 AM 56.3°F13.5°C 59.0°F15.0°C 74% Calm Calm -- 29.66 in1004.4 mb 0.00 in0.0 mm 0.00 in0.0 mm 0.00 in0.0 mm
03:00 AM 56.5°F13.6°C 59.3°F15.2°C 74% Calm Calm -- 29.66 in1004.4 mb 0.00 in0.0 mm 0.00 in0.0 mm 0.00 in0.0 mm
03:02 AM 56.4°F13.6°C 59.0°F15.0°C 74% Calm Calm -- 29.66 in1004.4 mb 0.00 in0.0 mm 0.00 in0.0 mm 0.00 in0.0 mm
03:03 AM 56.4°F13.6°C 58.8°F14.9°C 74% Calm Calm -- 29.66 in1004.4 mb 0.00 in0.0 mm 0.00 in0.0 mm 0.00 in0.0 mm
03:05 AM 56.8°F13.8°C 58.9°F14.9°C 74% Calm Calm -- 29.66 in1004.4 mb 0.00 in0.0 mm 0.00 in0.0 mm 0.00 in0.0 mm
03:06 AM 56.8°F13.8°C 59.0°F15.0°C 74% Calm Calm -- 29.66 in1004.4 mb 0.00 in0.0 mm 0.00 in0.0 mm 0.00 in0.0 mm
03:08 AM 56.4°F13.6°C 58.7°F14.8°C 74% Calm Calm -- 29.66 in1004.4 mb 0.00 in0.0 mm 0.00 in0.0 mm 0.00 in0.0 mm
03:09 AM 56.8°F13.8°C 58.6°F14.8°C 74% Calm Calm -- 29.66 in1004.4 mb 0.00 in0.0 mm 0.00 in0.0 mm 0.00 in0.0 mm
03:11 AM 56.5°F13.6°C 58.4°F14.7°C 74% Calm Calm -- 29.66 in1004.4 mb 0.00 in0.0 mm 0.00 in0.0 mm 0.00 in0.0 mm
03:12 AM 56.5°F13.6°C 58.7°F14.8°C 74% Calm Calm -- 29.66 in1004.4 mb 0.00 in0.0 mm 0.00 in0.0 mm 0.00 in0.0 mm
03:14 AM 56.2°F13.4°C 58.5°F14.7°C 74% Calm Calm -- 29.66 in1004.4 mb 0.00 in0.0 mm 0.00 in0.0 mm 0.00 in0.0 mm
03:15 AM 56.1°F13.4°C 58.5°F14.7°C 74% Calm Calm -- 29.66 in1004.4 mb 0.00 in0.0 mm 0.00 in0.0 mm 0.00 in0.0 mm
03:17 AM 56.4°F13.6°C 58.6°F14.8°C 74% Calm Calm -- 29.66 in1004.4 mb 0.00 in0.0 mm 0.00 in0.0 mm 0.00 in0.0 mm
03:18 AM 56.5°F13.6°C 58.5°F14.7°C 73% Calm Calm -- 29.66 in1004.4 mb 0.00 in0.0 mm 0.00 in0.0 mm 0.00 in0.0 mm
03:20 AM 56.2°F13.4°C 58.5°F14.7°C 75% Calm Calm -- 29.66 in1004.4 mb 0.00 in0.0 mm 0.00 in0.0 mm 0.00 in0.0 mm
03:21 AM 56.2°F13.4°C 58.6°F14.8°C 75% Calm Calm -- 29.66 in1004.4 mb 0.00 in0.0 mm 0.00 in0.0 mm 0.00 in0.0 mm
03:23 AM 56.1°F13.4°C 58.5°F14.7°C 75% Calm Calm -- 29.66 in1004.4 mb 0.00 in0.0 mm 0.00 in0.0 mm 0.00 in0.0 mm
03:24 AM 56.1°F13.4°C 58.6°F14.8°C 75% Calm Calm -- 29.66 in1004.4 mb 0.00 in0.0 mm 0.00 in0.0 mm 0.00 in0.0 mm
03:26 AM 56.4°F13.6°C 58.6°F14.8°C 75% Calm Calm -- 29.66 in1004.4 mb 0.00 in0.0 mm 0.00 in0.0 mm 0.00 in0.0 mm
03:27 AM 56.4°F13.6°C 58.4°F14.7°C 75% Calm Calm -- 29.66 in1004.4 mb 0.00 in0.0 mm 0.00 in0.0 mm 0.00 in0.0 mm
03:29 AM 56.0°F13.3°C 58.8°F14.9°C 76% Calm Calm -- 29.66 in1004.4 mb 0.00 in0.0 mm 0.00 in0.0 mm 0.00 in0.0 mm
03:30 AM 56.2°F13.4°C 58.8°F14.9°C 76% Calm Calm -- 29.66 in1004.4 mb 0.00 in0.0 mm 0.00 in0.0 mm 0.00 in0.0 mm
03:32 AM 56.2°F13.4°C 59.1°F15.1°C 77% Calm Calm -- 29.66 in1004.4 mb 0.00 in0.0 mm 0.00 in0.0 mm 0.00 in0.0 mm
03:33 AM 56.0°F13.3°C 59.1°F15.1°C 77% Calm Calm -- 29.66 in1004.4 mb 0.00 in0.0 mm 0.00 in0.0 mm 0.00 in0.0 mm
03:35 AM 55.7°F13.2°C 58.6°F14.8°C 76% Calm Calm -- 29.66 in1004.4 mb 0.00 in0.0 mm 0.00 in0.0 mm 0.00 in0.0 mm
03:36 AM 55.6°F13.1°C 58.8°F14.9°C 76% Calm Calm -- 29.66 in1004.4 mb 0.00 in0.0 mm 0.00 in0.0 mm 0.00 in0.0 mm
03:38 AM 55.2°F12.9°C 58.6°F14.8°C 77% Calm Calm -- 29.66 in1004.4 mb 0.00 in0.0 mm 0.00 in0.0 mm 0.00 in0.0 mm
03:39 AM 55.3°F12.9°C 58.9°F14.9°C 77% Calm Calm -- 29.66 in1004.4 mb 0.00 in0.0 mm 0.00 in0.0 mm 0.00 in0.0 mm
03:41 AM 55.9°F13.3°C 58.8°F14.9°C 77% Calm Calm -- 29.66 in1004.4 mb 0.00 in0.0 mm 0.00 in0.0 mm 0.00 in0.0 mm
03:42 AM 55.7°F13.2°C 58.6°F14.8°C 77% Calm Calm -- 29.66 in1004.4 mb 0.00 in0.0 mm 0.00 in0.0 mm 0.00 in0.0 mm
03:44 AM 56.1°F13.4°C 58.3°F14.6°C 76% Calm Calm -- 29.66 in1004.4 mb 0.00 in0.0 mm 0.00 in0.0 mm 0.00 in0.0 mm
03:47 AM 56.0°F13.3°C 58.5°F14.7°C 77% Calm Calm -- 29.66 in1004.4 mb 0.00 in0.0 mm 0.00 in0.0 mm 0.00 in0.0 mm
03:48 AM 55.9°F13.3°C 58.4°F14.7°C 77% Calm Calm -- 29.66 in1004.4 mb 0.00 in0.0 mm 0.00 in0.0 mm 0.00 in0.0 mm
03:50 AM 56.0°F13.3°C 58.5°F14.7°C 77% Calm Calm -- 29.66 in1004.4 mb 0.00 in0.0 mm 0.00 in0.0 mm 0.00 in0.0 mm
03:51 AM 55.9°F13.3°C 58.3°F14.6°C 76% Calm Calm -- 29.66 in1004.4 mb 0.00 in0.0 mm 0.00 in0.0 mm 0.00 in0.0 mm
03:53 AM 55.9°F13.3°C 58.4°F14.7°C 77% Calm Calm -- 29.67 in1004.7 mb 0.00 in0.0 mm 0.00 in0.0 mm 0.00 in0.0 mm
03:54 AM 56.0°F13.3°C 58.2°F14.6°C 76% Calm Calm -- 29.67 in1004.7 mb 0.00 in0.0 mm 0.00 in0.0 mm 0.00 in0.0 mm
03:56 AM 56.2°F13.4°C 58.4°F14.7°C 77% 0.8 mph NNW1.3 kmh NNW 0.8 mph1.3 kmh 29.67 in1004.7 mb 0.00 in0.0 mm 0.00 in0.0 mm 0.00 in0.0 mm
03:57 AM 56.4°F13.6°C 58.4°F14.7°C 77% 1.2 mph WSW1.9 kmh WSW 1.2 mph1.9 kmh 29.67 in1004.7 mb 0.00 in0.0 mm 0.00 in0.0 mm 0.00 in0.0 mm
03:59 AM 56.8°F13.8°C 58.8°F14.9°C 78% 3.2 mph WNW5.1 kmh WNW 3.3 mph5.3 kmh 29.68 in1005.1 mb 0.00 in0.0 mm 0.00 in0.0 mm 0.00 in0.0 mm
04:00 AM 57.0°F13.9°C 58.9°F14.9°C 78% 3.5 mph W5.6 kmh W 3.6 mph5.8 kmh 29.69 in1005.4 mb 0.00 in0.0 mm 0.00 in0.0 mm 0.00 in0.0 mm
04:02 AM 58.4°F14.7°C 59.4°F15.2°C 80% 0.8 mph SE1.3 kmh SE 0.8 mph1.3 kmh 29.68 in1005.1 mb 0.00 in0.0 mm 0.00 in0.0 mm 0.00 in0.0 mm
04:03 AM 58.4°F14.7°C 59.6°F15.3°C 80% 1.4 mph SE2.3 kmh SE 1.4 mph2.3 kmh 29.68 in1005.1 mb 0.00 in0.0 mm 0.00 in0.0 mm 0.00 in0.0 mm
04:05 AM 58.1°F14.5°C 59.6°F15.3°C 80% 1.2 mph WSW1.9 kmh WSW 1.2 mph1.9 kmh 29.68 in1005.1 mb 0.00 in0.0 mm 0.00 in0.0 mm 0.00 in0.0 mm
04:06 AM 58.1°F14.5°C 59.5°F15.3°C 79% 1.4 mph WSW2.3 kmh WSW 1.5 mph2.4 kmh 29.68 in1005.1 mb 0.00 in0.0 mm 0.00 in0.0 mm 0.00 in0.0 mm
04:08 AM 58.1°F14.5°C 59.6°F15.3°C 79% Calm Calm -- 29.68 in1005.1 mb 0.00 in0.0 mm 0.00 in0.0 mm 0.00 in0.0 mm
04:09 AM 58.2°F14.6°C 59.8°F15.4°C 79% Calm Calm -- 29.69 in1005.4 mb 0.00 in0.0 mm 0.00 in0.0 mm 0.00 in0.0 mm
04:11 AM 57.8°F14.3°C 60.1°F15.6°C 81% 0.8 mph SE1.3 kmh SE 0.8 mph1.3 kmh 29.68 in1005.1 mb 0.00 in0.0 mm 0.00 in0.0 mm 0.00 in0.0 mm
04:12 AM 58.1°F14.5°C 60.0°F15.6°C 80% 1.0 mph SE1.6 kmh SE 1.0 mph1.6 kmh 29.68 in1005.1 mb 0.00 in0.0 mm 0.00 in0.0 mm 0.00 in0.0 mm
04:14 AM 58.1°F14.5°C 60.4°F15.8°C 81% Calm Calm -- 29.68 in1005.1 mb 0.00 in0.0 mm 0.00 in0.0 mm 0.00 in0.0 mm
04:15 AM 58.1°F14.5°C 60.1°F15.6°C 81% Calm Calm -- 29.68 in1005.1 mb 0.00 in0.0 mm 0.00 in0.0 mm 0.00 in0.0 mm
04:17 AM 58.1°F14.5°C 60.5°F15.8°C 81% 2.0 mph ESE3.2 kmh ESE 2.0 mph3.2 kmh 29.69 in1005.4 mb 0.00 in0.0 mm 0.00 in0.0 mm 0.00 in0.0 mm
04:18 AM 58.1°F14.5°C 60.3°F15.7°C 81% 1.8 mph ESE2.9 kmh ESE 1.9 mph3.1 kmh 29.69 in1005.4 mb 0.00 in0.0 mm 0.00 in0.0 mm 0.00 in0.0 mm
04:20 AM 57.9°F14.4°C 60.2°F15.7°C 81% 2.4 mph SE3.9 kmh SE 2.4 mph3.9 kmh 29.69 in1005.4 mb 0.00 in0.0 mm 0.00 in0.0 mm 0.00 in0.0 mm
04:21 AM 57.7°F14.3°C 60.4°F15.8°C 81% 2.1 mph SE3.4 kmh SE 2.1 mph3.4 kmh 29.69 in1005.4 mb 0.00 in0.0 mm 0.00 in0.0 mm 0.00 in0.0 mm
04:23 AM 58.0°F14.4°C 60.5°F15.8°C 82% 3.2 mph ESE5.1 kmh ESE 3.3 mph5.3 kmh 29.68 in1005.1 mb 0.00 in0.0 mm 0.00 in0.0 mm 0.00 in0.0 mm
04:24 AM 58.1°F14.5°C 60.3°F15.7°C 81% 2.7 mph ESE4.3 kmh ESE 2.9 mph4.7 kmh 29.68 in1005.1 mb 0.00 in0.0 mm 0.00 in0.0 mm 0.00 in0.0 mm
04:26 AM 57.8°F14.3°C 60.2°F15.7°C 81% Calm Calm -- 29.68 in1005.1 mb 0.00 in0.0 mm 0.00 in0.0 mm 0.00 in0.0 mm
04:27 AM 57.8°F14.3°C 60.1°F15.6°C 81% Calm Calm -- 29.68 in1005.1 mb 0.00 in0.0 mm 0.00 in0.0 mm 0.00 in0.0 mm
04:29 AM 57.7°F14.3°C 59.8°F15.4°C 80% Calm Calm -- 29.68 in1005.1 mb 0.00 in0.0 mm 0.00 in0.0 mm 0.00 in0.0 mm
04:30 AM 57.8°F14.3°C 60.0°F15.6°C 80% Calm Calm -- 29.68 in1005.1 mb 0.00 in0.0 mm 0.00 in0.0 mm 0.00 in0.0 mm
04:32 AM 57.9°F14.4°C 60.0°F15.6°C 80% 0.4 mph NNW0.6 kmh NNW 0.4 mph0.6 kmh 29.68 in1005.1 mb 0.00 in0.0 mm 0.00 in0.0 mm 0.00 in0.0 mm
04:33 AM 58.0°F14.4°C 60.2°F15.7°C 81% 0.3 mph ESE0.5 kmh ESE 0.3 mph0.5 kmh 29.68 in1005.1 mb 0.00 in0.0 mm 0.00 in0.0 mm 0.00 in0.0 mm
04:35 AM 57.7°F14.3°C 59.8°F15.4°C 80% Calm Calm -- 29.68 in1005.1 mb 0.00 in0.0 mm 0.00 in0.0 mm 0.00 in0.0 mm
04:36 AM 57.5°F14.2°C 59.9°F15.5°C 80% Calm Calm -- 29.68 in1005.1 mb 0.00 in0.0 mm 0.00 in0.0 mm 0.00 in0.0 mm
04:38 AM 57.7°F14.3°C 59.8°F15.4°C 80% Calm Calm -- 29.68 in1005.1 mb 0.00 in0.0 mm 0.00 in0.0 mm 0.00 in0.0 mm
04:39 AM 57.7°F14.3°C 59.7°F15.4°C 80% Calm Calm -- 29.68 in1005.1 mb 0.00 in0.0 mm 0.00 in0.0 mm 0.00 in0.0 mm
04:41 AM 57.5°F14.2°C 59.6°F15.3°C 79% Calm Calm -- 29.68 in1005.1 mb 0.00 in0.0 mm 0.00 in0.0 mm 0.00 in0.0 mm
04:42 AM 57.7°F14.3°C 59.7°F15.4°C 79% Calm Calm -- 29.68 in1005.1 mb 0.00 in0.0 mm 0.00 in0.0 mm 0.00 in0.0 mm
04:44 AM 57.8°F14.3°C 59.6°F15.3°C 79% Calm Calm -- 29.68 in1005.1 mb 0.00 in0.0 mm 0.00 in0.0 mm 0.00 in0.0 mm
04:45 AM 57.9°F14.4°C 59.3°F15.2°C 79% Calm Calm -- 29.68 in1005.1 mb 0.00 in0.0 mm 0.00 in0.0 mm 0.00 in0.0 mm
04:47 AM 57.9°F14.4°C 59.9°F15.5°C 80% Calm Calm -- 29.68 in1005.1 mb 0.00 in0.0 mm 0.00 in0.0 mm 0.00 in0.0 mm
04:48 AM 57.9°F14.4°C 59.7°F15.4°C 80% Calm Calm -- 29.68 in1005.1 mb 0.00 in0.0 mm 0.00 in0.0 mm 0.00 in0.0 mm
04:50 AM 57.7°F14.3°C 59.8°F15.4°C 80% Calm Calm -- 29.68 in1005.1 mb 0.00 in0.0 mm 0.00 in0.0 mm 0.00 in0.0 mm
04:51 AM 57.8°F14.3°C 59.9°F15.5°C 80% Calm Calm -- 29.68 in1005.1 mb 0.00 in0.0 mm 0.00 in0.0 mm 0.00 in0.0 mm
04:53 AM 58.0°F14.4°C 60.0°F15.6°C 80% Calm Calm -- 29.68 in1005.1 mb 0.00 in0.0 mm 0.00 in0.0 mm 0.00 in0.0 mm
04:54 AM 57.8°F14.3°C 60.2°F15.7°C 80% Calm Calm -- 29.68 in1005.1 mb 0.00 in0.0 mm 0.00 in0.0 mm 0.00 in0.0 mm
04:56 AM 58.0°F14.4°C 60.4°F15.8°C 81% Calm Calm -- 29.68 in1005.1 mb 0.00 in0.0 mm 0.00 in0.0 mm 0.00 in0.0 mm
04:57 AM 57.8°F14.3°C 60.3°F15.7°C 80% Calm Calm -- 29.68 in1005.1 mb 0.00 in0.0 mm 0.00 in0.0 mm 0.00 in0.0 mm
04:59 AM 58.1°F14.5°C 60.6°F15.9°C 80% Calm Calm -- 29.68 in1005.1 mb 0.00 in0.0 mm 0.00 in0.0 mm 0.00 in0.0 mm
05:00 AM 58.1°F14.5°C 60.5°F15.8°C 80% Calm Calm -- 29.68 in1005.1 mb 0.00 in0.0 mm 0.00 in0.0 mm 0.00 in0.0 mm
05:02 AM 58.2°F14.6°C 60.6°F15.9°C 80% Calm Calm -- 29.68 in1005.1 mb 0.00 in0.0 mm 0.00 in0.0 mm 0.00 in0.0 mm
05:05 AM 58.8°F14.9°C 61.1°F16.2°C 80% Calm Calm -- 29.68 in1005.1 mb 0.00 in0.0 mm 0.00 in0.0 mm 0.00 in0.0 mm
05:06 AM 58.9°F14.9°C 61.0°F16.1°C 80% Calm Calm -- 29.68 in1005.1 mb 0.00 in0.0 mm 0.00 in0.0 mm 0.00 in0.0 mm
05:08 AM 59.5°F15.3°C 61.0°F16.1°C 79% 0.8 mph NNW1.3 kmh NNW 0.8 mph1.3 kmh 29.69 in1005.4 mb 0.00 in0.0 mm 0.00 in0.0 mm 0.00 in0.0 mm
05:09 AM 59.5°F15.3°C 60.7°F15.9°C 79% 0.5 mph SW0.8 kmh SW 0.5 mph0.8 kmh 29.69 in1005.4 mb 0.00 in0.0 mm 0.00 in0.0 mm 0.00 in0.0 mm
05:11 AM 60.2°F15.7°C 61.0°F16.1°C 79% Calm Calm -- 29.68 in1005.1 mb 0.00 in0.0 mm 0.00 in0.0 mm 0.00 in0.0 mm
05:12 AM 60.2°F15.7°C 61.3°F16.3°C 79% Calm Calm -- 29.68 in1005.1 mb 0.00 in0.0 mm 0.00 in0.0 mm 0.00 in0.0 mm
05:14 AM 60.9°F16.1°C 61.5°F16.4°C 79% 0.4 mph SW0.6 kmh SW 0.4 mph0.6 kmh 29.70 in1005.8 mb 0.00 in0.0 mm 0.00 in0.0 mm 0.00 in0.0 mm
05:15 AM 60.9°F16.1°C 61.9°F16.6°C 80% 0.9 mph SW1.4 kmh SW 0.9 mph1.4 kmh 29.69 in1005.4 mb 0.00 in0.0 mm 0.00 in0.0 mm 0.00 in0.0 mm
05:17 AM 61.1°F16.2°C 61.7°F16.5°C 78% 0.8 mph SW1.3 kmh SW 0.8 mph1.3 kmh 29.70 in1005.8 mb 0.00 in0.0 mm 0.00 in0.0 mm 0.00 in0.0 mm
05:18 AM 61.1°F16.2°C 61.7°F16.5°C 79% 0.3 mph SW0.5 kmh SW 0.3 mph0.5 kmh 29.70 in1005.8 mb 0.00 in0.0 mm 0.00 in0.0 mm 0.00 in0.0 mm
05:20 AM 60.9°F16.1°C 61.6°F16.4°C 77% Calm Calm -- 29.70 in1005.8 mb 0.00 in0.0 mm 0.00 in0.0 mm 0.00 in0.0 mm
05:21 AM 61.3°F16.3°C 61.5°F16.4°C 77% Calm Calm -- 29.70 in1005.8 mb 0.00 in0.0 mm 0.00 in0.0 mm 0.00 in0.0 mm
05:23 AM 61.4°F16.3°C 61.9°F16.6°C 78% Calm Calm -- 29.70 in1005.8 mb 0.00 in0.0 mm 0.00 in0.0 mm 0.00 in0.0 mm
05:24 AM 61.5°F16.4°C 61.8°F16.6°C 77% Calm Calm -- 29.69 in1005.4 mb 0.00 in0.0 mm 0.00 in0.0 mm 0.00 in0.0 mm
05:26 AM 61.6°F16.4°C 62.0°F16.7°C 77% Calm Calm -- 29.69 in1005.4 mb 0.00 in0.0 mm 0.00 in0.0 mm 0.00 in0.0 mm
05:27 AM 61.5°F16.4°C 62.1°F16.7°C 77% Calm Calm -- 29.70 in1005.8 mb 0.00 in0.0 mm 0.00 in0.0 mm 0.00 in0.0 mm
05:29 AM 62.8°F17.1°C 61.8°F16.6°C 76% Calm Calm -- 29.70 in1005.8 mb 0.00 in0.0 mm 0.00 in0.0 mm 0.00 in0.0 mm
05:30 AM 62.8°F17.1°C 62.3°F16.8°C 77% Calm Calm -- 29.70 in1005.8 mb 0.00 in0.0 mm 0.00 in0.0 mm 0.00 in0.0 mm
05:32 AM 62.9°F17.2°C 62.6°F17.0°C 77% Calm Calm -- 29.70 in1005.8 mb 0.00 in0.0 mm 0.00 in0.0 mm 0.00 in0.0 mm
05:33 AM 63.2°F17.3°C 62.6°F17.0°C 76% Calm Calm -- 29.70 in1005.8 mb 0.00 in0.0 mm 0.00 in0.0 mm 0.00 in0.0 mm
05:35 AM 62.9°F17.2°C 62.8°F17.1°C 76% Calm Calm -- 29.70 in1005.8 mb 0.00 in0.0 mm 0.00 in0.0 mm 0.00 in0.0 mm
05:36 AM 62.9°F17.2°C 62.5°F16.9°C 76% Calm Calm -- 29.70 in1005.8 mb 0.00 in0.0 mm 0.00 in0.0 mm 0.00 in0.0 mm
05:38 AM 63.6°F17.6°C 62.8°F17.1°C 75% Calm Calm -- 29.70 in1005.8 mb 0.00 in0.0 mm 0.00 in0.0 mm 0.00 in0.0 mm
05:39 AM 63.7°F17.6°C 62.5°F16.9°C 74% Calm Calm -- 29.70 in1005.8 mb 0.00 in0.0 mm 0.00 in0.0 mm 0.00 in0.0 mm
05:41 AM 63.7°F17.6°C 63.0°F17.2°C 74% Calm Calm -- 29.70 in1005.8 mb 0.00 in0.0 mm 0.00 in0.0 mm 0.00 in0.0 mm
05:42 AM 63.7°F17.6°C 63.1°F17.3°C 75% Calm Calm -- 29.70 in1005.8 mb 0.00 in0.0 mm 0.00 in0.0 mm 0.00 in0.0 mm
05:44 AM 64.3°F17.9°C 63.1°F17.3°C 74% Calm Calm -- 29.70 in1005.8 mb 0.00 in0.0 mm 0.00 in0.0 mm 0.00 in0.0 mm
05:45 AM 64.3°F17.9°C 63.4°F17.4°C 74% Calm Calm -- 29.70 in1005.8 mb 0.00 in0.0 mm 0.00 in0.0 mm 0.00 in0.0 mm
05:47 AM 64.7°F18.2°C 63.5°F17.5°C 73% Calm Calm -- 29.70 in1005.8 mb 0.00 in0.0 mm 0.00 in0.0 mm 0.00 in0.0 mm
05:48 AM 64.7°F18.2°C 63.7°F17.6°C 74% Calm Calm -- 29.70 in1005.8 mb 0.00 in0.0 mm 0.00 in0.0 mm 0.00 in0.0 mm
05:50 AM 65.2°F18.4°C 63.9°F17.7°C 73% Calm Calm -- 29.71 in1006.1 mb 0.00 in0.0 mm 0.00 in0.0 mm 0.00 in0.0 mm
05:51 AM 65.1°F18.4°C 63.5°F17.5°C 72% Calm Calm -- 29.71 in1006.1 mb 0.00 in0.0 mm 0.00 in0.0 mm 0.00 in0.0 mm
05:53 AM 66.3°F19.1°C 63.9°F17.7°C 72% 1.6 mph ESE2.6 kmh ESE 1.6 mph2.6 kmh 29.70 in1005.8 mb 0.00 in0.0 mm 0.00 in0.0 mm 0.00 in0.0 mm
05:54 AM 66.3°F19.1°C 63.9°F17.7°C 72% 1.4 mph ESE2.3 kmh ESE 1.4 mph2.3 kmh 29.70 in1005.8 mb 0.00 in0.0 mm 0.00 in0.0 mm 0.00 in0.0 mm
05:56 AM 66.8°F19.3°C 64.0°F17.8°C 71% Calm Calm -- 29.71 in1006.1 mb 0.00 in0.0 mm 0.00 in0.0 mm 0.00 in0.0 mm
05:57 AM 66.8°F19.3°C 63.9°F17.7°C 71% Calm Calm -- 29.71 in1006.1 mb 0.00 in0.0 mm 0.00 in0.0 mm 0.00 in0.0 mm
05:59 AM 66.4°F19.1°C 63.8°F17.7°C 69% Calm Calm -- 29.71 in1006.1 mb 0.00 in0.0 mm 0.00 in0.0 mm 0.00 in0.0 mm
06:00 AM 66.4°F19.1°C 63.8°F17.7°C 69% Calm Calm -- 29.71 in1006.1 mb 0.00 in0.0 mm 0.00 in0.0 mm 0.00 in0.0 mm
06:02 AM 66.2°F19.0°C 64.0°F17.8°C 70% Calm Calm -- 29.71 in1006.1 mb 0.00 in0.0 mm 0.00 in0.0 mm 0.00 in0.0 mm
06:03 AM 66.3°F19.1°C 64.3°F17.9°C 69% Calm Calm -- 29.71 in1006.1 mb 0.00 in0.0 mm 0.00 in0.0 mm 0.00 in0.0 mm
06:05 AM 66.4°F19.1°C 64.1°F17.8°C 69% Calm Calm -- 29.71 in1006.1 mb 0.00 in0.0 mm 0.00 in0.0 mm 0.00 in0.0 mm
06:06 AM 66.3°F19.1°C 64.3°F17.9°C 69% Calm Calm -- 29.71 in1006.1 mb 0.00 in0.0 mm 0.00 in0.0 mm 0.00 in0.0 mm
06:08 AM 66.4°F19.1°C 64.5°F18.1°C 70% Calm Calm -- 29.71 in1006.1 mb 0.00 in0.0 mm 0.00 in0.0 mm 0.00 in0.0 mm
06:09 AM 66.4°F19.1°C 64.4°F18.0°C 69% Calm Calm -- 29.71 in1006.1 mb 0.00 in0.0 mm 0.00 in0.0 mm 0.00 in0.0 mm
06:11 AM 68.3°F20.2°C 64.6°F18.1°C 69% Calm Calm -- 29.71 in1006.1 mb 0.00 in0.0 mm 0.00 in0.0 mm 0.00 in0.0 mm
06:12 AM 68.3°F20.2°C 64.9°F18.3°C 70% Calm Calm -- 29.71 in1006.1 mb 0.00 in0.0 mm 0.00 in0.0 mm 0.00 in0.0 mm
06:14 AM 68.9°F20.5°C 65.1°F18.4°C 69% Calm Calm -- 29.71 in1006.1 mb 0.00 in0.0 mm 0.00 in0.0 mm 0.00 in0.0 mm
06:15 AM 68.9°F20.5°C 65.5°F18.6°C 70% Calm Calm -- 29.71 in1006.1 mb 0.00 in0.0 mm 0.00 in0.0 mm 0.00 in0.0 mm
06:17 AM 69.6°F20.9°C 66.0°F18.9°C 69% 0.8 mph SE1.3 kmh SE 0.8 mph1.3 kmh 29.71 in1006.1 mb 0.00 in0.0 mm 0.00 in0.0 mm 0.00 in0.0 mm
06:18 AM 69.6°F20.9°C 66.0°F18.9°C 70% 1.1 mph SE1.8 kmh SE 1.2 mph1.9 kmh 29.71 in1006.1 mb 0.00 in0.0 mm 0.00 in0.0 mm 0.00 in0.0 mm
06:20 AM 70.3°F21.3°C 65.6°F18.7°C 68% Calm Calm -- 29.72 in1006.4 mb 0.00 in0.0 mm 0.00 in0.0 mm 0.00 in0.0 mm
06:21 AM 70.3°F21.3°C 65.6°F18.7°C 68% Calm Calm -- 29.72 in1006.4 mb 0.00 in0.0 mm 0.00 in0.0 mm 0.00 in0.0 mm
06:23 AM 70.0°F21.1°C 65.0°F18.3°C 65% 0.8 mph SE1.3 kmh SE 0.8 mph1.3 kmh 29.72 in1006.4 mb 0.00 in0.0 mm 0.00 in0.0 mm 0.00 in0.0 mm
06:24 AM 70.0°F21.1°C 65.2°F18.4°C 66% 0.9 mph SE1.4 kmh SE 0.9 mph1.4 kmh 29.72 in1006.4 mb 0.00 in0.0 mm 0.00 in0.0 mm 0.00 in0.0 mm
06:26 AM 71.2°F21.8°C 65.8°F18.8°C 66% 1.6 mph WSW2.6 kmh WSW 1.6 mph2.6 kmh 29.72 in1006.4 mb 0.00 in0.0 mm 0.00 in0.0 mm 0.00 in0.0 mm
06:27 AM 71.2°F21.8°C 65.8°F18.8°C 66% 1.3 mph WSW2.1 kmh WSW 1.3 mph2.1 kmh 29.72 in1006.4 mb 0.00 in0.0 mm 0.00 in0.0 mm 0.00 in0.0 mm
06:29 AM 70.9°F21.6°C 65.3°F18.5°C 65% 0.4 mph SW0.6 kmh SW 0.4 mph0.6 kmh 29.72 in1006.4 mb 0.00 in0.0 mm 0.00 in0.0 mm 0.00 in0.0 mm
06:30 AM 70.8°F21.6°C 65.5°F18.6°C 64% 0.7 mph SW1.1 kmh SW 0.8 mph1.3 kmh 29.72 in1006.4 mb 0.00 in0.0 mm 0.00 in0.0 mm 0.00 in0.0 mm
06:32 AM 72.4°F22.4°C 66.7°F19.3°C 66% Calm Calm -- 29.72 in1006.4 mb 0.00 in0.0 mm 0.00 in0.0 mm 0.00 in0.0 mm
06:33 AM 72.4°F22.4°C 66.5°F19.2°C 66% Calm Calm -- 29.72 in1006.4 mb 0.00 in0.0 mm 0.00 in0.0 mm 0.00 in0.0 mm
06:35 AM 72.7°F22.6°C 66.4°F19.1°C 64% 0.8 mph W1.3 kmh W 0.8 mph1.3 kmh 29.72 in1006.4 mb 0.00 in0.0 mm 0.00 in0.0 mm 0.00 in0.0 mm
06:36 AM 72.8°F22.7°C 66.8°F19.3°C 65% 0.5 mph W0.8 kmh W 0.5 mph0.8 kmh 29.72 in1006.4 mb 0.00 in0.0 mm 0.00 in0.0 mm 0.00 in0.0 mm
06:41 AM 70.7°F21.5°C 66.8°F19.3°C 62% Calm Calm -- 29.73 in1006.8 mb 0.00 in0.0 mm 0.00 in0.0 mm 0.00 in0.0 mm
06:42 AM 70.6°F21.4°C 66.5°F19.2°C 62% 0.2 mph 0.3 kmh 0.3 mph0.5 kmh 29.73 in1006.8 mb 0.00 in0.0 mm 0.00 in0.0 mm 0.00 in0.0 mm
06:44 AM 70.8°F21.6°C 66.4°F19.1°C 60% 1.6 mph NW2.6 kmh NW 1.6 mph2.6 kmh 29.73 in1006.8 mb 0.00 in0.0 mm 0.00 in0.0 mm 0.00 in0.0 mm
06:45 AM 70.8°F21.6°C 66.1°F18.9°C 60% 0.7 mph NW1.1 kmh NW 0.8 mph1.3 kmh 29.73 in1006.8 mb 0.00 in0.0 mm 0.00 in0.0 mm 0.00 in0.0 mm
06:47 AM 71.4°F21.9°C 66.6°F19.2°C 60% 2.0 mph WNW3.2 kmh WNW 2.0 mph3.2 kmh 29.73 in1006.8 mb 0.00 in0.0 mm 0.00 in0.0 mm 0.00 in0.0 mm
06:48 AM 71.5°F21.9°C 65.6°F18.7°C 60% 3.0 mph NW4.8 kmh NW 3.0 mph4.8 kmh 29.73 in1006.8 mb 0.00 in0.0 mm 0.00 in0.0 mm 0.00 in0.0 mm
06:50 AM 71.8°F22.1°C 66.0°F18.9°C 61% 2.0 mph 3.2 kmh 2.0 mph3.2 kmh 29.74 in1007.1 mb 0.00 in0.0 mm 0.00 in0.0 mm 0.00 in0.0 mm
06:51 AM 71.9°F22.2°C 66.1°F18.9°C 61% 2.1 mph 3.4 kmh 2.1 mph3.4 kmh 29.73 in1006.8 mb 0.00 in0.0 mm 0.00 in0.0 mm 0.00 in0.0 mm
06:53 AM 71.7°F22.1°C 66.4°F19.1°C 62% 2.0 mph WNW3.2 kmh WNW 2.0 mph3.2 kmh 29.73 in1006.8 mb 0.00 in0.0 mm 0.00 in0.0 mm 0.00 in0.0 mm
06:54 AM 71.7°F22.1°C 66.3°F19.1°C 61% 1.9 mph WNW3.1 kmh WNW 1.9 mph3.1 kmh 29.74 in1007.1 mb 0.00 in0.0 mm 0.00 in0.0 mm 0.00 in0.0 mm
06:56 AM 71.7°F22.1°C 66.5°F19.2°C 62% 2.0 mph W3.2 kmh W 2.0 mph3.2 kmh 29.74 in1007.1 mb 0.00 in0.0 mm 0.00 in0.0 mm 0.00 in0.0 mm
06:57 AM 71.8°F22.1°C 66.6°F19.2°C 62% 3.2 mph W5.1 kmh W 3.5 mph5.6 kmh 29.74 in1007.1 mb 0.00 in0.0 mm 0.00 in0.0 mm 0.00 in0.0 mm
06:59 AM 71.7°F22.1°C 66.2°F19.0°C 63% 2.0 mph WNW3.2 kmh WNW 2.0 mph3.2 kmh 29.74 in1007.1 mb 0.00 in0.0 mm 0.00 in0.0 mm 0.00 in0.0 mm
07:00 AM 71.7°F22.1°C 66.3°F19.1°C 63% 3.1 mph NW5.0 kmh NW 3.1 mph5.0 kmh 29.74 in1007.1 mb 0.00 in0.0 mm 0.00 in0.0 mm 0.00 in0.0 mm
07:02 AM 72.7°F22.6°C 66.1°F18.9°C 63% 2.0 mph NW3.2 kmh NW 2.0 mph3.2 kmh 29.74 in1007.1 mb 0.00 in0.0 mm 0.00 in0.0 mm 0.00 in0.0 mm
07:03 AM 72.8°F22.7°C 65.9°F18.8°C 63% 2.3 mph NW3.7 kmh NW 2.5 mph4.0 kmh 29.74 in1007.1 mb 0.00 in0.0 mm 0.00 in0.0 mm 0.00 in0.0 mm
07:05 AM 73.2°F22.9°C 66.5°F19.2°C 64% 2.4 mph NNW3.9 kmh NNW 2.4 mph3.9 kmh 29.75 in1007.5 mb 0.00 in0.0 mm 0.00 in0.0 mm 0.00 in0.0 mm
07:06 AM 73.3°F22.9°C 66.4°F19.1°C 64% 1.8 mph WSW2.9 kmh WSW 1.8 mph2.9 kmh 29.74 in1007.1 mb 0.00 in0.0 mm 0.00 in0.0 mm 0.00 in0.0 mm
07:08 AM 73.1°F22.8°C 66.0°F18.9°C 63% 6.2 mph NW10.0 kmh NW 6.2 mph10.0 kmh 29.75 in1007.5 mb 0.00 in0.0 mm 0.00 in0.0 mm 0.00 in0.0 mm
07:09 AM 73.0°F22.8°C 66.4°F19.1°C 63% 5.0 mph NNW8.0 kmh NNW 5.0 mph8.0 kmh 29.74 in1007.1 mb 0.00 in0.0 mm 0.00 in0.0 mm 0.00 in0.0 mm
07:11 AM 72.6°F22.6°C 65.0°F18.3°C 62% 5.0 mph NW8.0 kmh NW 5.1 mph8.2 kmh 29.74 in1007.1 mb 0.00 in0.0 mm 0.00 in0.0 mm 0.00 in0.0 mm
07:12 AM 72.6°F22.6°C 65.3°F18.5°C 62% 4.4 mph NW7.1 kmh NW 4.5 mph7.2 kmh 29.75 in1007.5 mb 0.00 in0.0 mm 0.00 in0.0 mm 0.00 in0.0 mm
07:14 AM 72.7°F22.6°C 65.2°F18.4°C 62% 6.1 mph NW9.8 kmh NW 6.1 mph9.8 kmh 29.75 in1007.5 mb 0.00 in0.0 mm 0.00 in0.0 mm 0.00 in0.0 mm
07:15 AM 72.7°F22.6°C 64.7°F18.2°C 62% 5.4 mph NW8.7 kmh NW 5.5 mph8.9 kmh 29.75 in1007.5 mb 0.00 in0.0 mm 0.00 in0.0 mm 0.00 in0.0 mm
07:17 AM 70.5°F21.4°C 64.9°F18.3°C 63% 5.2 mph NNW8.4 kmh NNW 5.2 mph8.4 kmh 29.75 in1007.5 mb 0.00 in0.0 mm 0.00 in0.0 mm 0.00 in0.0 mm
07:18 AM 70.5°F21.4°C 64.7°F18.2°C 63% 5.2 mph NNW8.4 kmh NNW 5.2 mph8.4 kmh 29.75 in1007.5 mb 0.00 in0.0 mm 0.00 in0.0 mm 0.00 in0.0 mm
07:20 AM 71.5°F21.9°C 64.2°F17.9°C 62% 3.0 mph W4.8 kmh W 3.2 mph5.1 kmh 29.75 in1007.5 mb 0.00 in0.0 mm 0.00 in0.0 mm 0.00 in0.0 mm
07:21 AM 71.6°F22.0°C 64.5°F18.1°C 62% 5.3 mph W8.5 kmh W 5.3 mph8.5 kmh 29.75 in1007.5 mb 0.00 in0.0 mm 0.00 in0.0 mm 0.00 in0.0 mm
07:23 AM 71.4°F21.9°C 64.7°F18.2°C 63% 3.6 mph WNW5.8 kmh WNW 3.7 mph6.0 kmh 29.75 in1007.5 mb 0.00 in0.0 mm 0.00 in0.0 mm 0.00 in0.0 mm
07:24 AM 71.5°F21.9°C 65.2°F18.4°C 63% 4.0 mph WNW6.4 kmh WNW 4.0 mph6.4 kmh 29.75 in1007.5 mb 0.00 in0.0 mm 0.00 in0.0 mm 0.00 in0.0 mm
07:26 AM 70.9°F21.6°C 65.2°F18.4°C 64% 5.0 mph WNW8.0 kmh WNW 5.1 mph8.2 kmh 29.75 in1007.5 mb 0.00 in0.0 mm 0.00 in0.0 mm 0.00 in0.0 mm
07:27 AM 71.0°F21.7°C 64.6°F18.1°C 64% 5.9 mph W9.5 kmh W 6.0 mph9.7 kmh 29.76 in1007.8 mb 0.00 in0.0 mm 0.00 in0.0 mm 0.00 in0.0 mm
07:29 AM 71.6°F22.0°C 65.3°F18.5°C 65% 2.4 mph W3.9 kmh W 2.4 mph3.9 kmh 29.76 in1007.8 mb 0.00 in0.0 mm 0.00 in0.0 mm 0.00 in0.0 mm
07:30 AM 71.6°F22.0°C 65.2°F18.4°C 65% 2.1 mph WSW3.4 kmh WSW 2.1 mph3.4 kmh 29.75 in1007.5 mb 0.00 in0.0 mm 0.00 in0.0 mm 0.00 in0.0 mm
07:32 AM 70.9°F21.6°C 64.9°F18.3°C 64% 3.9 mph WSW6.3 kmh WSW 3.9 mph6.3 kmh 29.76 in1007.8 mb 0.00 in0.0 mm 0.00 in0.0 mm 0.00 in0.0 mm
07:33 AM 70.9°F21.6°C 65.2°F18.4°C 65% 4.1 mph W6.6 kmh W 4.1 mph6.6 kmh 29.76 in1007.8 mb 0.00 in0.0 mm 0.00 in0.0 mm 0.00 in0.0 mm
07:35 AM 70.7°F21.5°C 64.8°F18.2°C 65% 4.0 mph WNW6.4 kmh WNW 4.1 mph6.6 kmh 29.76 in1007.8 mb 0.00 in0.0 mm 0.00 in0.0 mm 0.00 in0.0 mm
07:36 AM 70.8°F21.6°C 64.6°F18.1°C 65% 3.3 mph W5.3 kmh W 3.3 mph5.3 kmh 29.76 in1007.8 mb 0.00 in0.0 mm 0.00 in0.0 mm 0.00 in0.0 mm
07:38 AM 70.8°F21.6°C 64.7°F18.2°C 65% 3.3 mph W5.3 kmh W 3.3 mph5.3 kmh 29.77 in1008.1 mb 0.00 in0.0 mm 0.00 in0.0 mm 0.00 in0.0 mm
07:39 AM 70.7°F21.5°C 64.7°F18.2°C 65% 3.3 mph WSW5.3 kmh WSW 3.5 mph5.6 kmh 29.77 in1008.1 mb 0.00 in0.0 mm 0.00 in0.0 mm 0.00 in0.0 mm
07:41 AM 70.6°F21.4°C 64.8°F18.2°C 65% 4.4 mph W7.1 kmh W 4.4 mph7.1 kmh 29.77 in1008.1 mb 0.00 in0.0 mm 0.00 in0.0 mm 0.00 in0.0 mm
07:42 AM 70.7°F21.5°C 64.8°F18.2°C 65% 4.0 mph NW6.4 kmh NW 4.0 mph6.4 kmh 29.77 in1008.1 mb 0.00 in0.0 mm 0.00 in0.0 mm 0.00 in0.0 mm
07:44 AM 70.9°F21.6°C 65.0°F18.3°C 66% 5.2 mph NNW8.4 kmh NNW 5.2 mph8.4 kmh 29.77 in1008.1 mb 0.00 in0.0 mm 0.00 in0.0 mm 0.00 in0.0 mm
07:45 AM 71.0°F21.7°C 65.1°F18.4°C 65% 5.3 mph NNW8.5 kmh NNW 5.3 mph8.5 kmh 29.77 in1008.1 mb 0.00 in0.0 mm 0.00 in0.0 mm 0.00 in0.0 mm
07:47 AM 70.8°F21.6°C 64.6°F18.1°C 65% 1.6 mph NNW2.6 kmh NNW 1.6 mph2.6 kmh 29.77 in1008.1 mb 0.00 in0.0 mm 0.00 in0.0 mm 0.00 in0.0 mm
07:48 AM 70.9°F21.6°C 64.7°F18.2°C 65% 1.1 mph NW1.8 kmh NW 1.2 mph1.9 kmh 29.77 in1008.1 mb 0.00 in0.0 mm 0.00 in0.0 mm 0.00 in0.0 mm
07:50 AM 69.9°F21.1°C 64.6°F18.1°C 65% 5.7 mph NW9.2 kmh NW 5.8 mph9.3 kmh 29.77 in1008.1 mb 0.00 in0.0 mm 0.00 in0.0 mm 0.00 in0.0 mm
07:51 AM 69.9°F21.1°C 64.2°F17.9°C 65% 4.6 mph WNW7.4 kmh WNW 4.7 mph7.6 kmh 29.77 in1008.1 mb 0.00 in0.0 mm 0.00 in0.0 mm 0.00 in0.0 mm
07:53 AM 70.6°F21.4°C 64.6°F18.1°C 65% 0.4 mph WNW0.6 kmh WNW 0.4 mph0.6 kmh 29.77 in1008.1 mb 0.00 in0.0 mm 0.00 in0.0 mm 0.00 in0.0 mm
07:54 AM 70.6°F21.4°C 64.3°F17.9°C 65% 1.6 mph W2.6 kmh W 1.6 mph2.6 kmh 29.77 in1008.1 mb 0.00 in0.0 mm 0.00 in0.0 mm 0.00 in0.0 mm
07:56 AM 70.1°F21.2°C 64.1°F17.8°C 65% 5.2 mph WNW8.4 kmh WNW 5.3 mph8.5 kmh 29.77 in1008.1 mb 0.00 in0.0 mm 0.00 in0.0 mm 0.00 in0.0 mm
07:57 AM 70.0°F21.1°C 64.2°F17.9°C 65% 6.9 mph WNW11.1 kmh WNW 6.9 mph11.1 kmh 29.77 in1008.1 mb 0.00 in0.0 mm 0.00 in0.0 mm 0.00 in0.0 mm
07:59 AM 70.1°F21.2°C 64.3°F17.9°C 66% 5.8 mph NW9.3 kmh NW 5.8 mph9.3 kmh 29.78 in1008.5 mb 0.00 in0.0 mm 0.00 in0.0 mm 0.00 in0.0 mm
08:00 AM 70.1°F21.2°C 64.6°F18.1°C 66% 6.8 mph NW10.9 kmh NW 6.8 mph10.9 kmh 29.78 in1008.5 mb 0.00 in0.0 mm 0.00 in0.0 mm 0.00 in0.0 mm
08:02 AM 70.6°F21.4°C 64.2°F17.9°C 66% 6.9 mph NW11.1 kmh NW 6.9 mph11.1 kmh 29.78 in1008.5 mb 0.00 in0.0 mm 0.00 in0.0 mm 0.00 in0.0 mm
08:03 AM 70.6°F21.4°C 64.2°F17.9°C 66% 8.0 mph NW12.9 kmh NW 8.0 mph12.9 kmh 29.78 in1008.5 mb 0.00 in0.0 mm 0.00 in0.0 mm 0.00 in0.0 mm
08:05 AM 69.7°F20.9°C 64.2°F17.9°C 66% 5.2 mph NNW8.4 kmh NNW 5.3 mph8.5 kmh 29.78 in1008.5 mb 0.00 in0.0 mm 0.00 in0.0 mm 0.00 in0.0 mm
08:06 AM 69.7°F20.9°C 64.2°F17.9°C 66% 4.2 mph NNW6.8 kmh NNW 4.2 mph6.8 kmh 29.78 in1008.5 mb 0.00 in0.0 mm 0.00 in0.0 mm 0.00 in0.0 mm
08:08 AM 69.0°F20.6°C 64.2°F17.9°C 67% 9.7 mph WNW15.6 kmh WNW 9.8 mph15.8 kmh 29.78 in1008.5 mb 0.00 in0.0 mm 0.00 in0.0 mm 0.00 in0.0 mm
08:09 AM 69.0°F20.6°C 64.2°F17.9°C 67% 8.0 mph WNW12.9 kmh WNW 8.0 mph12.9 kmh 29.79 in1008.8 mb 0.00 in0.0 mm 0.00 in0.0 mm 0.00 in0.0 mm
08:11 AM 69.7°F20.9°C 64.5°F18.1°C 68% 7.7 mph NNW12.4 kmh NNW 7.8 mph12.6 kmh 29.79 in1008.8 mb 0.00 in0.0 mm 0.00 in0.0 mm 0.00 in0.0 mm
08:12 AM 69.7°F20.9°C 64.6°F18.1°C 67% 5.9 mph WNW9.5 kmh WNW 5.9 mph9.5 kmh 29.78 in1008.5 mb 0.00 in0.0 mm 0.00 in0.0 mm 0.00 in0.0 mm
08:14 AM 69.4°F20.8°C 64.5°F18.1°C 68% 3.2 mph NNW5.1 kmh NNW 3.3 mph5.3 kmh 29.79 in1008.8 mb 0.00 in0.0 mm 0.00 in0.0 mm 0.00 in0.0 mm
08:15 AM 69.5°F20.8°C 64.5°F18.1°C 68% 2.9 mph NW4.7 kmh NW 2.9 mph4.7 kmh 29.79 in1008.8 mb 0.00 in0.0 mm 0.00 in0.0 mm 0.00 in0.0 mm
08:17 AM 70.3°F21.3°C 64.5°F18.1°C 68% 5.5 mph W8.9 kmh W 5.5 mph8.9 kmh 29.79 in1008.8 mb 0.00 in0.0 mm 0.00 in0.0 mm 0.00 in0.0 mm
08:18 AM 70.4°F21.3°C 64.8°F18.2°C 67% 5.0 mph W8.0 kmh W 5.1 mph8.2 kmh 29.79 in1008.8 mb 0.00 in0.0 mm 0.00 in0.0 mm 0.00 in0.0 mm
08:20 AM 69.1°F20.6°C 64.9°F18.3°C 68% 6.5 mph W10.5 kmh W 6.5 mph10.5 kmh 29.79 in1008.8 mb 0.00 in0.0 mm 0.00 in0.0 mm 0.00 in0.0 mm
08:21 AM 69.2°F20.7°C 64.9°F18.3°C 68% 7.2 mph W11.6 kmh W 7.4 mph11.9 kmh 29.79 in1008.8 mb 0.00 in0.0 mm 0.00 in0.0 mm 0.00 in0.0 mm
08:23 AM 69.4°F20.8°C 65.0°F18.3°C 68% 2.8 mph W4.5 kmh W 2.8 mph4.5 kmh 29.79 in1008.8 mb 0.00 in0.0 mm 0.00 in0.0 mm 0.00 in0.0 mm
08:24 AM 69.4°F20.8°C 65.2°F18.4°C 69% 3.9 mph NW6.3 kmh NW 3.9 mph6.3 kmh 29.79 in1008.8 mb 0.00 in0.0 mm 0.00 in0.0 mm 0.00 in0.0 mm
08:26 AM 69.5°F20.8°C 64.4°F18.0°C 68% 5.2 mph W8.4 kmh W 5.3 mph8.5 kmh 29.79 in1008.8 mb 0.00 in0.0 mm 0.00 in0.0 mm 0.00 in0.0 mm
08:27 AM 69.5°F20.8°C 64.1°F17.8°C 68% 4.3 mph WNW6.9 kmh WNW 4.3 mph6.9 kmh 29.79 in1008.8 mb 0.00 in0.0 mm 0.00 in0.0 mm 0.00 in0.0 mm
08:29 AM 69.2°F20.7°C 64.7°F18.2°C 68% 4.8 mph 7.7 kmh 4.8 mph7.7 kmh 29.79 in1008.8 mb 0.00 in0.0 mm 0.00 in0.0 mm 0.00 in0.0 mm
08:30 AM 69.1°F20.6°C 64.3°F17.9°C 68% 4.4 mph WNW7.1 kmh WNW 4.4 mph7.1 kmh 29.79 in1008.8 mb 0.00 in0.0 mm 0.00 in0.0 mm 0.00 in0.0 mm
08:32 AM 68.9°F20.5°C 64.6°F18.1°C 69% 1.2 mph WNW1.9 kmh WNW 1.2 mph1.9 kmh 29.79 in1008.8 mb 0.00 in0.0 mm 0.00 in0.0 mm 0.00 in0.0 mm
08:33 AM 69.0°F20.6°C 64.8°F18.2°C 69% 0.7 mph NW1.1 kmh NW 0.7 mph1.1 kmh 29.79 in1008.8 mb 0.00 in0.0 mm 0.00 in0.0 mm 0.00 in0.0 mm
08:35 AM 69.1°F20.6°C 64.9°F18.3°C 69% 5.1 mph NW8.2 kmh NW 5.2 mph8.4 kmh 29.79 in1008.8 mb 0.00 in0.0 mm 0.00 in0.0 mm 0.00 in0.0 mm
08:36 AM 69.2°F20.7°C 64.6°F18.1°C 69% 5.1 mph W8.2 kmh W 5.1 mph8.2 kmh 29.79 in1008.8 mb 0.00 in0.0 mm 0.00 in0.0 mm 0.00 in0.0 mm
08:38 AM 68.7°F20.4°C 64.9°F18.3°C 69% 7.3 mph NNW11.7 kmh NNW 7.4 mph11.9 kmh 29.80 in1009.1 mb 0.00 in0.0 mm 0.00 in0.0 mm 0.00 in0.0 mm
08:39 AM 68.8°F20.4°C 64.8°F18.2°C 69% 7.1 mph NNW11.4 kmh NNW 7.1 mph11.4 kmh 29.80 in1009.1 mb 0.00 in0.0 mm 0.00 in0.0 mm 0.00 in0.0 mm
08:41 AM 69.2°F20.7°C 64.6°F18.1°C 69% 4.4 mph NNW7.1 kmh NNW 4.5 mph7.2 kmh 29.80 in1009.1 mb 0.00 in0.0 mm 0.00 in0.0 mm 0.00 in0.0 mm
08:42 AM 69.4°F20.8°C 64.5°F18.1°C 69% 3.4 mph 5.5 kmh 3.4 mph5.5 kmh 29.80 in1009.1 mb 0.00 in0.0 mm 0.00 in0.0 mm 0.00 in0.0 mm
08:44 AM 68.9°F20.5°C 64.9°F18.3°C 69% 2.3 mph NNW3.7 kmh NNW 2.4 mph3.9 kmh 29.80 in1009.1 mb 0.00 in0.0 mm 0.00 in0.0 mm 0.00 in0.0 mm
08:45 AM 68.9°F20.5°C 64.4°F18.0°C 68% 1.8 mph NW2.9 kmh NW 1.9 mph3.1 kmh 29.80 in1009.1 mb 0.00 in0.0 mm 0.00 in0.0 mm 0.00 in0.0 mm
08:47 AM 68.2°F20.1°C 65.0°F18.3°C 69% 5.2 mph WNW8.4 kmh WNW 5.3 mph8.5 kmh 29.80 in1009.1 mb 0.00 in0.0 mm 0.00 in0.0 mm 0.00 in0.0 mm
08:48 AM 68.3°F20.2°C 65.1°F18.4°C 69% 6.6 mph WNW10.6 kmh WNW 6.7 mph10.8 kmh 29.80 in1009.1 mb 0.00 in0.0 mm 0.00 in0.0 mm 0.00 in0.0 mm
08:50 AM 68.5°F20.3°C 64.4°F18.0°C 69% 5.6 mph NW9.0 kmh NW 5.6 mph9.0 kmh 29.80 in1009.1 mb 0.00 in0.0 mm 0.00 in0.0 mm 0.00 in0.0 mm
08:51 AM 68.6°F20.3°C 64.4°F18.0°C 68% 5.8 mph NW9.3 kmh NW 5.9 mph9.5 kmh 29.80 in1009.1 mb 0.00 in0.0 mm 0.00 in0.0 mm 0.00 in0.0 mm
08:53 AM 68.2°F20.1°C 64.5°F18.1°C 69% 5.7 mph WNW9.2 kmh WNW 5.7 mph9.2 kmh 29.80 in1009.1 mb 0.00 in0.0 mm 0.00 in0.0 mm 0.00 in0.0 mm
08:54 AM 68.3°F20.2°C 64.7°F18.2°C 69% 4.9 mph WNW7.9 kmh WNW 5.0 mph8.0 kmh 29.80 in1009.1 mb 0.00 in0.0 mm 0.00 in0.0 mm 0.00 in0.0 mm
08:56 AM 69.5°F20.8°C 64.8°F18.2°C 69% 4.9 mph NW7.9 kmh NW 4.9 mph7.9 kmh 29.80 in1009.1 mb 0.00 in0.0 mm 0.00 in0.0 mm 0.00 in0.0 mm
08:57 AM 69.6°F20.9°C 64.8°F18.2°C 69% 5.2 mph NNW8.4 kmh NNW 5.2 mph8.4 kmh 29.80 in1009.1 mb 0.00 in0.0 mm 0.00 in0.0 mm 0.00 in0.0 mm
08:59 AM 69.0°F20.6°C 64.0°F17.8°C 69% 4.8 mph NNW7.7 kmh NNW 4.8 mph7.7 kmh 29.80 in1009.1 mb 0.00 in0.0 mm 0.00 in0.0 mm 0.00 in0.0 mm
09:00 AM 68.9°F20.5°C 64.7°F18.2°C 68% 6.1 mph NNW9.8 kmh NNW 6.2 mph10.0 kmh 29.80 in1009.1 mb 0.00 in0.0 mm 0.00 in0.0 mm 0.00 in0.0 mm
09:02 AM 69.9°F21.1°C 64.3°F17.9°C 68% 1.2 mph NNW1.9 kmh NNW 1.2 mph1.9 kmh 29.81 in1009.5 mb 0.00 in0.0 mm 0.00 in0.0 mm 0.00 in0.0 mm
09:03 AM 69.9°F21.1°C 64.4°F18.0°C 69% 1.6 mph NNW2.6 kmh NNW 1.7 mph2.7 kmh 29.80 in1009.1 mb 0.00 in0.0 mm 0.00 in0.0 mm 0.00 in0.0 mm
09:05 AM 69.2°F20.7°C 64.3°F17.9°C 68% 9.7 mph NW15.6 kmh NW 9.7 mph15.6 kmh 29.80 in1009.1 mb 0.00 in0.0 mm 0.00 in0.0 mm 0.00 in0.0 mm
09:06 AM 69.1°F20.6°C 64.4°F18.0°C 68% 8.9 mph NW14.3 kmh NW 9.0 mph14.5 kmh 29.81 in1009.5 mb 0.00 in0.0 mm 0.00 in0.0 mm 0.00 in0.0 mm
09:08 AM 69.0°F20.6°C 64.4°F18.0°C 68% 4.0 mph WNW6.4 kmh WNW 4.0 mph6.4 kmh 29.81 in1009.5 mb 0.00 in0.0 mm 0.00 in0.0 mm 0.00 in0.0 mm
09:09 AM 69.0°F20.6°C 64.2°F17.9°C 67% 3.0 mph NW4.8 kmh NW 3.0 mph4.8 kmh 29.80 in1009.1 mb 0.00 in0.0 mm 0.00 in0.0 mm 0.00 in0.0 mm
09:11 AM 67.9°F19.9°C 64.2°F17.9°C 68% 8.8 mph 14.2 kmh 8.8 mph14.2 kmh 29.81 in1009.5 mb 0.00 in0.0 mm 0.00 in0.0 mm 0.00 in0.0 mm
09:12 AM 67.9°F19.9°C 64.5°F18.1°C 68% 6.8 mph NW10.9 kmh NW 6.8 mph10.9 kmh 29.80 in1009.1 mb 0.00 in0.0 mm 0.00 in0.0 mm 0.00 in0.0 mm
09:14 AM 68.2°F20.1°C 63.6°F17.6°C 67% 6.9 mph NW11.1 kmh NW 6.9 mph11.1 kmh 29.80 in1009.1 mb 0.00 in0.0 mm 0.00 in0.0 mm 0.00 in0.0 mm
09:15 AM 68.3°F20.2°C 64.2°F17.9°C 67% 5.1 mph NNW8.2 kmh NNW 5.1 mph8.2 kmh 29.81 in1009.5 mb 0.00 in0.0 mm 0.00 in0.0 mm 0.00 in0.0 mm
09:17 AM 69.4°F20.8°C 64.5°F18.1°C 68% 5.0 mph NW8.0 kmh NW 5.0 mph8.0 kmh 29.81 in1009.5 mb 0.00 in0.0 mm 0.00 in0.0 mm 0.00 in0.0 mm
09:18 AM 69.2°F20.7°C 64.7°F18.2°C 68% 3.9 mph 6.3 kmh 4.0 mph6.4 kmh 29.81 in1009.5 mb 0.00 in0.0 mm 0.00 in0.0 mm 0.00 in0.0 mm
09:20 AM 69.1°F20.6°C 64.0°F17.8°C 67% 6.7 mph NW10.8 kmh NW 6.7 mph10.8 kmh 29.81 in1009.5 mb 0.00 in0.0 mm 0.00 in0.0 mm 0.00 in0.0 mm
09:21 AM 69.1°F20.6°C 64.6°F18.1°C 67% 3.7 mph NNW6.0 kmh NNW 3.8 mph6.1 kmh 29.81 in1009.5 mb 0.00 in0.0 mm 0.00 in0.0 mm 0.00 in0.0 mm
09:23 AM 69.4°F20.8°C 64.6°F18.1°C 68% 5.2 mph NW8.4 kmh NW 5.3 mph8.5 kmh 29.81 in1009.5 mb 0.00 in0.0 mm 0.00 in0.0 mm 0.00 in0.0 mm
09:24 AM 69.4°F20.8°C 64.5°F18.1°C 68% 6.5 mph NW10.5 kmh NW 6.5 mph10.5 kmh 29.81 in1009.5 mb 0.00 in0.0 mm 0.00 in0.0 mm 0.00 in0.0 mm
09:26 AM 68.7°F20.4°C 64.8°F18.2°C 68% 2.0 mph 3.2 kmh 2.0 mph3.2 kmh 29.81 in1009.5 mb 0.00 in0.0 mm 0.00 in0.0 mm 0.00 in0.0 mm
09:27 AM 68.6°F20.3°C 64.4°F18.0°C 68% 2.9 mph WNW4.7 kmh WNW 2.9 mph4.7 kmh 29.81 in1009.5 mb 0.00 in0.0 mm 0.00 in0.0 mm 0.00 in0.0 mm
09:29 AM 68.3°F20.2°C 64.1°F17.8°C 68% 4.4 mph WSW7.1 kmh WSW 4.4 mph7.1 kmh 29.81 in1009.5 mb 0.00 in0.0 mm 0.00 in0.0 mm 0.00 in0.0 mm
09:30 AM 68.3°F20.2°C 63.6°F17.6°C 67% 6.1 mph NW9.8 kmh NW 6.1 mph9.8 kmh 29.81 in1009.5 mb 0.00 in0.0 mm 0.00 in0.0 mm 0.00 in0.0 mm
09:32 AM 67.7°F19.8°C 63.6°F17.6°C 68% 8.5 mph NNW13.7 kmh NNW 8.5 mph13.7 kmh 29.82 in1009.8 mb 0.00 in0.0 mm 0.00 in0.0 mm 0.00 in0.0 mm
09:33 AM 67.6°F19.8°C 63.7°F17.6°C 68% 6.9 mph W11.1 kmh W 7.1 mph11.4 kmh 29.82 in1009.8 mb 0.00 in0.0 mm 0.00 in0.0 mm 0.00 in0.0 mm
09:35 AM 66.5°F19.2°C 63.5°F17.5°C 68% 5.6 mph NW9.0 kmh NW 5.6 mph9.0 kmh 29.82 in1009.8 mb 0.00 in0.0 mm 0.00 in0.0 mm 0.00 in0.0 mm
09:36 AM 66.5°F19.2°C 63.5°F17.5°C 68% 3.6 mph W5.8 kmh W 3.7 mph6.0 kmh 29.82 in1009.8 mb 0.00 in0.0 mm 0.00 in0.0 mm 0.00 in0.0 mm
09:38 AM 66.8°F19.3°C 64.0°F17.8°C 69% 9.3 mph NW15.0 kmh NW 9.4 mph15.1 kmh 29.82 in1009.8 mb 0.00 in0.0 mm 0.00 in0.0 mm 0.00 in0.0 mm
09:39 AM 66.8°F19.3°C 63.7°F17.6°C 68% 7.7 mph NW12.4 kmh NW 7.7 mph12.4 kmh 29.82 in1009.8 mb 0.00 in0.0 mm 0.00 in0.0 mm 0.00 in0.0 mm
09:41 AM 66.5°F19.2°C 63.7°F17.6°C 69% 2.4 mph NW3.9 kmh NW 2.4 mph3.9 kmh 29.82 in1009.8 mb 0.00 in0.0 mm 0.00 in0.0 mm 0.00 in0.0 mm
09:42 AM 66.4°F19.1°C 63.9°F17.7°C 68% 2.5 mph WNW4.0 kmh WNW 2.5 mph4.0 kmh 29.82 in1009.8 mb 0.00 in0.0 mm 0.00 in0.0 mm 0.00 in0.0 mm
09:44 AM 66.4°F19.1°C 63.9°F17.7°C 69% 3.6 mph NNW5.8 kmh NNW 3.7 mph6.0 kmh 29.83 in1010.2 mb 0.00 in0.0 mm 0.00 in0.0 mm 0.00 in0.0 mm
09:45 AM 66.4°F19.1°C 64.0°F17.8°C 69% 2.3 mph NW3.7 kmh NW 2.3 mph3.7 kmh 29.82 in1009.8 mb 0.00 in0.0 mm 0.00 in0.0 mm 0.00 in0.0 mm
09:47 AM 65.6°F18.7°C 63.8°F17.7°C 69% 2.8 mph NNW4.5 kmh NNW 2.8 mph4.5 kmh 29.83 in1010.2 mb 0.00 in0.0 mm 0.00 in0.0 mm 0.00 in0.0 mm
09:48 AM 65.6°F18.7°C 63.4°F17.4°C 69% 4.0 mph NW6.4 kmh NW 4.0 mph6.4 kmh 29.83 in1010.2 mb 0.00 in0.0 mm 0.00 in0.0 mm 0.00 in0.0 mm
09:50 AM 65.6°F18.7°C 63.8°F17.7°C 70% 6.5 mph NNW10.5 kmh NNW 6.5 mph10.5 kmh 29.83 in1010.2 mb 0.00 in0.0 mm 0.00 in0.0 mm 0.00 in0.0 mm
09:51 AM 65.6°F18.7°C 63.7°F17.6°C 70% 4.8 mph NW7.7 kmh NW 4.8 mph7.7 kmh 29.83 in1010.2 mb 0.00 in0.0 mm 0.00 in0.0 mm 0.00 in0.0 mm
09:53 AM 65.9°F18.8°C 63.8°F17.7°C 71% 9.2 mph NNW14.8 kmh NNW 9.2 mph14.8 kmh 29.83 in1010.2 mb 0.00 in0.0 mm 0.00 in0.0 mm 0.00 in0.0 mm
09:54 AM 65.9°F18.8°C 63.8°F17.7°C 70% 9.1 mph WNW14.6 kmh WNW 9.2 mph14.8 kmh 29.83 in1010.2 mb 0.00 in0.0 mm 0.00 in0.0 mm 0.00 in0.0 mm
09:56 AM 66.4°F19.1°C 63.2°F17.3°C 70% 3.6 mph NNW5.8 kmh NNW 3.7 mph6.0 kmh 29.83 in1010.2 mb 0.00 in0.0 mm 0.00 in0.0 mm 0.00 in0.0 mm
09:57 AM 66.3°F19.1°C 62.8°F17.1°C 70% 3.0 mph 4.8 kmh 3.0 mph4.8 kmh 29.83 in1010.2 mb 0.00 in0.0 mm 0.00 in0.0 mm 0.00 in0.0 mm
09:59 AM 66.4°F19.1°C 63.0°F17.2°C 70% 5.0 mph NNW8.0 kmh NNW 5.0 mph8.0 kmh 29.84 in1010.5 mb 0.00 in0.0 mm 0.00 in0.0 mm 0.00 in0.0 mm
10:00 AM 66.5°F19.2°C 63.4°F17.4°C 70% 4.9 mph NNW7.9 kmh NNW 5.2 mph8.4 kmh 29.83 in1010.2 mb 0.00 in0.0 mm 0.00 in0.0 mm 0.00 in0.0 mm
10:02 AM 65.9°F18.8°C 63.8°F17.7°C 70% 3.6 mph NW5.8 kmh NW 3.7 mph6.0 kmh 29.84 in1010.5 mb 0.00 in0.0 mm 0.00 in0.0 mm 0.00 in0.0 mm
10:03 AM 66.0°F18.9°C 63.7°F17.6°C 70% 4.2 mph NW6.8 kmh NW 4.2 mph6.8 kmh 29.83 in1010.2 mb 0.00 in0.0 mm 0.00 in0.0 mm 0.00 in0.0 mm
10:05 AM 66.2°F19.0°C 63.3°F17.4°C 70% 4.3 mph NW6.9 kmh NW 4.3 mph6.9 kmh 29.84 in1010.5 mb 0.00 in0.0 mm 0.00 in0.0 mm 0.00 in0.0 mm
10:06 AM 66.3°F19.1°C 63.4°F17.4°C 70% 3.8 mph NW6.1 kmh NW 4.0 mph6.4 kmh 29.84 in1010.5 mb 0.00 in0.0 mm 0.00 in0.0 mm 0.00 in0.0 mm
10:08 AM 67.1°F19.5°C 63.6°F17.6°C 71% 3.6 mph W5.8 kmh W 3.6 mph5.8 kmh 29.84 in1010.5 mb 0.00 in0.0 mm 0.00 in0.0 mm 0.00 in0.0 mm
10:09 AM 67.2°F19.6°C 63.1°F17.3°C 70% 3.7 mph WNW6.0 kmh WNW 3.7 mph6.0 kmh 29.84 in1010.5 mb 0.00 in0.0 mm 0.00 in0.0 mm 0.00 in0.0 mm
10:11 AM 67.4°F19.7°C 63.5°F17.5°C 70% 2.3 mph NW3.7 kmh NW 2.3 mph3.7 kmh 29.84 in1010.5 mb 0.00 in0.0 mm 0.00 in0.0 mm 0.00 in0.0 mm
10:12 AM 67.4°F19.7°C 63.7°F17.6°C 70% 1.6 mph NW2.6 kmh NW 1.8 mph2.9 kmh 29.84 in1010.5 mb 0.00 in0.0 mm 0.00 in0.0 mm 0.00 in0.0 mm
10:14 AM 66.4°F19.1°C 63.5°F17.5°C 70% 8.5 mph NNW13.7 kmh NNW 8.5 mph13.7 kmh 29.85 in1010.8 mb 0.00 in0.0 mm 0.00 in0.0 mm 0.00 in0.0 mm
10:15 AM 66.2°F19.0°C 62.8°F17.1°C 69% 7.8 mph WNW12.6 kmh WNW 8.3 mph13.4 kmh 29.85 in1010.8 mb 0.00 in0.0 mm 0.00 in0.0 mm 0.00 in0.0 mm
10:17 AM 67.1°F19.5°C 63.2°F17.3°C 69% 3.6 mph NW5.8 kmh NW 3.6 mph5.8 kmh 29.85 in1010.8 mb 0.00 in0.0 mm 0.00 in0.0 mm 0.00 in0.0 mm
10:18 AM 67.2°F19.6°C 63.1°F17.3°C 69% 3.0 mph NW4.8 kmh NW 3.0 mph4.8 kmh 29.85 in1010.8 mb 0.00 in0.0 mm 0.00 in0.0 mm 0.00 in0.0 mm
10:20 AM 65.8°F18.8°C 63.2°F17.3°C 69% 5.3 mph NNW8.5 kmh NNW 5.3 mph8.5 kmh 29.85 in1010.8 mb 0.00 in0.0 mm 0.00 in0.0 mm 0.00 in0.0 mm
10:21 AM 65.8°F18.8°C 62.9°F17.2°C 69% 3.5 mph NNW5.6 kmh NNW 3.6 mph5.8 kmh 29.84 in1010.5 mb 0.00 in0.0 mm 0.00 in0.0 mm 0.00 in0.0 mm
10:23 AM 65.6°F18.7°C 63.1°F17.3°C 70% 7.3 mph WNW11.7 kmh WNW 7.3 mph11.7 kmh 29.85 in1010.8 mb 0.00 in0.0 mm 0.00 in0.0 mm 0.00 in0.0 mm
10:24 AM 65.8°F18.8°C 63.0°F17.2°C 69% 6.1 mph NW9.8 kmh NW 6.1 mph9.8 kmh 29.85 in1010.8 mb 0.00 in0.0 mm 0.00 in0.0 mm 0.00 in0.0 mm
10:26 AM 65.4°F18.6°C 62.7°F17.1°C 69% 3.2 mph NW5.1 kmh NW 3.2 mph5.1 kmh 29.85 in1010.8 mb 0.00 in0.0 mm 0.00 in0.0 mm 0.00 in0.0 mm
10:27 AM 65.5°F18.6°C 62.7°F17.1°C 69% 2.8 mph NNW4.5 kmh NNW 2.8 mph4.5 kmh 29.85 in1010.8 mb 0.00 in0.0 mm 0.00 in0.0 mm 0.00 in0.0 mm
10:29 AM 64.6°F18.1°C 62.7°F17.1°C 69% 4.8 mph NW7.7 kmh NW 4.9 mph7.9 kmh 29.85 in1010.8 mb 0.00 in0.0 mm 0.00 in0.0 mm 0.00 in0.0 mm
10:30 AM 64.5°F18.1°C 62.8°F17.1°C 69% 6.2 mph WNW10.0 kmh WNW 6.2 mph10.0 kmh 29.85 in1010.8 mb 0.00 in0.0 mm 0.00 in0.0 mm 0.00 in0.0 mm
10:32 AM 64.1°F17.8°C 62.7°F17.1°C 69% 4.9 mph W7.9 kmh W 4.9 mph7.9 kmh 29.85 in1010.8 mb 0.00 in0.0 mm 0.00 in0.0 mm 0.00 in0.0 mm
10:33 AM 64.2°F17.9°C 62.8°F17.1°C 69% 4.9 mph W7.9 kmh W 5.2 mph8.4 kmh 29.85 in1010.8 mb 0.00 in0.0 mm 0.00 in0.0 mm 0.00 in0.0 mm
10:35 AM 64.3°F17.9°C 62.8°F17.1°C 70% 4.6 mph WNW7.4 kmh WNW 4.6 mph7.4 kmh 29.85 in1010.8 mb 0.00 in0.0 mm 0.00 in0.0 mm 0.00 in0.0 mm
10:36 AM 64.3°F17.9°C 62.5°F16.9°C 70% 5.5 mph NW8.9 kmh NW 5.5 mph8.9 kmh 29.85 in1010.8 mb 0.00 in0.0 mm 0.00 in0.0 mm 0.00 in0.0 mm
10:41 AM 64.3°F17.9°C 62.5°F16.9°C 70% 2.4 mph 3.9 kmh 2.4 mph3.9 kmh 29.85 in1010.8 mb 0.00 in0.0 mm 0.00 in0.0 mm 0.00 in0.0 mm
10:42 AM 64.3°F17.9°C 62.5°F16.9°C 70% 1.6 mph 2.6 kmh 1.8 mph2.9 kmh 29.85 in1010.8 mb 0.00 in0.0 mm 0.00 in0.0 mm 0.00 in0.0 mm
10:44 AM 64.3°F17.9°C 62.7°F17.1°C 71% 3.1 mph WNW5.0 kmh WNW 3.1 mph5.0 kmh 29.85 in1010.8 mb 0.00 in0.0 mm 0.00 in0.0 mm 0.00 in0.0 mm
10:45 AM 64.3°F17.9°C 62.7°F17.1°C 70% 3.2 mph NW5.1 kmh NW 3.2 mph5.1 kmh 29.85 in1010.8 mb 0.00 in0.0 mm 0.00 in0.0 mm 0.00 in0.0 mm
10:47 AM 63.5°F17.5°C 62.5°F16.9°C 70% 2.8 mph NW4.5 kmh NW 2.8 mph4.5 kmh 29.85 in1010.8 mb 0.00 in0.0 mm 0.00 in0.0 mm 0.00 in0.0 mm
10:48 AM 63.4°F17.4°C 62.4°F16.9°C 70% 2.8 mph NW4.5 kmh NW 3.0 mph4.8 kmh 29.85 in1010.8 mb 0.00 in0.0 mm 0.00 in0.0 mm 0.00 in0.0 mm
10:50 AM 62.8°F17.1°C 62.0°F16.7°C 70% 8.1 mph 13.0 kmh 8.2 mph13.2 kmh 29.85 in1010.8 mb 0.00 in0.0 mm 0.00 in0.0 mm 0.00 in0.0 mm
10:51 AM 62.9°F17.2°C 62.4°F16.9°C 70% 7.2 mph 11.6 kmh 7.3 mph11.7 kmh 29.86 in1011.2 mb 0.00 in0.0 mm 0.00 in0.0 mm 0.00 in0.0 mm
10:53 AM 62.5°F16.9°C 61.5°F16.4°C 70% 8.9 mph NW14.3 kmh NW 9.0 mph14.5 kmh 29.86 in1011.2 mb 0.00 in0.0 mm 0.00 in0.0 mm 0.00 in0.0 mm
10:54 AM 62.5°F16.9°C 61.8°F16.6°C 70% 7.5 mph NW12.1 kmh NW 7.7 mph12.4 kmh 29.86 in1011.2 mb 0.00 in0.0 mm 0.00 in0.0 mm 0.00 in0.0 mm
10:56 AM 62.0°F16.7°C 61.3°F16.3°C 70% 4.9 mph NW7.9 kmh NW 4.9 mph7.9 kmh 29.86 in1011.2 mb 0.00 in0.0 mm 0.00 in0.0 mm 0.00 in0.0 mm
10:57 AM 62.0°F16.7°C 61.5°F16.4°C 70% 6.8 mph NW10.9 kmh NW 6.8 mph10.9 kmh 29.86 in1011.2 mb 0.00 in0.0 mm 0.00 in0.0 mm 0.00 in0.0 mm
10:59 AM 62.6°F17.0°C 61.7°F16.5°C 71% 2.4 mph NNW3.9 kmh NNW 2.4 mph3.9 kmh 29.86 in1011.2 mb 0.00 in0.0 mm 0.00 in0.0 mm 0.00 in0.0 mm
11:00 AM 62.7°F17.1°C 61.6°F16.4°C 70% 3.3 mph WNW5.3 kmh WNW 3.3 mph5.3 kmh 29.86 in1011.2 mb 0.00 in0.0 mm 0.00 in0.0 mm 0.00 in0.0 mm
11:02 AM 61.9°F16.6°C 61.3°F16.3°C 70% 4.2 mph NNW6.8 kmh NNW 4.2 mph6.8 kmh 29.86 in1011.2 mb 0.00 in0.0 mm 0.00 in0.0 mm 0.00 in0.0 mm
11:03 AM 61.9°F16.6°C 61.3°F16.3°C 70% 3.4 mph NNW5.5 kmh NNW 3.4 mph5.5 kmh 29.86 in1011.2 mb 0.00 in0.0 mm 0.00 in0.0 mm 0.00 in0.0 mm
11:05 AM 61.7°F16.5°C 60.6°F15.9°C 70% 9.4 mph NNW15.1 kmh NNW 9.4 mph15.1 kmh 29.86 in1011.2 mb 0.00 in0.0 mm 0.00 in0.0 mm 0.00 in0.0 mm
11:08 AM 61.8°F16.6°C 61.0°F16.1°C 71% 4.4 mph WSW7.1 kmh WSW 4.4 mph7.1 kmh 29.86 in1011.2 mb 0.00 in0.0 mm 0.00 in0.0 mm 0.00 in0.0 mm
11:09 AM 61.9°F16.6°C 60.9°F16.1°C 71% 4.0 mph NW6.4 kmh NW 4.0 mph6.4 kmh 29.86 in1011.2 mb 0.00 in0.0 mm 0.00 in0.0 mm 0.00 in0.0 mm
11:11 AM 61.8°F16.6°C 60.8°F16.0°C 70% 8.0 mph NNW12.9 kmh NNW 8.1 mph13.0 kmh 29.87 in1011.5 mb 0.00 in0.0 mm 0.00 in0.0 mm 0.00 in0.0 mm
11:12 AM 61.8°F16.6°C 60.6°F15.9°C 70% 6.8 mph NNW10.9 kmh NNW 6.9 mph11.1 kmh 29.87 in1011.5 mb 0.00 in0.0 mm 0.00 in0.0 mm 0.00 in0.0 mm
11:14 AM 62.2°F16.8°C 60.8°F16.0°C 71% 5.2 mph 8.4 kmh 5.2 mph8.4 kmh 29.88 in1011.9 mb 0.00 in0.0 mm 0.00 in0.0 mm 0.00 in0.0 mm
11:15 AM 62.2°F16.8°C 60.8°F16.0°C 71% 6.2 mph 10.0 kmh 6.2 mph10.0 kmh 29.88 in1011.9 mb 0.00 in0.0 mm 0.00 in0.0 mm 0.00 in0.0 mm
11:17 AM 62.3°F16.8°C 60.7°F15.9°C 71% 4.4 mph NNW7.1 kmh NNW 4.5 mph7.2 kmh 29.87 in1011.5 mb 0.00 in0.0 mm 0.00 in0.0 mm 0.00 in0.0 mm
11:18 AM 62.5°F16.9°C 60.5°F15.8°C 71% 5.0 mph NW8.0 kmh NW 5.0 mph8.0 kmh 29.88 in1011.9 mb 0.00 in0.0 mm 0.00 in0.0 mm 0.00 in0.0 mm
11:20 AM 62.5°F16.9°C 60.6°F15.9°C 71% 4.0 mph NW6.4 kmh NW 4.0 mph6.4 kmh 29.88 in1011.9 mb 0.00 in0.0 mm 0.00 in0.0 mm 0.00 in0.0 mm
11:21 AM 62.6°F17.0°C 60.8°F16.0°C 71% 3.3 mph NW5.3 kmh NW 3.3 mph5.3 kmh 29.88 in1011.9 mb 0.00 in0.0 mm 0.00 in0.0 mm 0.00 in0.0 mm
11:23 AM 63.4°F17.4°C 60.9°F16.1°C 71% 3.2 mph WNW5.1 kmh WNW 3.2 mph5.1 kmh 29.88 in1011.9 mb 0.00 in0.0 mm 0.00 in0.0 mm 0.00 in0.0 mm
11:24 AM 63.5°F17.5°C 61.0°F16.1°C 71% 2.8 mph NW4.5 kmh NW 2.9 mph4.7 kmh 29.88 in1011.9 mb 0.00 in0.0 mm 0.00 in0.0 mm 0.00 in0.0 mm
11:26 AM 63.5°F17.5°C 60.9°F16.1°C 71% 4.4 mph NW7.1 kmh NW 4.5 mph7.2 kmh 29.88 in1011.9 mb 0.00 in0.0 mm 0.00 in0.0 mm 0.00 in0.0 mm
11:27 AM 63.4°F17.4°C 61.0°F16.1°C 71% 3.7 mph NW6.0 kmh NW 3.7 mph6.0 kmh 29.88 in1011.9 mb 0.00 in0.0 mm 0.00 in0.0 mm 0.00 in0.0 mm
11:29 AM 62.7°F17.1°C 60.4°F15.8°C 71% 3.2 mph NNW5.1 kmh NNW 3.2 mph5.1 kmh 29.88 in1011.9 mb 0.00 in0.0 mm 0.00 in0.0 mm 0.00 in0.0 mm
11:32 AM 62.7°F17.1°C 60.4°F15.8°C 71% 4.2 mph NW6.8 kmh NW 4.3 mph6.9 kmh 29.88 in1011.9 mb 0.00 in0.0 mm 0.00 in0.0 mm 0.00 in0.0 mm
11:33 AM 62.7°F17.1°C 60.6°F15.9°C 71% 4.0 mph W6.4 kmh W 4.2 mph6.8 kmh 29.88 in1011.9 mb 0.00 in0.0 mm 0.00 in0.0 mm 0.00 in0.0 mm
11:35 AM 62.3°F16.8°C 60.3°F15.7°C 71% 6.5 mph NW10.5 kmh NW 6.5 mph10.5 kmh 29.88 in1011.9 mb 0.00 in0.0 mm 0.00 in0.0 mm 0.00 in0.0 mm
11:36 AM 62.2°F16.8°C 60.8°F16.0°C 71% 9.3 mph NW15.0 kmh NW 9.4 mph15.1 kmh 29.88 in1011.9 mb 0.00 in0.0 mm 0.00 in0.0 mm 0.00 in0.0 mm
11:38 AM 62.0°F16.7°C 60.5°F15.8°C 71% 2.4 mph W3.9 kmh W 2.5 mph4.0 kmh 29.88 in1011.9 mb 0.00 in0.0 mm 0.00 in0.0 mm 0.00 in0.0 mm
11:39 AM 61.9°F16.6°C 60.5°F15.8°C 71% 2.8 mph NNW4.5 kmh NNW 2.8 mph4.5 kmh 29.88 in1011.9 mb 0.00 in0.0 mm 0.00 in0.0 mm 0.00 in0.0 mm
11:41 AM 62.2°F16.8°C 60.4°F15.8°C 72% 5.8 mph NW9.3 kmh NW 5.8 mph9.3 kmh 29.88 in1011.9 mb 0.00 in0.0 mm 0.00 in0.0 mm 0.00 in0.0 mm
11:42 AM 62.3°F16.8°C 60.4°F15.8°C 72% 5.8 mph NW9.3 kmh NW 5.8 mph9.3 kmh 29.88 in1011.9 mb 0.00 in0.0 mm 0.00 in0.0 mm 0.00 in0.0 mm
11:44 AM 62.3°F16.8°C 60.3°F15.7°C 71% 2.3 mph NW3.7 kmh NW 2.3 mph3.7 kmh 29.88 in1011.9 mb 0.00 in0.0 mm 0.00 in0.0 mm 0.00 in0.0 mm
11:45 AM 62.4°F16.9°C 60.2°F15.7°C 72% 2.7 mph NW4.3 kmh NW 2.7 mph4.3 kmh 29.89 in1012.2 mb 0.00 in0.0 mm 0.00 in0.0 mm 0.00 in0.0 mm
11:47 AM 61.9°F16.6°C 60.4°F15.8°C 72% 4.4 mph WSW7.1 kmh WSW 4.4 mph7.1 kmh 29.89 in1012.2 mb 0.00 in0.0 mm 0.00 in0.0 mm 0.00 in0.0 mm
11:48 AM 62.2°F16.8°C 60.4°F15.8°C 72% 2.8 mph W4.5 kmh W 3.1 mph5.0 kmh 29.89 in1012.2 mb 0.00 in0.0 mm 0.00 in0.0 mm 0.00 in0.0 mm
11:50 AM 61.9°F16.6°C 60.2°F15.7°C 72% 5.2 mph NNW8.4 kmh NNW 5.2 mph8.4 kmh 29.89 in1012.2 mb 0.00 in0.0 mm 0.00 in0.0 mm 0.00 in0.0 mm
11:51 AM 61.8°F16.6°C 60.1°F15.6°C 72% 5.1 mph NNW8.2 kmh NNW 5.1 mph8.2 kmh 29.89 in1012.2 mb 0.00 in0.0 mm 0.00 in0.0 mm 0.00 in0.0 mm
11:53 AM 62.9°F17.2°C 60.6°F15.9°C 72% 3.5 mph NNW5.6 kmh NNW 3.5 mph5.6 kmh 29.89 in1012.2 mb 0.00 in0.0 mm 0.00 in0.0 mm 0.00 in0.0 mm
11:54 AM 62.9°F17.2°C 60.5°F15.8°C 72% 4.9 mph 7.9 kmh 4.9 mph7.9 kmh 29.89 in1012.2 mb 0.00 in0.0 mm 0.00 in0.0 mm 0.00 in0.0 mm
11:56 AM 63.4°F17.4°C 60.6°F15.9°C 72% 2.3 mph NW3.7 kmh NW 2.4 mph3.9 kmh 29.89 in1012.2 mb 0.00 in0.0 mm 0.00 in0.0 mm 0.00 in0.0 mm
11:57 AM 63.5°F17.5°C 60.6°F15.9°C 72% 5.0 mph NW8.0 kmh NW 5.0 mph8.0 kmh 29.89 in1012.2 mb 0.00 in0.0 mm 0.00 in0.0 mm 0.00 in0.0 mm
11:59 AM 63.5°F17.5°C 60.6°F15.9°C 72% 4.9 mph WNW7.9 kmh WNW 4.9 mph7.9 kmh 29.89 in1012.2 mb 0.00 in0.0 mm 0.00 in0.0 mm 0.00 in0.0 mm
12:00 PM 63.6°F17.6°C 60.8°F16.0°C 72% 5.4 mph NNW8.7 kmh NNW 5.4 mph8.7 kmh 29.89 in1012.2 mb 0.00 in0.0 mm 0.00 in0.0 mm 0.00 in0.0 mm
12:02 PM 63.1°F17.3°C 60.0°F15.6°C 70% 3.9 mph NW6.3 kmh NW 4.0 mph6.4 kmh 29.89 in1012.2 mb 0.00 in0.0 mm 0.00 in0.0 mm 0.00 in0.0 mm
12:03 PM 63.1°F17.3°C 60.5°F15.8°C 71% 6.6 mph W10.6 kmh W 6.6 mph10.6 kmh 29.89 in1012.2 mb 0.00 in0.0 mm 0.00 in0.0 mm 0.00 in0.0 mm
12:05 PM 62.5°F16.9°C 60.4°F15.8°C 71% 9.3 mph NW15.0 kmh NW 9.3 mph15.0 kmh 29.89 in1012.2 mb 0.00 in0.0 mm 0.00 in0.0 mm 0.00 in0.0 mm
12:06 PM 62.3°F16.8°C 60.2°F15.7°C 71% 6.9 mph WNW11.1 kmh WNW 7.0 mph11.3 kmh 29.89 in1012.2 mb 0.00 in0.0 mm 0.00 in0.0 mm 0.00 in0.0 mm
12:08 PM 63.1°F17.3°C 60.4°F15.8°C 71% 7.3 mph NNW11.7 kmh NNW 7.3 mph11.7 kmh 29.89 in1012.2 mb 0.00 in0.0 mm 0.00 in0.0 mm 0.00 in0.0 mm
12:09 PM 62.8°F17.1°C 60.4°F15.8°C 71% 6.0 mph NW9.7 kmh NW 6.0 mph9.7 kmh 29.89 in1012.2 mb 0.00 in0.0 mm 0.00 in0.0 mm 0.00 in0.0 mm
12:11 PM 63.4°F17.4°C 60.3°F15.7°C 71% 8.9 mph NNW14.3 kmh NNW 9.0 mph14.5 kmh 29.89 in1012.2 mb 0.00 in0.0 mm 0.00 in0.0 mm 0.00 in0.0 mm
12:12 PM 63.3°F17.4°C 60.5°F15.8°C 71% 6.6 mph NW10.6 kmh NW 6.8 mph10.9 kmh 29.89 in1012.2 mb 0.00 in0.0 mm 0.00 in0.0 mm 0.00 in0.0 mm
12:17 PM 62.0°F16.7°C 60.2°F15.7°C 71% 3.2 mph NNW5.1 kmh NNW 3.3 mph5.3 kmh 29.89 in1012.2 mb 0.00 in0.0 mm 0.00 in0.0 mm 0.00 in0.0 mm
12:18 PM 62.2°F16.8°C 60.3°F15.7°C 71% 2.5 mph NW4.0 kmh NW 2.5 mph4.0 kmh 29.89 in1012.2 mb 0.00 in0.0 mm 0.00 in0.0 mm 0.00 in0.0 mm
12:20 PM 62.2°F16.8°C 60.1°F15.6°C 71% 4.9 mph NNW7.9 kmh NNW 4.9 mph7.9 kmh 29.89 in1012.2 mb 0.00 in0.0 mm 0.00 in0.0 mm 0.00 in0.0 mm
12:21 PM 62.2°F16.8°C 60.4°F15.8°C 71% 5.6 mph WNW9.0 kmh WNW 5.7 mph9.2 kmh 29.89 in1012.2 mb 0.00 in0.0 mm 0.00 in0.0 mm 0.00 in0.0 mm
12:23 PM 61.8°F16.6°C 59.9°F15.5°C 71% 5.7 mph NNW9.2 kmh NNW 5.7 mph9.2 kmh 29.89 in1012.2 mb 0.00 in0.0 mm 0.00 in0.0 mm 0.00 in0.0 mm
12:24 PM 61.8°F16.6°C 60.1°F15.6°C 71% 5.7 mph NW9.2 kmh NW 5.8 mph9.3 kmh 29.89 in1012.2 mb 0.00 in0.0 mm 0.00 in0.0 mm 0.00 in0.0 mm
12:26 PM 62.3°F16.8°C 60.2°F15.7°C 71% 4.8 mph NNW7.7 kmh NNW 4.8 mph7.7 kmh 29.90 in1012.5 mb 0.00 in0.0 mm 0.00 in0.0 mm 0.00 in0.0 mm
12:27 PM 62.4°F16.9°C 60.2°F15.7°C 71% 4.1 mph NNW6.6 kmh NNW 4.1 mph6.6 kmh 29.90 in1012.5 mb 0.00 in0.0 mm 0.00 in0.0 mm 0.00 in0.0 mm
12:29 PM 62.2°F16.8°C 60.1°F15.6°C 71% 4.9 mph NNW7.9 kmh NNW 4.9 mph7.9 kmh 29.90 in1012.5 mb 0.00 in0.0 mm 0.00 in0.0 mm 0.00 in0.0 mm
12:30 PM 62.4°F16.9°C 60.1°F15.6°C 71% 3.7 mph WNW6.0 kmh WNW 3.8 mph6.1 kmh 29.90 in1012.5 mb 0.00 in0.0 mm 0.00 in0.0 mm 0.00 in0.0 mm
12:32 PM 62.8°F17.1°C 59.9°F15.5°C 71% 2.4 mph NW3.9 kmh NW 2.5 mph4.0 kmh 29.90 in1012.5 mb 0.00 in0.0 mm 0.00 in0.0 mm 0.00 in0.0 mm
12:33 PM 62.9°F17.2°C 59.8°F15.4°C 71% 2.3 mph NW3.7 kmh NW 2.3 mph3.7 kmh 29.90 in1012.5 mb 0.00 in0.0 mm 0.00 in0.0 mm 0.00 in0.0 mm
12:35 PM 62.5°F16.9°C 60.1°F15.6°C 70% 5.6 mph NW9.0 kmh NW 5.6 mph9.0 kmh 29.90 in1012.5 mb 0.00 in0.0 mm 0.00 in0.0 mm 0.00 in0.0 mm
12:36 PM 62.6°F17.0°C 60.2°F15.7°C 71% 6.8 mph NW10.9 kmh NW 6.8 mph10.9 kmh 29.90 in1012.5 mb 0.00 in0.0 mm 0.00 in0.0 mm 0.00 in0.0 mm
12:41 PM 63.1°F17.3°C 59.8°F15.4°C 70% 6.9 mph W11.1 kmh W 6.9 mph11.1 kmh 29.90 in1012.5 mb 0.00 in0.0 mm 0.00 in0.0 mm 0.00 in0.0 mm
12:42 PM 62.9°F17.2°C 60.0°F15.6°C 70% 6.6 mph WNW10.6 kmh WNW 6.8 mph10.9 kmh 29.90 in1012.5 mb 0.00 in0.0 mm 0.00 in0.0 mm 0.00 in0.0 mm
12:44 PM 63.4°F17.4°C 60.0°F15.6°C 71% 4.0 mph NW6.4 kmh NW 4.1 mph6.6 kmh 29.90 in1012.5 mb 0.00 in0.0 mm 0.00 in0.0 mm 0.00 in0.0 mm
12:45 PM 63.6°F17.6°C 60.1°F15.6°C 71% 3.7 mph 6.0 kmh 3.8 mph6.1 kmh 29.90 in1012.5 mb 0.00 in0.0 mm 0.00 in0.0 mm 0.00 in0.0 mm
12:47 PM 63.4°F17.4°C 60.3°F15.7°C 70% 3.6 mph NNW5.8 kmh NNW 3.7 mph6.0 kmh 29.90 in1012.5 mb 0.00 in0.0 mm 0.00 in0.0 mm 0.00 in0.0 mm
12:48 PM 63.4°F17.4°C 60.0°F15.6°C 70% 2.9 mph NW4.7 kmh NW 3.0 mph4.8 kmh 29.90 in1012.5 mb 0.00 in0.0 mm 0.00 in0.0 mm 0.00 in0.0 mm
12:50 PM 63.1°F17.3°C 59.8°F15.4°C 70% 6.6 mph NNW10.6 kmh NNW 6.6 mph10.6 kmh 29.90 in1012.5 mb 0.00 in0.0 mm 0.00 in0.0 mm 0.00 in0.0 mm
12:51 PM 62.8°F17.1°C 60.0°F15.6°C 70% 4.4 mph NNW7.1 kmh NNW 4.7 mph7.6 kmh 29.90 in1012.5 mb 0.00 in0.0 mm 0.00 in0.0 mm 0.00 in0.0 mm
12:53 PM 62.5°F16.9°C 59.9°F15.5°C 70% 1.6 mph 2.6 kmh 1.6 mph2.6 kmh 29.90 in1012.5 mb 0.00 in0.0 mm 0.00 in0.0 mm 0.00 in0.0 mm
12:54 PM 62.5°F16.9°C 59.9°F15.5°C 70% 1.8 mph W2.9 kmh W 1.8 mph2.9 kmh 29.90 in1012.5 mb 0.00 in0.0 mm 0.00 in0.0 mm 0.00 in0.0 mm
12:56 PM 62.2°F16.8°C 59.8°F15.4°C 70% 6.5 mph NNW10.5 kmh NNW 6.5 mph10.5 kmh 29.90 in1012.5 mb 0.00 in0.0 mm 0.00 in0.0 mm 0.00 in0.0 mm
12:57 PM 62.3°F16.8°C 59.9°F15.5°C 71% 6.5 mph NW10.5 kmh NW 6.5 mph10.5 kmh 29.90 in1012.5 mb 0.00 in0.0 mm 0.00 in0.0 mm 0.00 in0.0 mm
12:59 PM 62.3°F16.8°C 59.7°F15.4°C 70% 4.9 mph NW7.9 kmh NW 4.9 mph7.9 kmh 29.90 in1012.5 mb 0.00 in0.0 mm 0.00 in0.0 mm 0.00 in0.0 mm
01:00 PM 62.3°F16.8°C 60.0°F15.6°C 71% 6.7 mph W10.8 kmh W 6.7 mph10.8 kmh 29.90 in1012.5 mb 0.00 in0.0 mm 0.00 in0.0 mm 0.00 in0.0 mm
01:02 PM 61.8°F16.6°C 59.4°F15.2°C 70% 9.7 mph 15.6 kmh 9.8 mph15.8 kmh 29.90 in1012.5 mb 0.00 in0.0 mm 0.00 in0.0 mm 0.00 in0.0 mm
01:03 PM 61.9°F16.6°C 59.5°F15.3°C 70% 7.8 mph NW12.6 kmh NW 7.8 mph12.6 kmh 29.91 in1012.9 mb 0.00 in0.0 mm 0.00 in0.0 mm 0.00 in0.0 mm
01:05 PM 61.6°F16.4°C 59.4°F15.2°C 70% 4.0 mph NW6.4 kmh NW 4.1 mph6.6 kmh 29.91 in1012.9 mb 0.00 in0.0 mm 0.00 in0.0 mm 0.00 in0.0 mm
01:06 PM 61.6°F16.4°C 59.6°F15.3°C 70% 5.4 mph W8.7 kmh W 5.4 mph8.7 kmh 29.91 in1012.9 mb 0.00 in0.0 mm 0.00 in0.0 mm 0.00 in0.0 mm
01:08 PM 61.4°F16.3°C 59.2°F15.1°C 70% 6.1 mph NW9.8 kmh NW 6.1 mph9.8 kmh 29.91 in1012.9 mb 0.00 in0.0 mm 0.00 in0.0 mm 0.00 in0.0 mm
01:09 PM 61.4°F16.3°C 59.3°F15.2°C 70% 7.1 mph NW11.4 kmh NW 7.2 mph11.6 kmh 29.91 in1012.9 mb 0.00 in0.0 mm 0.00 in0.0 mm 0.00 in0.0 mm
01:11 PM 61.1°F16.2°C 59.2°F15.1°C 71% 2.8 mph NW4.5 kmh NW 2.9 mph4.7 kmh 29.91 in1012.9 mb 0.00 in0.0 mm 0.00 in0.0 mm 0.00 in0.0 mm
01:12 PM 61.3°F16.3°C 59.2°F15.1°C 70% 2.0 mph NW3.2 kmh NW 2.0 mph3.2 kmh 29.91 in1012.9 mb 0.00 in0.0 mm 0.00 in0.0 mm 0.00 in0.0 mm
01:14 PM 61.3°F16.3°C 59.4°F15.2°C 70% 3.6 mph NNW5.8 kmh NNW 3.7 mph6.0 kmh 29.91 in1012.9 mb 0.00 in0.0 mm 0.00 in0.0 mm 0.00 in0.0 mm
01:15 PM 61.3°F16.3°C 59.4°F15.2°C 71% 5.3 mph NW8.5 kmh NW 5.5 mph8.9 kmh 29.91 in1012.9 mb 0.00 in0.0 mm 0.00 in0.0 mm 0.00 in0.0 mm
01:17 PM 61.1°F16.2°C 59.4°F15.2°C 71% 4.8 mph NW7.7 kmh NW 4.8 mph7.7 kmh 29.91 in1012.9 mb 0.00 in0.0 mm 0.00 in0.0 mm 0.00 in0.0 mm
01:18 PM 61.3°F16.3°C 59.3°F15.2°C 70% 9.0 mph W14.5 kmh W 9.0 mph14.5 kmh 29.91 in1012.9 mb 0.00 in0.0 mm 0.00 in0.0 mm 0.00 in0.0 mm
01:20 PM 59.9°F15.5°C 59.0°F15.0°C 71% 3.9 mph NW6.3 kmh NW 3.9 mph6.3 kmh 29.91 in1012.9 mb 0.00 in0.0 mm 0.00 in0.0 mm 0.00 in0.0 mm
01:21 PM 60.1°F15.6°C 59.1°F15.1°C 71% 2.4 mph WNW3.9 kmh WNW 2.6 mph4.2 kmh 29.91 in1012.9 mb 0.00 in0.0 mm 0.00 in0.0 mm 0.00 in0.0 mm
01:23 PM 60.5°F15.8°C 58.9°F14.9°C 71% 4.1 mph W6.6 kmh W 4.1 mph6.6 kmh 29.92 in1013.2 mb 0.00 in0.0 mm 0.00 in0.0 mm 0.00 in0.0 mm
01:24 PM 60.7°F15.9°C 59.0°F15.0°C 71% 3.7 mph NW6.0 kmh NW 3.7 mph6.0 kmh 29.92 in1013.2 mb 0.00 in0.0 mm 0.00 in0.0 mm 0.00 in0.0 mm
01:26 PM 60.5°F15.8°C 58.9°F14.9°C 71% 4.2 mph NNW6.8 kmh NNW 4.2 mph6.8 kmh 29.92 in1013.2 mb 0.00 in0.0 mm 0.00 in0.0 mm 0.00 in0.0 mm
01:27 PM 60.5°F15.8°C 59.0°F15.0°C 71% 6.1 mph W9.8 kmh W 6.1 mph9.8 kmh 29.92 in1013.2 mb 0.00 in0.0 mm 0.00 in0.0 mm 0.00 in0.0 mm
01:29 PM 60.2°F15.7°C 58.7°F14.8°C 71% 6.9 mph NW11.1 kmh NW 6.9 mph11.1 kmh 29.92 in1013.2 mb 0.00 in0.0 mm 0.00 in0.0 mm 0.00 in0.0 mm
01:30 PM 60.5°F15.8°C 58.6°F14.8°C 71% 5.8 mph NW9.3 kmh NW 5.8 mph9.3 kmh 29.92 in1013.2 mb 0.00 in0.0 mm 0.00 in0.0 mm 0.00 in0.0 mm
01:32 PM 60.6°F15.9°C 58.6°F14.8°C 71% 5.2 mph NNW8.4 kmh NNW 5.2 mph8.4 kmh 29.92 in1013.2 mb 0.00 in0.0 mm 0.00 in0.0 mm 0.00 in0.0 mm
01:33 PM 60.7°F15.9°C 58.7°F14.8°C 71% 4.7 mph NNW7.6 kmh NNW 4.7 mph7.6 kmh 29.92 in1013.2 mb 0.00 in0.0 mm 0.00 in0.0 mm 0.00 in0.0 mm
01:35 PM 61.1°F16.2°C 58.8°F14.9°C 71% 5.6 mph WNW9.0 kmh WNW 5.6 mph9.0 kmh 29.92 in1013.2 mb 0.00 in0.0 mm 0.00 in0.0 mm 0.00 in0.0 mm
01:36 PM 61.3°F16.3°C 58.6°F14.8°C 71% 6.3 mph NW10.1 kmh NW 6.4 mph10.3 kmh 29.92 in1013.2 mb 0.00 in0.0 mm 0.00 in0.0 mm 0.00 in0.0 mm
01:38 PM 61.5°F16.4°C 58.8°F14.9°C 71% 12.1 mph NNW19.5 kmh NNW 12.1 mph19.5 kmh 29.92 in1013.2 mb 0.00 in0.0 mm 0.00 in0.0 mm 0.00 in0.0 mm
01:39 PM 61.8°F16.6°C 58.6°F14.8°C 71% 9.7 mph NNW15.6 kmh NNW 10.0 mph16.1 kmh 29.92 in1013.2 mb 0.00 in0.0 mm 0.00 in0.0 mm 0.00 in0.0 mm
01:41 PM 60.6°F15.9°C 58.3°F14.6°C 70% 6.0 mph NNW9.7 kmh NNW 6.0 mph9.7 kmh 29.91 in1012.9 mb 0.00 in0.0 mm 0.00 in0.0 mm 0.00 in0.0 mm
01:42 PM 60.7°F15.9°C 58.4°F14.7°C 70% 7.3 mph NW11.7 kmh NW 7.3 mph11.7 kmh 29.91 in1012.9 mb 0.00 in0.0 mm 0.00 in0.0 mm 0.00 in0.0 mm
01:44 PM 61.8°F16.6°C 58.5°F14.7°C 70% 4.8 mph W7.7 kmh W 4.9 mph7.9 kmh 29.91 in1012.9 mb 0.00 in0.0 mm 0.00 in0.0 mm 0.00 in0.0 mm
01:45 PM 61.9°F16.6°C 58.8°F14.9°C 71% 2.8 mph NW4.5 kmh NW 2.8 mph4.5 kmh 29.91 in1012.9 mb 0.00 in0.0 mm 0.00 in0.0 mm 0.00 in0.0 mm
01:47 PM 62.0°F16.7°C 58.5°F14.7°C 70% 3.6 mph NNW5.8 kmh NNW 3.7 mph6.0 kmh 29.91 in1012.9 mb 0.00 in0.0 mm 0.00 in0.0 mm 0.00 in0.0 mm
01:48 PM 62.0°F16.7°C 58.5°F14.7°C 70% 3.9 mph NW6.3 kmh NW 4.1 mph6.6 kmh 29.91 in1012.9 mb 0.00 in0.0 mm 0.00 in0.0 mm 0.00 in0.0 mm
01:50 PM 62.5°F16.9°C 59.0°F15.0°C 71% 0.8 mph WNW1.3 kmh WNW 0.8 mph1.3 kmh 29.91 in1012.9 mb 0.00 in0.0 mm 0.00 in0.0 mm 0.00 in0.0 mm
01:51 PM 62.7°F17.1°C 59.0°F15.0°C 71% 0.9 mph WNW1.4 kmh WNW 1.0 mph1.6 kmh 29.91 in1012.9 mb 0.00 in0.0 mm 0.00 in0.0 mm 0.00 in0.0 mm
01:53 PM 61.9°F16.6°C 58.8°F14.9°C 70% 3.1 mph NNW5.0 kmh NNW 3.1 mph5.0 kmh 29.91 in1012.9 mb 0.00 in0.0 mm 0.00 in0.0 mm 0.00 in0.0 mm
01:54 PM 61.9°F16.6°C 58.7°F14.8°C 70% 5.3 mph NW8.5 kmh NW 5.3 mph8.5 kmh 29.91 in1012.9 mb 0.00 in0.0 mm 0.00 in0.0 mm 0.00 in0.0 mm
01:56 PM 61.5°F16.4°C 58.4°F14.7°C 69% 4.4 mph NW7.1 kmh NW 4.4 mph7.1 kmh 29.90 in1012.5 mb 0.00 in0.0 mm 0.00 in0.0 mm 0.00 in0.0 mm
01:57 PM 61.5°F16.4°C 58.3°F14.6°C 70% 3.9 mph NW6.3 kmh NW 4.0 mph6.4 kmh 29.91 in1012.9 mb 0.00 in0.0 mm 0.00 in0.0 mm 0.00 in0.0 mm
01:59 PM 61.9°F16.6°C 59.0°F15.0°C 71% 2.7 mph W4.3 kmh W 2.7 mph4.3 kmh 29.91 in1012.9 mb 0.00 in0.0 mm 0.00 in0.0 mm 0.00 in0.0 mm
02:02 PM 62.6°F17.0°C 58.8°F14.9°C 70% 5.2 mph NNW8.4 kmh NNW 5.2 mph8.4 kmh 29.91 in1012.9 mb 0.00 in0.0 mm 0.00 in0.0 mm 0.00 in0.0 mm
02:03 PM 62.7°F17.1°C 58.9°F14.9°C 70% 5.2 mph 8.4 kmh 5.3 mph8.5 kmh 29.91 in1012.9 mb 0.00 in0.0 mm 0.00 in0.0 mm 0.00 in0.0 mm
02:05 PM 62.3°F16.8°C 58.9°F14.9°C 70% 3.9 mph WNW6.3 kmh WNW 4.1 mph6.6 kmh 29.90 in1012.5 mb 0.00 in0.0 mm 0.00 in0.0 mm 0.00 in0.0 mm
02:06 PM 62.3°F16.8°C 59.0°F15.0°C 70% 5.6 mph WNW9.0 kmh WNW 5.6 mph9.0 kmh 29.90 in1012.5 mb 0.00 in0.0 mm 0.00 in0.0 mm 0.00 in0.0 mm
02:08 PM 62.5°F16.9°C 59.0°F15.0°C 70% 2.8 mph 4.5 kmh 2.8 mph4.5 kmh 29.90 in1012.5 mb 0.00 in0.0 mm 0.00 in0.0 mm 0.00 in0.0 mm
02:09 PM 62.4°F16.9°C 58.9°F14.9°C 70% 2.1 mph W3.4 kmh W 2.1 mph3.4 kmh 29.91 in1012.9 mb 0.00 in0.0 mm 0.00 in0.0 mm 0.00 in0.0 mm
02:11 PM 61.7°F16.5°C 58.8°F14.9°C 70% 6.9 mph WNW11.1 kmh WNW 6.9 mph11.1 kmh 29.91 in1012.9 mb 0.00 in0.0 mm 0.00 in0.0 mm 0.00 in0.0 mm
02:12 PM 61.7°F16.5°C 58.8°F14.9°C 69% 6.7 mph NNW10.8 kmh NNW 6.7 mph10.8 kmh 29.91 in1012.9 mb 0.00 in0.0 mm 0.00 in0.0 mm 0.00 in0.0 mm
02:14 PM 61.6°F16.4°C 58.6°F14.8°C 69% 4.4 mph NNW7.1 kmh NNW 4.4 mph7.1 kmh 29.92 in1013.2 mb 0.00 in0.0 mm 0.00 in0.0 mm 0.00 in0.0 mm
02:15 PM 61.6°F16.4°C 58.6°F14.8°C 69% 4.6 mph NNW7.4 kmh NNW 4.6 mph7.4 kmh 29.91 in1012.9 mb 0.00 in0.0 mm 0.00 in0.0 mm 0.00 in0.0 mm
02:17 PM 60.8°F16.0°C 58.7°F14.8°C 70% 6.0 mph 9.7 kmh 6.0 mph9.7 kmh 29.91 in1012.9 mb 0.00 in0.0 mm 0.00 in0.0 mm 0.00 in0.0 mm
02:18 PM 61.0°F16.1°C 58.6°F14.8°C 69% 7.4 mph 11.9 kmh 7.4 mph11.9 kmh 29.91 in1012.9 mb 0.00 in0.0 mm 0.00 in0.0 mm 0.00 in0.0 mm
02:20 PM 61.3°F16.3°C 58.5°F14.7°C 70% 5.2 mph NNW8.4 kmh NNW 5.2 mph8.4 kmh 29.92 in1013.2 mb 0.00 in0.0 mm 0.00 in0.0 mm 0.00 in0.0 mm
02:21 PM 61.0°F16.1°C 58.4°F14.7°C 69% 6.3 mph NNW10.1 kmh NNW 6.4 mph10.3 kmh 29.92 in1013.2 mb 0.00 in0.0 mm 0.00 in0.0 mm 0.00 in0.0 mm
02:23 PM 61.0°F16.1°C 59.0°F15.0°C 70% 6.9 mph NW11.1 kmh NW 6.9 mph11.1 kmh 29.92 in1013.2 mb 0.00 in0.0 mm 0.00 in0.0 mm 0.00 in0.0 mm
02:24 PM 61.1°F16.2°C 58.6°F14.8°C 70% 6.7 mph WNW10.8 kmh WNW 6.8 mph10.9 kmh 29.91 in1012.9 mb 0.00 in0.0 mm 0.00 in0.0 mm 0.00 in0.0 mm
02:26 PM 60.6°F15.9°C 58.4°F14.7°C 70% 6.6 mph 10.6 kmh 6.6 mph10.6 kmh 29.91 in1012.9 mb 0.00 in0.0 mm 0.00 in0.0 mm 0.00 in0.0 mm
02:27 PM 60.6°F15.9°C 58.6°F14.8°C 70% 9.0 mph 14.5 kmh 9.0 mph14.5 kmh 29.91 in1012.9 mb 0.00 in0.0 mm 0.00 in0.0 mm 0.00 in0.0 mm
02:29 PM 61.7°F16.5°C 58.7°F14.8°C 70% 3.6 mph NW5.8 kmh NW 3.6 mph5.8 kmh 29.92 in1013.2 mb 0.00 in0.0 mm 0.00 in0.0 mm 0.00 in0.0 mm
02:30 PM 61.8°F16.6°C 58.5°F14.7°C 69% 3.1 mph WSW5.0 kmh WSW 3.1 mph5.0 kmh 29.91 in1012.9 mb 0.00 in0.0 mm 0.00 in0.0 mm 0.00 in0.0 mm
02:32 PM 61.8°F16.6°C 58.8°F14.9°C 70% 4.0 mph W6.4 kmh W 4.1 mph6.6 kmh 29.91 in1012.9 mb 0.00 in0.0 mm 0.00 in0.0 mm 0.00 in0.0 mm
02:33 PM 61.8°F16.6°C 58.8°F14.9°C 70% 1.9 mph NW3.1 kmh NW 1.9 mph3.1 kmh 29.91 in1012.9 mb 0.00 in0.0 mm 0.00 in0.0 mm 0.00 in0.0 mm
02:35 PM 62.3°F16.8°C 58.8°F14.9°C 69% 1.9 mph NW3.1 kmh NW 1.9 mph3.1 kmh 29.91 in1012.9 mb 0.00 in0.0 mm 0.00 in0.0 mm 0.00 in0.0 mm
02:38 PM 61.3°F16.3°C 58.4°F14.7°C 69% 6.4 mph 10.3 kmh 6.4 mph10.3 kmh 29.91 in1012.9 mb 0.00 in0.0 mm 0.00 in0.0 mm 0.00 in0.0 mm
02:39 PM 61.1°F16.2°C 58.2°F14.6°C 69% 6.4 mph 10.3 kmh 6.5 mph10.5 kmh 29.91 in1012.9 mb 0.00 in0.0 mm 0.00 in0.0 mm 0.00 in0.0 mm
02:41 PM 62.7°F17.1°C 58.7°F14.8°C 69% 6.4 mph NNW10.3 kmh NNW 6.4 mph10.3 kmh 29.92 in1013.2 mb 0.00 in0.0 mm 0.00 in0.0 mm 0.00 in0.0 mm
02:42 PM 62.8°F17.1°C 58.6°F14.8°C 69% 4.8 mph 7.7 kmh 5.1 mph8.2 kmh 29.91 in1012.9 mb 0.00 in0.0 mm 0.00 in0.0 mm 0.00 in0.0 mm
02:44 PM 62.0°F16.7°C 58.8°F14.9°C 70% 6.1 mph NNW9.8 kmh NNW 6.1 mph9.8 kmh 29.91 in1012.9 mb 0.00 in0.0 mm 0.00 in0.0 mm 0.00 in0.0 mm
02:45 PM 62.0°F16.7°C 59.1°F15.1°C 70% 5.5 mph NW8.9 kmh NW 5.6 mph9.0 kmh 29.91 in1012.9 mb 0.00 in0.0 mm 0.00 in0.0 mm 0.00 in0.0 mm
02:47 PM 61.9°F16.6°C 58.5°F14.7°C 68% 5.1 mph NNW8.2 kmh NNW 5.1 mph8.2 kmh 29.92 in1013.2 mb 0.00 in0.0 mm 0.00 in0.0 mm 0.00 in0.0 mm
02:48 PM 61.7°F16.5°C 58.5°F14.7°C 68% 7.9 mph NW12.7 kmh NW 7.9 mph12.7 kmh 29.92 in1013.2 mb 0.00 in0.0 mm 0.00 in0.0 mm 0.00 in0.0 mm
02:50 PM 62.5°F16.9°C 58.8°F14.9°C 70% 2.4 mph NW3.9 kmh NW 2.4 mph3.9 kmh 29.91 in1012.9 mb 0.00 in0.0 mm 0.00 in0.0 mm 0.00 in0.0 mm
02:51 PM 62.6°F17.0°C 58.7°F14.8°C 69% 1.9 mph NW3.1 kmh NW 2.0 mph3.2 kmh 29.92 in1013.2 mb 0.00 in0.0 mm 0.00 in0.0 mm 0.00 in0.0 mm
02:53 PM 61.8°F16.6°C 58.4°F14.7°C 69% 2.0 mph NNE3.2 kmh NNE 2.0 mph3.2 kmh 29.92 in1013.2 mb 0.00 in0.0 mm 0.00 in0.0 mm 0.00 in0.0 mm
02:54 PM 61.8°F16.6°C 59.0°F15.0°C 69% 3.3 mph 5.3 kmh 3.3 mph5.3 kmh 29.92 in1013.2 mb 0.00 in0.0 mm 0.00 in0.0 mm 0.00 in0.0 mm
02:56 PM 62.5°F16.9°C 58.4°F14.7°C 69% 4.9 mph WNW7.9 kmh WNW 4.9 mph7.9 kmh 29.92 in1013.2 mb 0.00 in0.0 mm 0.00 in0.0 mm 0.00 in0.0 mm
02:57 PM 62.8°F17.1°C 58.6°F14.8°C 68% 4.0 mph WNW6.4 kmh WNW 4.0 mph6.4 kmh 29.91 in1012.9 mb 0.00 in0.0 mm 0.00 in0.0 mm 0.00 in0.0 mm
02:59 PM 63.4°F17.4°C 58.9°F14.9°C 69% 3.6 mph NNW5.8 kmh NNW 3.6 mph5.8 kmh 29.92 in1013.2 mb 0.00 in0.0 mm 0.00 in0.0 mm 0.00 in0.0 mm
03:00 PM 63.6°F17.6°C 59.0°F15.0°C 69% 3.4 mph 5.5 kmh 3.5 mph5.6 kmh 29.91 in1012.9 mb 0.00 in0.0 mm 0.00 in0.0 mm 0.00 in0.0 mm
03:02 PM 63.4°F17.4°C 59.2°F15.1°C 69% 6.0 mph NNW9.7 kmh NNW 6.0 mph9.7 kmh 29.91 in1012.9 mb 0.00 in0.0 mm 0.00 in0.0 mm 0.00 in0.0 mm
03:03 PM 63.5°F17.5°C 58.9°F14.9°C 68% 4.0 mph NW6.4 kmh NW 4.0 mph6.4 kmh 29.91 in1012.9 mb 0.00 in0.0 mm 0.00 in0.0 mm 0.00 in0.0 mm
03:05 PM 63.1°F17.3°C 58.6°F14.8°C 68% 2.8 mph 4.5 kmh 2.9 mph4.7 kmh 29.91 in1012.9 mb 0.00 in0.0 mm 0.00 in0.0 mm 0.00 in0.0 mm
03:06 PM 62.9°F17.2°C 58.8°F14.9°C 68% 3.5 mph 5.6 kmh 3.6 mph5.8 kmh 29.91 in1012.9 mb 0.00 in0.0 mm 0.00 in0.0 mm 0.00 in0.0 mm
03:08 PM 63.5°F17.5°C 59.4°F15.2°C 69% 7.3 mph 11.7 kmh 7.3 mph11.7 kmh 29.91 in1012.9 mb 0.00 in0.0 mm 0.00 in0.0 mm 0.00 in0.0 mm
03:09 PM 63.3°F17.4°C 59.2°F15.1°C 69% 8.0 mph 12.9 kmh 8.0 mph12.9 kmh 29.91 in1012.9 mb 0.00 in0.0 mm 0.00 in0.0 mm 0.00 in0.0 mm
03:11 PM 63.1°F17.3°C 58.8°F14.9°C 68% 4.0 mph NW6.4 kmh NW 4.1 mph6.6 kmh 29.91 in1012.9 mb 0.00 in0.0 mm 0.00 in0.0 mm 0.00 in0.0 mm
03:14 PM 62.4°F16.9°C 59.1°F15.1°C 68% 6.7 mph 10.8 kmh 6.8 mph10.9 kmh 29.92 in1013.2 mb 0.00 in0.0 mm 0.00 in0.0 mm 0.00 in0.0 mm
03:15 PM 62.4°F16.9°C 58.8°F14.9°C 68% 5.5 mph NNW8.9 kmh NNW 5.5 mph8.9 kmh 29.91 in1012.9 mb 0.00 in0.0 mm 0.00 in0.0 mm 0.00 in0.0 mm
03:17 PM 61.6°F16.4°C 58.9°F14.9°C 68% 6.9 mph NNW11.1 kmh NNW 7.0 mph11.3 kmh 29.92 in1013.2 mb 0.00 in0.0 mm 0.00 in0.0 mm 0.00 in0.0 mm
03:18 PM 61.6°F16.4°C 58.9°F14.9°C 68% 6.5 mph NNW10.5 kmh NNW 6.5 mph10.5 kmh 29.92 in1013.2 mb 0.00 in0.0 mm 0.00 in0.0 mm 0.00 in0.0 mm
03:20 PM 61.9°F16.6°C 58.6°F14.8°C 68% 5.2 mph 8.4 kmh 5.2 mph8.4 kmh 29.92 in1013.2 mb 0.00 in0.0 mm 0.00 in0.0 mm 0.00 in0.0 mm
03:21 PM 62.2°F16.8°C 58.7°F14.8°C 68% 5.0 mph 8.0 kmh 5.0 mph8.0 kmh 29.92 in1013.2 mb 0.00 in0.0 mm 0.00 in0.0 mm 0.00 in0.0 mm
03:23 PM 60.9°F16.1°C 58.7°F14.8°C 68% 6.5 mph 10.5 kmh 6.5 mph10.5 kmh 29.92 in1013.2 mb 0.00 in0.0 mm 0.00 in0.0 mm 0.00 in0.0 mm
03:24 PM 61.1°F16.2°C 58.7°F14.8°C 68% 5.0 mph 8.0 kmh 5.0 mph8.0 kmh 29.92 in1013.2 mb 0.00 in0.0 mm 0.00 in0.0 mm 0.00 in0.0 mm
03:26 PM 61.0°F16.1°C 58.6°F14.8°C 69% 8.9 mph 14.3 kmh 9.0 mph14.5 kmh 29.92 in1013.2 mb 0.00 in0.0 mm 0.00 in0.0 mm 0.00 in0.0 mm
03:27 PM 60.9°F16.1°C 58.4°F14.7°C 69% 10.0 mph 16.1 kmh 10.0 mph16.1 kmh 29.92 in1013.2 mb 0.00 in0.0 mm 0.00 in0.0 mm 0.00 in0.0 mm
03:29 PM 60.7°F15.9°C 58.2°F14.6°C 69% 9.7 mph 15.6 kmh 9.8 mph15.8 kmh 29.92 in1013.2 mb 0.00 in0.0 mm 0.00 in0.0 mm 0.00 in0.0 mm
03:30 PM 60.7°F15.9°C 58.5°F14.7°C 69% 8.4 mph 13.5 kmh 9.0 mph14.5 kmh 29.92 in1013.2 mb 0.00 in0.0 mm 0.00 in0.0 mm 0.00 in0.0 mm
03:32 PM 61.0°F16.1°C 58.4°F14.7°C 69% 4.9 mph 7.9 kmh 4.9 mph7.9 kmh 29.92 in1013.2 mb 0.00 in0.0 mm 0.00 in0.0 mm 0.00 in0.0 mm
03:33 PM 61.1°F16.2°C 58.3°F14.6°C 69% 4.6 mph 7.4 kmh 4.6 mph7.4 kmh 29.92 in1013.2 mb 0.00 in0.0 mm 0.00 in0.0 mm 0.00 in0.0 mm
03:35 PM 60.9°F16.1°C 58.6°F14.8°C 69% 3.2 mph NNW5.1 kmh NNW 3.2 mph5.1 kmh 29.92 in1013.2 mb 0.00 in0.0 mm 0.00 in0.0 mm 0.00 in0.0 mm
03:36 PM 60.7°F15.9°C 58.2°F14.6°C 69% 4.9 mph NNW7.9 kmh NNW 5.1 mph8.2 kmh 29.92 in1013.2 mb 0.00 in0.0 mm 0.00 in0.0 mm 0.00 in0.0 mm
03:38 PM 60.7°F15.9°C 58.2°F14.6°C 68% 5.4 mph NW8.7 kmh NW 5.5 mph8.9 kmh 29.92 in1013.2 mb 0.00 in0.0 mm 0.00 in0.0 mm 0.00 in0.0 mm
03:39 PM 60.8°F16.0°C 58.1°F14.5°C 68% 6.4 mph NW10.3 kmh NW 6.4 mph10.3 kmh 29.92 in1013.2 mb 0.00 in0.0 mm 0.00 in0.0 mm 0.00 in0.0 mm
03:41 PM 60.1°F15.6°C 57.9°F14.4°C 68% 2.8 mph NW4.5 kmh NW 2.8 mph4.5 kmh 29.92 in1013.2 mb 0.00 in0.0 mm 0.00 in0.0 mm 0.00 in0.0 mm
03:42 PM 60.1°F15.6°C 58.2°F14.6°C 69% 5.3 mph NNW8.5 kmh NNW 5.3 mph8.5 kmh 29.92 in1013.2 mb 0.00 in0.0 mm 0.00 in0.0 mm 0.00 in0.0 mm
03:44 PM 59.0°F15.0°C 58.0°F14.4°C 69% 6.0 mph NNW9.7 kmh NNW 6.0 mph9.7 kmh 29.92 in1013.2 mb 0.00 in0.0 mm 0.00 in0.0 mm 0.00 in0.0 mm
03:45 PM 59.3°F15.2°C 58.0°F14.4°C 69% 5.9 mph NW9.5 kmh NW 6.0 mph9.7 kmh 29.92 in1013.2 mb 0.00 in0.0 mm 0.00 in0.0 mm 0.00 in0.0 mm
03:47 PM 59.7°F15.4°C 57.9°F14.4°C 69% 5.6 mph NNW9.0 kmh NNW 5.6 mph9.0 kmh 29.92 in1013.2 mb 0.00 in0.0 mm 0.00 in0.0 mm 0.00 in0.0 mm
03:48 PM 59.7°F15.4°C 58.0°F14.4°C 69% 4.4 mph W7.1 kmh W 4.4 mph7.1 kmh 29.92 in1013.2 mb 0.00 in0.0 mm 0.00 in0.0 mm 0.00 in0.0 mm
03:50 PM 59.6°F15.3°C 58.0°F14.4°C 69% 2.8 mph NW4.5 kmh NW 2.8 mph4.5 kmh 29.92 in1013.2 mb 0.00 in0.0 mm 0.00 in0.0 mm 0.00 in0.0 mm
03:51 PM 59.6°F15.3°C 58.0°F14.4°C 69% 2.1 mph 3.4 kmh 2.1 mph3.4 kmh 29.92 in1013.2 mb 0.00 in0.0 mm 0.00 in0.0 mm 0.00 in0.0 mm
03:53 PM 59.7°F15.4°C 57.8°F14.3°C 70% 5.8 mph NW9.3 kmh NW 5.8 mph9.3 kmh 29.92 in1013.2 mb 0.00 in0.0 mm 0.00 in0.0 mm 0.00 in0.0 mm
03:54 PM 59.8°F15.4°C 57.6°F14.2°C 69% 4.8 mph NW7.7 kmh NW 5.1 mph8.2 kmh 29.92 in1013.2 mb 0.00 in0.0 mm 0.00 in0.0 mm 0.00 in0.0 mm
03:56 PM 58.3°F14.6°C 57.7°F14.3°C 70% 5.7 mph NW9.2 kmh NW 5.7 mph9.2 kmh 29.92 in1013.2 mb 0.00 in0.0 mm 0.00 in0.0 mm 0.00 in0.0 mm
03:57 PM 58.7°F14.8°C 57.9°F14.4°C 70% 3.6 mph NNW5.8 kmh NNW 3.8 mph6.1 kmh 29.92 in1013.2 mb 0.00 in0.0 mm 0.00 in0.0 mm 0.00 in0.0 mm
03:59 PM 59.8°F15.4°C 57.6°F14.2°C 69% 1.2 mph 1.9 kmh 1.2 mph1.9 kmh 29.92 in1013.2 mb 0.00 in0.0 mm 0.00 in0.0 mm 0.00 in0.0 mm
04:02 PM 60.5°F15.8°C 57.9°F14.4°C 70% 2.4 mph NNW3.9 kmh NNW 2.4 mph3.9 kmh 29.92 in1013.2 mb 0.00 in0.0 mm 0.00 in0.0 mm 0.00 in0.0 mm
04:03 PM 60.2°F15.7°C 57.9°F14.4°C 70% 2.1 mph NW3.4 kmh NW 2.1 mph3.4 kmh 29.92 in1013.2 mb 0.00 in0.0 mm 0.00 in0.0 mm 0.00 in0.0 mm
04:05 PM 60.2°F15.7°C 57.9°F14.4°C 70% 2.3 mph NW3.7 kmh NW 2.3 mph3.7 kmh 29.92 in1013.2 mb 0.00 in0.0 mm 0.00 in0.0 mm 0.00 in0.0 mm
04:06 PM 60.2°F15.7°C 57.7°F14.3°C 70% 1.2 mph NW1.9 kmh NW 1.3 mph2.1 kmh 29.92 in1013.2 mb 0.00 in0.0 mm 0.00 in0.0 mm 0.00 in0.0 mm
04:08 PM 59.8°F15.4°C 57.5°F14.2°C 69% 2.0 mph NNW3.2 kmh NNW 2.0 mph3.2 kmh 29.92 in1013.2 mb 0.00 in0.0 mm 0.00 in0.0 mm 0.00 in0.0 mm
04:09 PM 59.9°F15.5°C 57.7°F14.3°C 69% 2.0 mph NNW3.2 kmh NNW 2.0 mph3.2 kmh 29.92 in1013.2 mb 0.00 in0.0 mm 0.00 in0.0 mm 0.00 in0.0 mm
04:11 PM 60.5°F15.8°C 57.7°F14.3°C 70% 7.3 mph 11.7 kmh 7.3 mph11.7 kmh 29.92 in1013.2 mb 0.00 in0.0 mm 0.00 in0.0 mm 0.00 in0.0 mm
04:12 PM 60.2°F15.7°C 57.4°F14.1°C 69% 6.3 mph 10.1 kmh 6.5 mph10.5 kmh 29.92 in1013.2 mb 0.00 in0.0 mm 0.00 in0.0 mm 0.00 in0.0 mm
04:14 PM 61.3°F16.3°C 57.8°F14.3°C 70% 4.3 mph NW6.9 kmh NW 4.4 mph7.1 kmh 29.92 in1013.2 mb 0.00 in0.0 mm 0.00 in0.0 mm 0.00 in0.0 mm
04:17 PM 62.6°F17.0°C 58.2°F14.6°C 69% 2.4 mph WNW3.9 kmh WNW 2.4 mph3.9 kmh 29.92 in1013.2 mb 0.00 in0.0 mm 0.00 in0.0 mm 0.00 in0.0 mm
04:18 PM 62.7°F17.1°C 57.9°F14.4°C 69% 2.8 mph NW4.5 kmh NW 2.8 mph4.5 kmh 29.92 in1013.2 mb 0.00 in0.0 mm 0.00 in0.0 mm 0.00 in0.0 mm
04:20 PM 64.0°F17.8°C 58.5°F14.7°C 69% Calm Calm -- 29.92 in1013.2 mb 0.00 in0.0 mm 0.00 in0.0 mm 0.00 in0.0 mm
04:21 PM 64.0°F17.8°C 58.3°F14.6°C 69% Calm Calm -- 29.92 in1013.2 mb 0.00 in0.0 mm 0.00 in0.0 mm 0.00 in0.0 mm
04:23 PM 64.7°F18.2°C 58.1°F14.5°C 68% 5.3 mph NW8.5 kmh NW 5.3 mph8.5 kmh 29.92 in1013.2 mb 0.00 in0.0 mm 0.00 in0.0 mm 0.00 in0.0 mm
04:24 PM 64.7°F18.2°C 58.4°F14.7°C 68% 5.4 mph NW8.7 kmh NW 5.4 mph8.7 kmh 29.92 in1013.2 mb 0.00 in0.0 mm 0.00 in0.0 mm 0.00 in0.0 mm
04:26 PM 64.7°F18.2°C 58.4°F14.7°C 68% 2.8 mph WNW4.5 kmh WNW 2.8 mph4.5 kmh 29.92 in1013.2 mb 0.00 in0.0 mm 0.00 in0.0 mm 0.00 in0.0 mm
04:27 PM 64.9°F18.3°C 58.5°F14.7°C 67% 3.0 mph NNW4.8 kmh NNW 3.0 mph4.8 kmh 29.92 in1013.2 mb 0.00 in0.0 mm 0.00 in0.0 mm 0.00 in0.0 mm
04:29 PM 63.6°F17.6°C 58.8°F14.9°C 68% 3.5 mph NNW5.6 kmh NNW 3.5 mph5.6 kmh 29.92 in1013.2 mb 0.00 in0.0 mm 0.00 in0.0 mm 0.00 in0.0 mm
04:30 PM 63.8°F17.7°C 58.6°F14.8°C 68% 3.7 mph 6.0 kmh 3.7 mph6.0 kmh 29.92 in1013.2 mb 0.00 in0.0 mm 0.00 in0.0 mm 0.00 in0.0 mm
04:32 PM 63.1°F17.3°C 58.0°F14.4°C 66% 2.4 mph NNW3.9 kmh NNW 2.4 mph3.9 kmh 29.92 in1013.2 mb 0.00 in0.0 mm 0.00 in0.0 mm 0.00 in0.0 mm
04:33 PM 62.9°F17.2°C 57.9°F14.4°C 66% 1.3 mph S2.1 kmh S 1.4 mph2.3 kmh 29.92 in1013.2 mb 0.00 in0.0 mm 0.00 in0.0 mm 0.00 in0.0 mm
04:35 PM 62.4°F16.9°C 57.9°F14.4°C 67% 2.4 mph NNW3.9 kmh NNW 2.4 mph3.9 kmh 29.92 in1013.2 mb 0.00 in0.0 mm 0.00 in0.0 mm 0.00 in0.0 mm
04:36 PM 62.5°F16.9°C 58.0°F14.4°C 67% 2.2 mph W3.5 kmh W 2.2 mph3.5 kmh 29.92 in1013.2 mb 0.00 in0.0 mm 0.00 in0.0 mm 0.00 in0.0 mm
04:38 PM 62.2°F16.8°C 57.8°F14.3°C 67% 3.6 mph NNW5.8 kmh NNW 3.7 mph6.0 kmh 29.92 in1013.2 mb 0.00 in0.0 mm 0.00 in0.0 mm 0.00 in0.0 mm
04:39 PM 62.2°F16.8°C 57.6°F14.2°C 66% 4.1 mph NW6.6 kmh NW 4.1 mph6.6 kmh 29.92 in1013.2 mb 0.00 in0.0 mm 0.00 in0.0 mm 0.00 in0.0 mm
04:41 PM 62.3°F16.8°C 57.7°F14.3°C 66% 1.2 mph NNW1.9 kmh NNW 1.2 mph1.9 kmh 29.92 in1013.2 mb 0.00 in0.0 mm 0.00 in0.0 mm 0.00 in0.0 mm
04:42 PM 62.4°F16.9°C 57.8°F14.3°C 67% 2.3 mph W3.7 kmh W 2.3 mph3.7 kmh 29.92 in1013.2 mb 0.00 in0.0 mm 0.00 in0.0 mm 0.00 in0.0 mm
04:44 PM 62.2°F16.8°C 57.8°F14.3°C 66% 4.9 mph WNW7.9 kmh WNW 4.9 mph7.9 kmh 29.92 in1013.2 mb 0.00 in0.0 mm 0.00 in0.0 mm 0.00 in0.0 mm
04:45 PM 62.2°F16.8°C 57.5°F14.2°C 66% 3.0 mph WNW4.8 kmh WNW 3.0 mph4.8 kmh 29.92 in1013.2 mb 0.00 in0.0 mm 0.00 in0.0 mm 0.00 in0.0 mm
04:47 PM 62.0°F16.7°C 57.3°F14.1°C 66% 4.0 mph WNW6.4 kmh WNW 4.0 mph6.4 kmh 29.92 in1013.2 mb 0.00 in0.0 mm 0.00 in0.0 mm 0.00 in0.0 mm
04:48 PM 61.9°F16.6°C 57.3°F14.1°C 66% 5.0 mph NW8.0 kmh NW 5.0 mph8.0 kmh 29.92 in1013.2 mb 0.00 in0.0 mm 0.00 in0.0 mm 0.00 in0.0 mm
04:50 PM 61.6°F16.4°C 57.2°F14.0°C 66% 4.5 mph NW7.2 kmh NW 4.5 mph7.2 kmh 29.92 in1013.2 mb 0.00 in0.0 mm 0.00 in0.0 mm 0.00 in0.0 mm
04:51 PM 61.8°F16.6°C 56.9°F13.8°C 66% 7.2 mph NW11.6 kmh NW 7.2 mph11.6 kmh 29.92 in1013.2 mb 0.00 in0.0 mm 0.00 in0.0 mm 0.00 in0.0 mm
04:53 PM 61.8°F16.6°C 57.2°F14.0°C 66% 5.3 mph NW8.5 kmh NW 5.3 mph8.5 kmh 29.92 in1013.2 mb 0.00 in0.0 mm 0.00 in0.0 mm 0.00 in0.0 mm
04:54 PM 61.8°F16.6°C 57.3°F14.1°C 66% 4.3 mph NW6.9 kmh NW 4.3 mph6.9 kmh 29.92 in1013.2 mb 0.00 in0.0 mm 0.00 in0.0 mm 0.00 in0.0 mm
04:56 PM 61.6°F16.4°C 57.4°F14.1°C 67% 5.6 mph NNW9.0 kmh NNW 5.6 mph9.0 kmh 29.92 in1013.2 mb 0.00 in0.0 mm 0.00 in0.0 mm 0.00 in0.0 mm
04:57 PM 61.6°F16.4°C 57.0°F13.9°C 66% 7.7 mph NW12.4 kmh NW 7.8 mph12.6 kmh 29.92 in1013.2 mb 0.00 in0.0 mm 0.00 in0.0 mm 0.00 in0.0 mm
04:59 PM 60.9°F16.1°C 57.1°F13.9°C 67% 3.6 mph SW5.8 kmh SW 3.7 mph6.0 kmh 29.92 in1013.2 mb 0.00 in0.0 mm 0.00 in0.0 mm 0.00 in0.0 mm
05:00 PM 61.0°F16.1°C 56.9°F13.8°C 66% 5.4 mph WSW8.7 kmh WSW 5.4 mph8.7 kmh 29.93 in1013.5 mb 0.00 in0.0 mm 0.00 in0.0 mm 0.00 in0.0 mm
05:02 PM 61.4°F16.3°C 57.5°F14.2°C 68% 1.6 mph W2.6 kmh W 1.6 mph2.6 kmh 29.92 in1013.2 mb 0.00 in0.0 mm 0.00 in0.0 mm 0.00 in0.0 mm
05:03 PM 61.6°F16.4°C 57.4°F14.1°C 68% 0.9 mph W1.4 kmh W 1.0 mph1.6 kmh 29.93 in1013.5 mb 0.00 in0.0 mm 0.00 in0.0 mm 0.00 in0.0 mm
05:05 PM 61.4°F16.3°C 57.7°F14.3°C 68% 3.2 mph NW5.1 kmh NW 3.2 mph5.1 kmh 29.93 in1013.5 mb 0.00 in0.0 mm 0.00 in0.0 mm 0.00 in0.0 mm
05:06 PM 61.5°F16.4°C 57.5°F14.2°C 68% 3.9 mph NW6.3 kmh NW 4.1 mph6.6 kmh 29.93 in1013.5 mb 0.00 in0.0 mm 0.00 in0.0 mm 0.00 in0.0 mm
05:08 PM 61.6°F16.4°C 57.6°F14.2°C 68% 7.7 mph NW12.4 kmh NW 7.7 mph12.4 kmh 29.93 in1013.5 mb 0.00 in0.0 mm 0.00 in0.0 mm 0.00 in0.0 mm
05:09 PM 61.6°F16.4°C 57.5°F14.2°C 67% 5.9 mph NNW9.5 kmh NNW 5.9 mph9.5 kmh 29.93 in1013.5 mb 0.00 in0.0 mm 0.00 in0.0 mm 0.00 in0.0 mm
05:11 PM 61.3°F16.3°C 57.1°F13.9°C 67% 6.5 mph WNW10.5 kmh WNW 6.5 mph10.5 kmh 29.93 in1013.5 mb 0.00 in0.0 mm 0.00 in0.0 mm 0.00 in0.0 mm
05:12 PM 61.1°F16.2°C 57.3°F14.1°C 67% 4.8 mph NW7.7 kmh NW 4.9 mph7.9 kmh 29.93 in1013.5 mb 0.00 in0.0 mm 0.00 in0.0 mm 0.00 in0.0 mm
05:14 PM 60.4°F15.8°C 57.0°F13.9°C 67% 6.5 mph NW10.5 kmh NW 6.5 mph10.5 kmh 29.94 in1013.9 mb 0.00 in0.0 mm 0.00 in0.0 mm 0.00 in0.0 mm
05:15 PM 60.5°F15.8°C 56.6°F13.7°C 67% 3.7 mph W6.0 kmh W 3.9 mph6.3 kmh 29.94 in1013.9 mb 0.00 in0.0 mm 0.00 in0.0 mm 0.00 in0.0 mm
05:17 PM 60.1°F15.6°C 56.8°F13.8°C 67% 6.1 mph NNW9.8 kmh NNW 6.1 mph9.8 kmh 29.94 in1013.9 mb 0.00 in0.0 mm 0.00 in0.0 mm 0.00 in0.0 mm
05:18 PM 60.0°F15.6°C 56.6°F13.7°C 67% 5.8 mph WNW9.3 kmh WNW 5.8 mph9.3 kmh 29.94 in1013.9 mb 0.00 in0.0 mm 0.00 in0.0 mm 0.00 in0.0 mm
05:20 PM 59.7°F15.4°C 56.9°F13.8°C 68% 2.7 mph NW4.3 kmh NW 2.7 mph4.3 kmh 29.94 in1013.9 mb 0.00 in0.0 mm 0.00 in0.0 mm 0.00 in0.0 mm
05:21 PM 59.8°F15.4°C 57.1°F13.9°C 68% 2.8 mph NW4.5 kmh NW 2.8 mph4.5 kmh 29.94 in1013.9 mb 0.00 in0.0 mm 0.00 in0.0 mm 0.00 in0.0 mm
05:23 PM 59.2°F15.1°C 56.6°F13.7°C 67% 2.8 mph NW4.5 kmh NW 2.9 mph4.7 kmh 29.94 in1013.9 mb 0.00 in0.0 mm 0.00 in0.0 mm 0.00 in0.0 mm
05:24 PM 59.2°F15.1°C 56.6°F13.7°C 67% 2.2 mph W3.5 kmh W 2.2 mph3.5 kmh 29.94 in1013.9 mb 0.00 in0.0 mm 0.00 in0.0 mm 0.00 in0.0 mm
05:26 PM 58.7°F14.8°C 56.5°F13.6°C 67% 3.2 mph NNW5.1 kmh NNW 3.3 mph5.3 kmh 29.94 in1013.9 mb 0.00 in0.0 mm 0.00 in0.0 mm 0.00 in0.0 mm
05:27 PM 58.8°F14.9°C 56.3°F13.5°C 67% 3.2 mph NW5.1 kmh NW 3.3 mph5.3 kmh 29.94 in1013.9 mb 0.00 in0.0 mm 0.00 in0.0 mm 0.00 in0.0 mm
05:29 PM 58.3°F14.6°C 56.1°F13.4°C 67% 6.4 mph NW10.3 kmh NW 6.5 mph10.5 kmh 29.94 in1013.9 mb 0.00 in0.0 mm 0.00 in0.0 mm 0.00 in0.0 mm
05:30 PM 58.6°F14.8°C 56.5°F13.6°C 67% 5.4 mph NW8.7 kmh NW 5.6 mph9.0 kmh 29.94 in1013.9 mb 0.00 in0.0 mm 0.00 in0.0 mm 0.00 in0.0 mm
05:32 PM 58.3°F14.6°C 56.4°F13.6°C 68% 3.1 mph NW5.0 kmh NW 3.2 mph5.1 kmh 29.94 in1013.9 mb 0.00 in0.0 mm 0.00 in0.0 mm 0.00 in0.0 mm
05:33 PM 58.8°F14.9°C 56.1°F13.4°C 68% 2.8 mph NW4.5 kmh NW 2.8 mph4.5 kmh 29.94 in1013.9 mb 0.00 in0.0 mm 0.00 in0.0 mm 0.00 in0.0 mm
05:35 PM 58.6°F14.8°C 56.4°F13.6°C 68% 1.5 mph NW2.4 kmh NW 1.5 mph2.4 kmh 29.94 in1013.9 mb 0.00 in0.0 mm 0.00 in0.0 mm 0.00 in0.0 mm
05:36 PM 58.6°F14.8°C 56.3°F13.5°C 68% 1.1 mph NW1.8 kmh NW 1.2 mph1.9 kmh 29.94 in1013.9 mb 0.00 in0.0 mm 0.00 in0.0 mm 0.00 in0.0 mm
05:38 PM 58.7°F14.8°C 56.3°F13.5°C 68% 3.2 mph SW5.1 kmh SW 3.2 mph5.1 kmh 29.94 in1013.9 mb 0.00 in0.0 mm 0.00 in0.0 mm 0.00 in0.0 mm
05:39 PM 58.8°F14.9°C 56.2°F13.4°C 68% 2.1 mph WSW3.4 kmh WSW 2.2 mph3.5 kmh 29.94 in1013.9 mb 0.00 in0.0 mm 0.00 in0.0 mm 0.00 in0.0 mm
05:41 PM 58.8°F14.9°C 56.1°F13.4°C 68% 2.8 mph NW4.5 kmh NW 2.9 mph4.7 kmh 29.94 in1013.9 mb 0.00 in0.0 mm 0.00 in0.0 mm 0.00 in0.0 mm
05:42 PM 58.9°F14.9°C 56.3°F13.5°C 68% 3.3 mph NW5.3 kmh NW 3.3 mph5.3 kmh 29.94 in1013.9 mb 0.00 in0.0 mm 0.00 in0.0 mm 0.00 in0.0 mm
05:44 PM 58.4°F14.7°C 55.8°F13.2°C 67% 5.2 mph WNW8.4 kmh WNW 5.3 mph8.5 kmh 29.94 in1013.9 mb 0.00 in0.0 mm 0.00 in0.0 mm 0.00 in0.0 mm
05:45 PM 58.8°F14.9°C 56.0°F13.3°C 67% 3.9 mph W6.3 kmh W 4.0 mph6.4 kmh 29.94 in1013.9 mb 0.00 in0.0 mm 0.00 in0.0 mm 0.00 in0.0 mm
05:47 PM 58.3°F14.6°C 56.0°F13.3°C 68% 2.0 mph W3.2 kmh W 2.0 mph3.2 kmh 29.94 in1013.9 mb 0.00 in0.0 mm 0.00 in0.0 mm 0.00 in0.0 mm
05:48 PM 58.7°F14.8°C 56.0°F13.3°C 68% 3.9 mph WNW6.3 kmh WNW 3.9 mph6.3 kmh 29.94 in1013.9 mb 0.00 in0.0 mm 0.00 in0.0 mm 0.00 in0.0 mm
05:53 PM 58.3°F14.6°C 55.7°F13.2°C 67% 4.8 mph W7.7 kmh W 4.8 mph7.7 kmh 29.95 in1014.2 mb 0.00 in0.0 mm 0.00 in0.0 mm 0.00 in0.0 mm
05:54 PM 58.3°F14.6°C 55.6°F13.1°C 67% 3.7 mph WNW6.0 kmh WNW 3.7 mph6.0 kmh 29.95 in1014.2 mb 0.00 in0.0 mm 0.00 in0.0 mm 0.00 in0.0 mm
05:56 PM 58.4°F14.7°C 55.7°F13.2°C 68% 1.2 mph NW1.9 kmh NW 1.2 mph1.9 kmh 29.95 in1014.2 mb 0.00 in0.0 mm 0.00 in0.0 mm 0.00 in0.0 mm
05:57 PM 58.3°F14.6°C 55.8°F13.2°C 68% 3.0 mph NW4.8 kmh NW 3.0 mph4.8 kmh 29.95 in1014.2 mb 0.00 in0.0 mm 0.00 in0.0 mm 0.00 in0.0 mm
05:59 PM 58.1°F14.5°C 55.8°F13.2°C 68% 3.4 mph W5.5 kmh W 3.7 mph6.0 kmh 29.95 in1014.2 mb 0.00 in0.0 mm 0.00 in0.0 mm 0.00 in0.0 mm
06:00 PM 58.3°F14.6°C 55.8°F13.2°C 68% 6.1 mph NW9.8 kmh NW 6.1 mph9.8 kmh 29.95 in1014.2 mb 0.00 in0.0 mm 0.00 in0.0 mm 0.00 in0.0 mm
06:02 PM 58.1°F14.5°C 55.4°F13.0°C 68% 3.6 mph NW5.8 kmh NW 3.6 mph5.8 kmh 29.95 in1014.2 mb 0.00 in0.0 mm 0.00 in0.0 mm 0.00 in0.0 mm
06:03 PM 58.4°F14.7°C 55.5°F13.1°C 67% 4.4 mph NW7.1 kmh NW 4.4 mph7.1 kmh 29.95 in1014.2 mb 0.00 in0.0 mm 0.00 in0.0 mm 0.00 in0.0 mm
06:05 PM 58.3°F14.6°C 56.0°F13.3°C 68% Calm Calm -- 29.95 in1014.2 mb 0.00 in0.0 mm 0.00 in0.0 mm 0.00 in0.0 mm
06:06 PM 58.7°F14.8°C 56.1°F13.4°C 69% Calm Calm -- 29.95 in1014.2 mb 0.00 in0.0 mm 0.00 in0.0 mm 0.00 in0.0 mm
06:08 PM 58.3°F14.6°C 56.3°F13.5°C 69% 0.8 mph NNW1.3 kmh NNW 0.8 mph1.3 kmh 29.95 in1014.2 mb 0.00 in0.0 mm 0.00 in0.0 mm 0.00 in0.0 mm
06:11 PM 58.4°F14.7°C 56.0°F13.3°C 68% 1.6 mph NNW2.6 kmh NNW 1.6 mph2.6 kmh 29.96 in1014.6 mb 0.00 in0.0 mm 0.00 in0.0 mm 0.00 in0.0 mm
06:12 PM 58.4°F14.7°C 56.0°F13.3°C 69% 1.6 mph W2.6 kmh W 1.9 mph3.1 kmh 29.95 in1014.2 mb 0.00 in0.0 mm 0.00 in0.0 mm 0.00 in0.0 mm
06:14 PM 58.2°F14.6°C 56.0°F13.3°C 68% 4.5 mph W7.2 kmh W 4.5 mph7.2 kmh 29.96 in1014.6 mb 0.00 in0.0 mm 0.00 in0.0 mm 0.00 in0.0 mm
06:17 PM 58.1°F14.5°C 55.6°F13.1°C 68% 2.0 mph WNW3.2 kmh WNW 2.0 mph3.2 kmh 29.96 in1014.6 mb 0.00 in0.0 mm 0.00 in0.0 mm 0.00 in0.0 mm
06:18 PM 58.0°F14.4°C 55.5°F13.1°C 68% 3.0 mph NW4.8 kmh NW 3.1 mph5.0 kmh 29.96 in1014.6 mb 0.00 in0.0 mm 0.00 in0.0 mm 0.00 in0.0 mm
06:20 PM 57.9°F14.4°C 55.8°F13.2°C 69% 3.6 mph NNW5.8 kmh NNW 3.7 mph6.0 kmh 29.96 in1014.6 mb 0.00 in0.0 mm 0.00 in0.0 mm 0.00 in0.0 mm
06:21 PM 57.9°F14.4°C 55.7°F13.2°C 69% 2.3 mph WNW3.7 kmh WNW 2.4 mph3.9 kmh 29.96 in1014.6 mb 0.00 in0.0 mm 0.00 in0.0 mm 0.00 in0.0 mm
06:23 PM 58.0°F14.4°C 55.8°F13.2°C 69% 2.0 mph WNW3.2 kmh WNW 2.0 mph3.2 kmh 29.96 in1014.6 mb 0.00 in0.0 mm 0.00 in0.0 mm 0.00 in0.0 mm
06:24 PM 58.0°F14.4°C 55.5°F13.1°C 69% 2.0 mph WNW3.2 kmh WNW 2.0 mph3.2 kmh 29.96 in1014.6 mb 0.00 in0.0 mm 0.00 in0.0 mm 0.00 in0.0 mm
06:26 PM 58.0°F14.4°C 55.6°F13.1°C 69% 4.0 mph NW6.4 kmh NW 4.0 mph6.4 kmh 29.96 in1014.6 mb 0.00 in0.0 mm 0.00 in0.0 mm 0.00 in0.0 mm
06:27 PM 58.0°F14.4°C 55.6°F13.1°C 69% 4.0 mph NW6.4 kmh NW 4.0 mph6.4 kmh 29.96 in1014.6 mb 0.00 in0.0 mm 0.00 in0.0 mm 0.00 in0.0 mm
06:29 PM 57.9°F14.4°C 55.6°F13.1°C 69% 3.6 mph NNW5.8 kmh NNW 3.6 mph5.8 kmh 29.96 in1014.6 mb 0.00 in0.0 mm 0.00 in0.0 mm 0.00 in0.0 mm
06:30 PM 58.0°F14.4°C 55.7°F13.2°C 69% 3.2 mph NW5.1 kmh NW 3.3 mph5.3 kmh 29.96 in1014.6 mb 0.00 in0.0 mm 0.00 in0.0 mm 0.00 in0.0 mm
06:32 PM 57.9°F14.4°C 55.6°F13.1°C 69% 2.8 mph NW4.5 kmh NW 2.8 mph4.5 kmh 29.96 in1014.6 mb 0.00 in0.0 mm 0.00 in0.0 mm 0.00 in0.0 mm
06:33 PM 57.8°F14.3°C 55.6°F13.1°C 69% 2.3 mph NW3.7 kmh NW 2.3 mph3.7 kmh 29.96 in1014.6 mb 0.00 in0.0 mm 0.00 in0.0 mm 0.00 in0.0 mm
06:35 PM 57.8°F14.3°C 55.4°F13.0°C 69% 1.6 mph NNW2.6 kmh NNW 1.6 mph2.6 kmh 29.96 in1014.6 mb 0.00 in0.0 mm 0.00 in0.0 mm 0.00 in0.0 mm
06:36 PM 57.8°F14.3°C 55.1°F12.8°C 69% 1.9 mph NNW3.1 kmh NNW 2.0 mph3.2 kmh 29.96 in1014.6 mb 0.00 in0.0 mm 0.00 in0.0 mm 0.00 in0.0 mm
06:38 PM 57.5°F14.2°C 55.5°F13.1°C 69% 4.9 mph NW7.9 kmh NW 4.9 mph7.9 kmh 29.97 in1014.9 mb 0.00 in0.0 mm 0.00 in0.0 mm 0.00 in0.0 mm
06:39 PM 57.5°F14.2°C 55.2°F12.9°C 69% 4.6 mph NW7.4 kmh NW 4.6 mph7.4 kmh 29.96 in1014.6 mb 0.00 in0.0 mm 0.00 in0.0 mm 0.00 in0.0 mm
06:41 PM 57.4°F14.1°C 55.5°F13.1°C 69% Calm Calm -- 29.96 in1014.6 mb 0.00 in0.0 mm 0.00 in0.0 mm 0.00 in0.0 mm
06:42 PM 57.4°F14.1°C 55.5°F13.1°C 69% 0.2 mph NW0.3 kmh NW 0.3 mph0.5 kmh 29.96 in1014.6 mb 0.00 in0.0 mm 0.00 in0.0 mm 0.00 in0.0 mm
06:44 PM 57.4°F14.1°C 55.3°F12.9°C 69% 3.8 mph WNW6.1 kmh WNW 3.8 mph6.1 kmh 29.96 in1014.6 mb 0.00 in0.0 mm 0.00 in0.0 mm 0.00 in0.0 mm
06:45 PM 57.1°F13.9°C 55.4°F13.0°C 69% 3.7 mph WNW6.0 kmh WNW 3.7 mph6.0 kmh 29.96 in1014.6 mb 0.00 in0.0 mm 0.00 in0.0 mm 0.00 in0.0 mm
06:47 PM 57.5°F14.2°C 55.3°F12.9°C 69% 1.6 mph W2.6 kmh W 1.6 mph2.6 kmh 29.96 in1014.6 mb 0.00 in0.0 mm 0.00 in0.0 mm 0.00 in0.0 mm
06:48 PM 57.4°F14.1°C 55.3°F12.9°C 69% 1.1 mph W1.8 kmh W 1.3 mph2.1 kmh 29.96 in1014.6 mb 0.00 in0.0 mm 0.00 in0.0 mm 0.00 in0.0 mm
06:50 PM 57.4°F14.1°C 55.4°F13.0°C 69% 3.6 mph W5.8 kmh W 3.7 mph6.0 kmh 29.96 in1014.6 mb 0.00 in0.0 mm 0.00 in0.0 mm 0.00 in0.0 mm
06:51 PM 57.4°F14.1°C 55.2°F12.9°C 69% 3.6 mph W5.8 kmh W 3.6 mph5.8 kmh 29.96 in1014.6 mb 0.00 in0.0 mm 0.00 in0.0 mm 0.00 in0.0 mm
06:53 PM 57.4°F14.1°C 55.3°F12.9°C 69% 1.6 mph NW2.6 kmh NW 1.6 mph2.6 kmh 29.96 in1014.6 mb 0.00 in0.0 mm 0.00 in0.0 mm 0.00 in0.0 mm
06:54 PM 57.4°F14.1°C 55.4°F13.0°C 69% 2.3 mph NW3.7 kmh NW 2.4 mph3.9 kmh 29.96 in1014.6 mb 0.00 in0.0 mm 0.00 in0.0 mm 0.00 in0.0 mm
06:56 PM 57.3°F14.1°C 55.1°F12.8°C 69% 4.0 mph W6.4 kmh W 4.1 mph6.6 kmh 29.96 in1014.6 mb 0.00 in0.0 mm 0.00 in0.0 mm 0.00 in0.0 mm
06:57 PM 57.4°F14.1°C 55.4°F13.0°C 69% 3.3 mph W5.3 kmh W 3.3 mph5.3 kmh 29.96 in1014.6 mb 0.00 in0.0 mm 0.00 in0.0 mm 0.00 in0.0 mm
06:59 PM 57.4°F14.1°C 55.4°F13.0°C 69% 0.8 mph W1.3 kmh W 0.8 mph1.3 kmh 29.97 in1014.9 mb 0.00 in0.0 mm 0.00 in0.0 mm 0.00 in0.0 mm
07:00 PM 57.4°F14.1°C 55.2°F12.9°C 69% 1.8 mph W2.9 kmh W 2.0 mph3.2 kmh 29.96 in1014.6 mb 0.00 in0.0 mm 0.00 in0.0 mm 0.00 in0.0 mm
07:02 PM 57.4°F14.1°C 55.2°F12.9°C 69% 0.8 mph W1.3 kmh W 0.8 mph1.3 kmh 29.96 in1014.6 mb 0.00 in0.0 mm 0.00 in0.0 mm 0.00 in0.0 mm
07:03 PM 57.4°F14.1°C 55.3°F12.9°C 70% 0.2 mph W0.3 kmh W 0.3 mph0.5 kmh 29.96 in1014.6 mb 0.00 in0.0 mm 0.00 in0.0 mm 0.00 in0.0 mm
07:05 PM 57.2°F14.0°C 55.1°F12.8°C 69% 1.6 mph W2.6 kmh W 1.6 mph2.6 kmh 29.96 in1014.6 mb 0.00 in0.0 mm 0.00 in0.0 mm 0.00 in0.0 mm
07:06 PM 57.2°F14.0°C 55.5°F13.1°C 70% 0.7 mph W1.1 kmh W 0.7 mph1.1 kmh 29.96 in1014.6 mb 0.00 in0.0 mm 0.00 in0.0 mm 0.00 in0.0 mm
07:08 PM 57.2°F14.0°C 55.3°F12.9°C 70% Calm Calm -- 29.97 in1014.9 mb 0.00 in0.0 mm 0.00 in0.0 mm 0.00 in0.0 mm
07:09 PM 57.4°F14.1°C 55.5°F13.1°C 70% Calm Calm -- 29.96 in1014.6 mb 0.00 in0.0 mm 0.00 in0.0 mm 0.00 in0.0 mm
07:11 PM 56.9°F13.8°C 55.4°F13.0°C 70% 2.7 mph NW4.3 kmh NW 2.7 mph4.3 kmh 29.97 in1014.9 mb 0.00 in0.0 mm 0.00 in0.0 mm 0.00 in0.0 mm
07:12 PM 56.9°F13.8°C 55.3°F12.9°C 70% 3.0 mph NNW4.8 kmh NNW 3.0 mph4.8 kmh 29.97 in1014.9 mb 0.00 in0.0 mm 0.00 in0.0 mm 0.00 in0.0 mm
07:14 PM 57.2°F14.0°C 55.2°F12.9°C 69% 1.2 mph NNW1.9 kmh NNW 1.2 mph1.9 kmh 29.97 in1014.9 mb 0.00 in0.0 mm 0.00 in0.0 mm 0.00 in0.0 mm
07:15 PM 57.1°F13.9°C 55.3°F12.9°C 70% 3.0 mph NNW4.8 kmh NNW 3.0 mph4.8 kmh 29.97 in1014.9 mb 0.00 in0.0 mm 0.00 in0.0 mm 0.00 in0.0 mm
07:17 PM 57.2°F14.0°C 55.4°F13.0°C 70% 2.8 mph WNW4.5 kmh WNW 2.9 mph4.7 kmh 29.96 in1014.6 mb 0.00 in0.0 mm 0.00 in0.0 mm 0.00 in0.0 mm
07:18 PM 57.1°F13.9°C 55.6°F13.1°C 70% 3.5 mph WNW5.6 kmh WNW 3.6 mph5.8 kmh 29.97 in1014.9 mb 0.00 in0.0 mm 0.00 in0.0 mm 0.00 in0.0 mm
07:20 PM 57.1°F13.9°C 55.3°F12.9°C 70% 2.8 mph WNW4.5 kmh WNW 2.9 mph4.7 kmh 29.96 in1014.6 mb 0.00 in0.0 mm 0.00 in0.0 mm 0.00 in0.0 mm
07:21 PM 57.1°F13.9°C 55.3°F12.9°C 70% 2.6 mph WNW4.2 kmh WNW 2.6 mph4.2 kmh 29.96 in1014.6 mb 0.00 in0.0 mm 0.00 in0.0 mm 0.00 in0.0 mm
07:23 PM 57.1°F13.9°C 55.2°F12.9°C 70% 2.8 mph WNW4.5 kmh WNW 2.8 mph4.5 kmh 29.96 in1014.6 mb 0.00 in0.0 mm 0.00 in0.0 mm 0.00 in0.0 mm
07:24 PM 56.9°F13.8°C 54.8°F12.7°C 69% 2.8 mph NW4.5 kmh NW 3.0 mph4.8 kmh 29.96 in1014.6 mb 0.00 in0.0 mm 0.00 in0.0 mm 0.00 in0.0 mm
07:26 PM 57.0°F13.9°C 55.0°F12.8°C 70% Calm Calm -- 29.96 in1014.6 mb 0.00 in0.0 mm 0.00 in0.0 mm 0.00 in0.0 mm
07:27 PM 56.8°F13.8°C 55.2°F12.9°C 70% Calm Calm -- 29.97 in1014.9 mb 0.00 in0.0 mm 0.00 in0.0 mm 0.00 in0.0 mm
07:29 PM 57.0°F13.9°C 55.3°F12.9°C 70% 2.8 mph WNW4.5 kmh WNW 2.9 mph4.7 kmh 29.97 in1014.9 mb 0.00 in0.0 mm 0.00 in0.0 mm 0.00 in0.0 mm
07:32 PM 56.9°F13.8°C 55.3°F12.9°C 70% 2.4 mph NW3.9 kmh NW 2.4 mph3.9 kmh 29.97 in1014.9 mb 0.00 in0.0 mm 0.00 in0.0 mm 0.00 in0.0 mm
07:33 PM 56.9°F13.8°C 55.2°F12.9°C 70% 2.2 mph NNW3.5 kmh NNW 2.2 mph3.5 kmh 29.97 in1014.9 mb 0.00 in0.0 mm 0.00 in0.0 mm 0.00 in0.0 mm
07:35 PM 56.8°F13.8°C 55.1°F12.8°C 69% 0.8 mph W1.3 kmh W 0.8 mph1.3 kmh 29.97 in1014.9 mb 0.00 in0.0 mm 0.00 in0.0 mm 0.00 in0.0 mm
07:36 PM 56.8°F13.8°C 55.4°F13.0°C 70% 0.7 mph W1.1 kmh W 0.7 mph1.1 kmh 29.97 in1014.9 mb 0.00 in0.0 mm 0.00 in0.0 mm 0.00 in0.0 mm
07:38 PM 56.4°F13.6°C 55.0°F12.8°C 70% 1.2 mph NNW1.9 kmh NNW 1.2 mph1.9 kmh 29.97 in1014.9 mb 0.00 in0.0 mm 0.00 in0.0 mm 0.00 in0.0 mm
07:39 PM 56.5°F13.6°C 55.2°F12.9°C 70% 2.6 mph WNW4.2 kmh WNW 2.7 mph4.3 kmh 29.97 in1014.9 mb 0.00 in0.0 mm 0.00 in0.0 mm 0.00 in0.0 mm
07:41 PM 56.6°F13.7°C 55.2°F12.9°C 70% 1.6 mph NW2.6 kmh NW 1.6 mph2.6 kmh 29.97 in1014.9 mb 0.00 in0.0 mm 0.00 in0.0 mm 0.00 in0.0 mm
07:42 PM 56.4°F13.6°C 55.2°F12.9°C 70% 1.9 mph NW3.1 kmh NW 1.9 mph3.1 kmh 29.98 in1015.2 mb 0.00 in0.0 mm 0.00 in0.0 mm 0.00 in0.0 mm
07:44 PM 56.6°F13.7°C 55.1°F12.8°C 70% 3.6 mph NW5.8 kmh NW 3.6 mph5.8 kmh 29.98 in1015.2 mb 0.00 in0.0 mm 0.00 in0.0 mm 0.00 in0.0 mm
07:47 PM 56.5°F13.6°C 55.2°F12.9°C 71% 3.2 mph W5.1 kmh W 3.3 mph5.3 kmh 29.98 in1015.2 mb 0.00 in0.0 mm 0.00 in0.0 mm 0.00 in0.0 mm
07:48 PM 56.5°F13.6°C 55.0°F12.8°C 71% 2.5 mph W4.0 kmh W 2.5 mph4.0 kmh 29.98 in1015.2 mb 0.00 in0.0 mm 0.00 in0.0 mm 0.00 in0.0 mm
07:50 PM 56.4°F13.6°C 55.0°F12.8°C 70% 5.2 mph NW8.4 kmh NW 5.2 mph8.4 kmh 29.99 in1015.6 mb 0.00 in0.0 mm 0.00 in0.0 mm 0.00 in0.0 mm
07:51 PM 56.1°F13.4°C 54.8°F12.7°C 70% 4.4 mph NW7.1 kmh NW 4.4 mph7.1 kmh 29.99 in1015.6 mb 0.00 in0.0 mm 0.00 in0.0 mm 0.00 in0.0 mm
07:53 PM 56.3°F13.5°C 55.2°F12.9°C 72% 1.6 mph NNW2.6 kmh NNW 1.6 mph2.6 kmh 29.99 in1015.6 mb 0.00 in0.0 mm 0.00 in0.0 mm 0.00 in0.0 mm
07:54 PM 56.0°F13.3°C 55.0°F12.8°C 72% 3.0 mph NW4.8 kmh NW 3.0 mph4.8 kmh 29.99 in1015.6 mb 0.00 in0.0 mm 0.00 in0.0 mm 0.00 in0.0 mm
07:56 PM 56.1°F13.4°C 55.5°F13.1°C 72% 4.4 mph NNW7.1 kmh NNW 4.4 mph7.1 kmh 29.99 in1015.6 mb 0.00 in0.0 mm 0.00 in0.0 mm 0.00 in0.0 mm
07:57 PM 55.7°F13.2°C 55.3°F12.9°C 72% 4.4 mph NNW7.1 kmh NNW 4.6 mph7.4 kmh 29.99 in1015.6 mb 0.00 in0.0 mm 0.00 in0.0 mm 0.00 in0.0 mm
07:59 PM 55.5°F13.1°C 55.2°F12.9°C 72% 1.9 mph NNW3.1 kmh NNW 2.0 mph3.2 kmh 29.99 in1015.6 mb 0.00 in0.0 mm 0.00 in0.0 mm 0.00 in0.0 mm
08:00 PM 55.7°F13.2°C 55.2°F12.9°C 72% 1.5 mph NNW2.4 kmh NNW 1.5 mph2.4 kmh 29.99 in1015.6 mb 0.00 in0.0 mm 0.00 in0.0 mm 0.00 in0.0 mm
08:02 PM 55.7°F13.2°C 55.6°F13.1°C 73% 3.2 mph NW5.1 kmh NW 3.2 mph5.1 kmh 29.99 in1015.6 mb 0.00 in0.0 mm 0.00 in0.0 mm 0.00 in0.0 mm
08:03 PM 55.5°F13.1°C 55.6°F13.1°C 73% 4.2 mph NW6.8 kmh NW 4.3 mph6.9 kmh 29.99 in1015.6 mb 0.00 in0.0 mm 0.00 in0.0 mm 0.00 in0.0 mm
08:05 PM 55.6°F13.1°C 55.3°F12.9°C 73% 2.8 mph NW4.5 kmh NW 2.9 mph4.7 kmh 29.99 in1015.6 mb 0.00 in0.0 mm 0.00 in0.0 mm 0.00 in0.0 mm
08:06 PM 55.6°F13.1°C 55.2°F12.9°C 72% 5.8 mph NW9.3 kmh NW 5.8 mph9.3 kmh 29.99 in1015.6 mb 0.00 in0.0 mm 0.00 in0.0 mm 0.00 in0.0 mm
08:08 PM 55.6°F13.1°C 55.3°F12.9°C 73% 1.6 mph NW2.6 kmh NW 1.6 mph2.6 kmh 29.99 in1015.6 mb 0.00 in0.0 mm 0.00 in0.0 mm 0.00 in0.0 mm
08:09 PM 55.5°F13.1°C 55.2°F12.9°C 73% 2.6 mph NW4.2 kmh NW 2.6 mph4.2 kmh 29.99 in1015.6 mb 0.00 in0.0 mm 0.00 in0.0 mm 0.00 in0.0 mm
08:11 PM 55.2°F12.9°C 55.1°F12.8°C 73% 3.1 mph NW5.0 kmh NW 3.1 mph5.0 kmh 29.99 in1015.6 mb 0.00 in0.0 mm 0.00 in0.0 mm 0.00 in0.0 mm
08:12 PM 55.3°F12.9°C 55.0°F12.8°C 73% 2.3 mph NNW3.7 kmh NNW 2.4 mph3.9 kmh 29.99 in1015.6 mb 0.00 in0.0 mm 0.00 in0.0 mm 0.00 in0.0 mm
08:14 PM 55.6°F13.1°C 55.2°F12.9°C 73% 4.1 mph NNW6.6 kmh NNW 4.1 mph6.6 kmh 30.00 in1015.9 mb 0.00 in0.0 mm 0.00 in0.0 mm 0.00 in0.0 mm
08:20 PM 55.5°F13.1°C 55.0°F12.8°C 73% 0.8 mph NNW1.3 kmh NNW 0.8 mph1.3 kmh 30.00 in1015.9 mb 0.00 in0.0 mm 0.00 in0.0 mm 0.00 in0.0 mm
08:21 PM 55.4°F13.0°C 55.0°F12.8°C 73% 2.3 mph W3.7 kmh W 2.3 mph3.7 kmh 30.01 in1016.3 mb 0.00 in0.0 mm 0.00 in0.0 mm 0.00 in0.0 mm
08:23 PM 55.4°F13.0°C 55.0°F12.8°C 73% 4.0 mph NNW6.4 kmh NNW 4.1 mph6.6 kmh 30.01 in1016.3 mb 0.00 in0.0 mm 0.00 in0.0 mm 0.00 in0.0 mm
08:24 PM 55.4°F13.0°C 54.8°F12.7°C 73% 3.0 mph NW4.8 kmh NW 3.2 mph5.1 kmh 30.01 in1016.3 mb 0.00 in0.0 mm 0.00 in0.0 mm 0.00 in0.0 mm
08:26 PM 55.4°F13.0°C 54.9°F12.7°C 73% 4.9 mph NW7.9 kmh NW 4.9 mph7.9 kmh 30.01 in1016.3 mb 0.00 in0.0 mm 0.00 in0.0 mm 0.00 in0.0 mm
08:27 PM 55.4°F13.0°C 55.0°F12.8°C 73% 4.1 mph NW6.6 kmh NW 4.2 mph6.8 kmh 30.01 in1016.3 mb 0.00 in0.0 mm 0.00 in0.0 mm 0.00 in0.0 mm
08:29 PM 55.3°F12.9°C 55.1°F12.8°C 73% 5.2 mph NW8.4 kmh NW 5.2 mph8.4 kmh 30.01 in1016.3 mb 0.00 in0.0 mm 0.00 in0.0 mm 0.00 in0.0 mm
08:32 PM 55.2°F12.9°C 54.6°F12.6°C 73% 1.6 mph NW2.6 kmh NW 1.6 mph2.6 kmh 30.01 in1016.3 mb 0.00 in0.0 mm 0.00 in0.0 mm 0.00 in0.0 mm
08:33 PM 55.3°F12.9°C 54.7°F12.6°C 73% 2.3 mph NW3.7 kmh NW 2.3 mph3.7 kmh 30.01 in1016.3 mb 0.00 in0.0 mm 0.00 in0.0 mm 0.00 in0.0 mm
08:35 PM 55.1°F12.8°C 54.8°F12.7°C 73% 7.3 mph NW11.7 kmh NW 7.3 mph11.7 kmh 30.01 in1016.3 mb 0.00 in0.0 mm 0.00 in0.0 mm 0.00 in0.0 mm
08:36 PM 55.1°F12.8°C 54.7°F12.6°C 73% 5.6 mph NW9.0 kmh NW 5.6 mph9.0 kmh 30.01 in1016.3 mb 0.00 in0.0 mm 0.00 in0.0 mm 0.00 in0.0 mm
08:38 PM 54.8°F12.7°C 54.6°F12.6°C 73% 3.6 mph NW5.8 kmh NW 3.7 mph6.0 kmh 30.01 in1016.3 mb 0.00 in0.0 mm 0.00 in0.0 mm 0.00 in0.0 mm
08:39 PM 54.8°F12.7°C 54.6°F12.6°C 73% 6.5 mph NW10.5 kmh NW 6.6 mph10.6 kmh 30.01 in1016.3 mb 0.00 in0.0 mm 0.00 in0.0 mm 0.00 in0.0 mm
08:41 PM 54.5°F12.5°C 54.5°F12.5°C 74% 2.8 mph NNW4.5 kmh NNW 2.9 mph4.7 kmh 30.02 in1016.6 mb 0.00 in0.0 mm 0.00 in0.0 mm 0.00 in0.0 mm
08:42 PM 54.6°F12.6°C 55.0°F12.8°C 74% 3.5 mph NNW5.6 kmh NNW 3.6 mph5.8 kmh 30.03 in1016.9 mb 0.00 in0.0 mm 0.00 in0.0 mm 0.00 in0.0 mm
08:44 PM 54.1°F12.3°C 55.0°F12.8°C 75% 2.0 mph NNW3.2 kmh NNW 2.0 mph3.2 kmh 30.02 in1016.6 mb 0.00 in0.0 mm 0.00 in0.0 mm 0.00 in0.0 mm
08:47 PM 53.6°F12.0°C 55.2°F12.9°C 75% 4.1 mph 6.6 kmh 4.1 mph6.6 kmh 30.01 in1016.3 mb 0.00 in0.0 mm 0.00 in0.0 mm 0.00 in0.0 mm
08:50 PM 51.9°F11.1°C 55.3°F12.9°C 78% 2.3 mph E3.7 kmh E 2.4 mph3.9 kmh 29.99 in1015.6 mb 0.00 in0.0 mm 0.00 in0.0 mm 0.02 in0.5 mm
08:51 PM 51.9°F11.1°C 55.4°F13.0°C 78% 2.5 mph E4.0 kmh E 2.5 mph4.0 kmh 29.99 in1015.6 mb 0.00 in0.0 mm 0.00 in0.0 mm 0.02 in0.5 mm
08:53 PM 51.5°F10.8°C 55.0°F12.8°C 78% 6.8 mph NNW10.9 kmh NNW 6.8 mph10.9 kmh 29.99 in1015.6 mb 0.00 in0.0 mm 0.00 in0.0 mm 0.02 in0.5 mm
08:54 PM 51.6°F10.9°C 54.8°F12.7°C 78% 5.8 mph NNW9.3 kmh NNW 5.9 mph9.5 kmh 29.99 in1015.6 mb 0.00 in0.0 mm 0.00 in0.0 mm 0.02 in0.5 mm
08:56 PM 51.8°F11.0°C 54.9°F12.7°C 78% Calm Calm -- 29.99 in1015.6 mb 0.00 in0.0 mm 0.00 in0.0 mm 0.04 in1.0 mm
08:57 PM 51.8°F11.0°C 55.1°F12.8°C 78% Calm Calm -- 29.99 in1015.6 mb 0.00 in0.0 mm 0.00 in0.0 mm 0.04 in1.0 mm
08:59 PM 52.0°F11.1°C 55.0°F12.8°C 77% Calm Calm -- 29.99 in1015.6 mb 0.00 in0.0 mm 0.00 in0.0 mm 0.06 in1.5 mm
09:00 PM 52.0°F11.1°C 55.4°F13.0°C 78% Calm Calm -- 29.99 in1015.6 mb 0.00 in0.0 mm 0.00 in0.0 mm 0.06 in1.5 mm
09:02 PM 51.9°F11.1°C 55.0°F12.8°C 78% Calm Calm -- 29.99 in1015.6 mb 0.00 in0.0 mm 0.00 in0.0 mm 0.06 in1.5 mm
09:03 PM 51.9°F11.1°C 55.1°F12.8°C 78% Calm Calm -- 29.99 in1015.6 mb 0.00 in0.0 mm 0.00 in0.0 mm 0.06 in1.5 mm
09:05 PM 51.9°F11.1°C 55.1°F12.8°C 78% Calm Calm -- 29.99 in1015.6 mb 0.00 in0.0 mm 0.00 in0.0 mm 0.08 in2.0 mm
09:06 PM 51.9°F11.1°C 55.0°F12.8°C 78% Calm Calm -- 29.99 in1015.6 mb 0.00 in0.0 mm 0.00 in0.0 mm 0.08 in2.0 mm
09:08 PM 51.9°F11.1°C 54.8°F12.7°C 77% Calm Calm -- 29.99 in1015.6 mb 0.00 in0.0 mm 0.00 in0.0 mm 0.10 in2.5 mm
09:09 PM 51.9°F11.1°C 55.1°F12.8°C 78% Calm Calm -- 29.99 in1015.6 mb 0.00 in0.0 mm 0.00 in0.0 mm 0.10 in2.5 mm
09:11 PM 51.8°F11.0°C 54.9°F12.7°C 78% Calm Calm -- 29.99 in1015.6 mb 0.00 in0.0 mm 0.00 in0.0 mm 0.12 in3.0 mm
09:12 PM 51.8°F11.0°C 54.9°F12.7°C 78% Calm Calm -- 29.99 in1015.6 mb 0.00 in0.0 mm 0.00 in0.0 mm 0.12 in3.0 mm
09:14 PM 51.8°F11.0°C 55.3°F12.9°C 78% 3.2 mph ESE5.1 kmh ESE 3.3 mph5.3 kmh 29.98 in1015.2 mb 0.00 in0.0 mm 0.00 in0.0 mm 0.12 in3.0 mm
09:15 PM 51.9°F11.1°C 55.0°F12.8°C 78% 3.0 mph ESE4.8 kmh ESE 3.3 mph5.3 kmh 29.98 in1015.2 mb 0.00 in0.0 mm 0.00 in0.0 mm 0.12 in3.0 mm
09:17 PM 51.7°F10.9°C 55.0°F12.8°C 78% 0.8 mph NNW1.3 kmh NNW 0.8 mph1.3 kmh 29.99 in1015.6 mb 0.00 in0.0 mm 0.00 in0.0 mm 0.12 in3.0 mm
09:18 PM 51.7°F10.9°C 55.2°F12.9°C 79% Calm Calm -- 29.99 in1015.6 mb 0.00 in0.0 mm 0.00 in0.0 mm 0.12 in3.0 mm
09:20 PM 51.7°F10.9°C 55.0°F12.8°C 79% Calm Calm -- 29.99 in1015.6 mb 0.00 in0.0 mm 0.00 in0.0 mm 0.14 in3.6 mm
09:21 PM 51.7°F10.9°C 55.2°F12.9°C 79% Calm Calm -- 29.99 in1015.6 mb 0.00 in0.0 mm 0.00 in0.0 mm 0.14 in3.6 mm
09:23 PM 51.7°F10.9°C 54.9°F12.7°C 79% 1.2 mph SE1.9 kmh SE 1.2 mph1.9 kmh 29.99 in1015.6 mb 0.00 in0.0 mm 0.00 in0.0 mm 0.14 in3.6 mm
09:24 PM 51.7°F10.9°C 55.1°F12.8°C 79% 1.2 mph SE1.9 kmh SE 1.2 mph1.9 kmh 29.99 in1015.6 mb 0.00 in0.0 mm 0.00 in0.0 mm 0.14 in3.6 mm
09:26 PM 51.8°F11.0°C 55.0°F12.8°C 79% Calm Calm -- 29.98 in1015.2 mb 0.00 in0.0 mm 0.00 in0.0 mm 0.14 in3.6 mm
09:27 PM 51.8°F11.0°C 55.2°F12.9°C 79% Calm Calm -- 29.98 in1015.2 mb 0.00 in0.0 mm 0.00 in0.0 mm 0.14 in3.6 mm
09:29 PM 51.9°F11.1°C 55.4°F13.0°C 80% 0.4 mph ESE0.6 kmh ESE 0.4 mph0.6 kmh 29.97 in1014.9 mb 0.00 in0.0 mm 0.00 in0.0 mm 0.14 in3.6 mm
09:30 PM 51.9°F11.1°C 55.4°F13.0°C 80% 1.3 mph ESE2.1 kmh ESE 1.3 mph2.1 kmh 29.97 in1014.9 mb 0.00 in0.0 mm 0.00 in0.0 mm 0.14 in3.6 mm
09:32 PM 51.8°F11.0°C 55.2°F12.9°C 79% 0.4 mph SE0.6 kmh SE 0.4 mph0.6 kmh 29.97 in1014.9 mb 0.00 in0.0 mm 0.00 in0.0 mm 0.14 in3.6 mm
09:33 PM 51.8°F11.0°C 55.2°F12.9°C 80% 0.3 mph SE0.5 kmh SE 0.3 mph0.5 kmh 29.97 in1014.9 mb 0.00 in0.0 mm 0.00 in0.0 mm 0.14 in3.6 mm
09:35 PM 51.7°F10.9°C 55.0°F12.8°C 79% 1.2 mph SE1.9 kmh SE 1.2 mph1.9 kmh 29.96 in1014.6 mb 0.00 in0.0 mm 0.00 in0.0 mm 0.14 in3.6 mm
09:36 PM 51.7°F10.9°C 55.1°F12.8°C 79% 0.9 mph SE1.4 kmh SE 0.9 mph1.4 kmh 29.97 in1014.9 mb 0.00 in0.0 mm 0.00 in0.0 mm 0.14 in3.6 mm
09:38 PM 51.5°F10.8°C 54.9°F12.7°C 80% 3.6 mph SE5.8 kmh SE 3.7 mph6.0 kmh 29.97 in1014.9 mb 0.00 in0.0 mm 0.00 in0.0 mm 0.14 in3.6 mm
09:39 PM 51.5°F10.8°C 54.7°F12.6°C 80% 2.6 mph SE4.2 kmh SE 2.6 mph4.2 kmh 29.97 in1014.9 mb 0.00 in0.0 mm 0.00 in0.0 mm 0.14 in3.6 mm
09:41 PM 51.5°F10.8°C 54.5°F12.5°C 80% 5.6 mph NNW9.0 kmh NNW 5.6 mph9.0 kmh 29.97 in1014.9 mb 0.00 in0.0 mm 0.00 in0.0 mm 0.14 in3.6 mm
09:42 PM 51.5°F10.8°C 54.4°F12.4°C 80% 5.0 mph SE8.0 kmh SE 5.0 mph8.0 kmh 29.97 in1014.9 mb 0.00 in0.0 mm 0.00 in0.0 mm 0.14 in3.6 mm
09:44 PM 51.5°F10.8°C 54.4°F12.4°C 80% 4.0 mph SSE6.4 kmh SSE 4.0 mph6.4 kmh 29.97 in1014.9 mb 0.00 in0.0 mm 0.00 in0.0 mm 0.14 in3.6 mm
09:45 PM 51.5°F10.8°C 54.7°F12.6°C 81% 3.1 mph SE5.0 kmh SE 3.2 mph5.1 kmh 29.97 in1014.9 mb 0.00 in0.0 mm 0.00 in0.0 mm 0.14 in3.6 mm
09:47 PM 51.4°F10.8°C 54.5°F12.5°C 81% 0.8 mph SE1.3 kmh SE 0.8 mph1.3 kmh 29.97 in1014.9 mb 0.00 in0.0 mm 0.00 in0.0 mm 0.14 in3.6 mm
09:48 PM 51.5°F10.8°C 54.2°F12.3°C 80% 1.2 mph SSE1.9 kmh SSE 1.2 mph1.9 kmh 29.97 in1014.9 mb 0.00 in0.0 mm 0.00 in0.0 mm 0.14 in3.6 mm
09:50 PM 51.5°F10.8°C 54.4°F12.4°C 80% Calm Calm -- 29.97 in1014.9 mb 0.00 in0.0 mm 0.00 in0.0 mm 0.14 in3.6 mm
09:51 PM 51.5°F10.8°C 54.6°F12.6°C 81% 0.2 mph ESE0.3 kmh ESE 0.3 mph0.5 kmh 29.97 in1014.9 mb 0.00 in0.0 mm 0.00 in0.0 mm 0.14 in3.6 mm
09:53 PM 51.4°F10.8°C 54.6°F12.6°C 80% 1.6 mph ESE2.6 kmh ESE 1.6 mph2.6 kmh 29.97 in1014.9 mb 0.00 in0.0 mm 0.00 in0.0 mm 0.14 in3.6 mm
09:54 PM 51.5°F10.8°C 54.2°F12.3°C 80% 2.3 mph ESE3.7 kmh ESE 2.3 mph3.7 kmh 29.97 in1014.9 mb 0.00 in0.0 mm 0.00 in0.0 mm 0.14 in3.6 mm
09:56 PM 51.4°F10.8°C 54.2°F12.3°C 79% 0.4 mph E0.6 kmh E 0.4 mph0.6 kmh 29.97 in1014.9 mb 0.00 in0.0 mm 0.00 in0.0 mm 0.14 in3.6 mm
09:57 PM 51.5°F10.8°C 54.6°F12.6°C 80% Calm Calm -- 29.96 in1014.6 mb 0.00 in0.0 mm 0.00 in0.0 mm 0.14 in3.6 mm
09:59 PM 51.2°F10.7°C 54.6°F12.6°C 80% 3.2 mph NNW5.1 kmh NNW 3.3 mph5.3 kmh 29.97 in1014.9 mb 0.00 in0.0 mm 0.00 in0.0 mm 0.14 in3.6 mm
10:00 PM 51.4°F10.8°C 54.5°F12.5°C 80% 3.4 mph NNW5.5 kmh NNW 3.5 mph5.6 kmh 29.96 in1014.6 mb 0.00 in0.0 mm 0.00 in0.0 mm 0.14 in3.6 mm
10:02 PM 51.5°F10.8°C 54.4°F12.4°C 80% Calm Calm -- 29.97 in1014.9 mb 0.00 in0.0 mm 0.00 in0.0 mm 0.14 in3.6 mm
10:03 PM 51.5°F10.8°C 54.4°F12.4°C 79% 0.7 mph NE1.1 kmh NE 0.8 mph1.3 kmh 29.97 in1014.9 mb 0.00 in0.0 mm 0.00 in0.0 mm 0.14 in3.6 mm
10:05 PM 51.5°F10.8°C 54.5°F12.5°C 80% Calm Calm -- 29.97 in1014.9 mb 0.00 in0.0 mm 0.00 in0.0 mm 0.14 in3.6 mm
10:06 PM 51.4°F10.8°C 54.3°F12.4°C 80% 0.2 mph ENE0.3 kmh ENE 0.2 mph0.3 kmh 29.96 in1014.6 mb 0.00 in0.0 mm 0.00 in0.0 mm 0.14 in3.6 mm
10:08 PM 51.7°F10.9°C 54.7°F12.6°C 79% Calm Calm -- 29.96 in1014.6 mb 0.00 in0.0 mm 0.00 in0.0 mm 0.14 in3.6 mm
10:09 PM 51.7°F10.9°C 54.4°F12.4°C 79% Calm Calm -- 29.96 in1014.6 mb 0.00 in0.0 mm 0.00 in0.0 mm 0.14 in3.6 mm
10:11 PM 51.8°F11.0°C 54.5°F12.5°C 79% 2.0 mph NNW3.2 kmh NNW 2.0 mph3.2 kmh 29.96 in1014.6 mb 0.00 in0.0 mm 0.00 in0.0 mm 0.14 in3.6 mm
10:12 PM 51.8°F11.0°C 54.8°F12.7°C 80% 3.0 mph SE4.8 kmh SE 3.0 mph4.8 kmh 29.96 in1014.6 mb 0.00 in0.0 mm 0.00 in0.0 mm 0.14 in3.6 mm
10:14 PM 51.9°F11.1°C 54.6°F12.6°C 80% 2.7 mph NE4.3 kmh NE 2.9 mph4.7 kmh 29.96 in1014.6 mb 0.00 in0.0 mm 0.00 in0.0 mm 0.14 in3.6 mm
10:15 PM 51.9°F11.1°C 54.4°F12.4°C 80% 2.3 mph NE3.7 kmh NE 2.3 mph3.7 kmh 29.96 in1014.6 mb 0.00 in0.0 mm 0.00 in0.0 mm 0.14 in3.6 mm
10:17 PM 52.1°F11.2°C 54.4°F12.4°C 80% 2.0 mph SE3.2 kmh SE 2.0 mph3.2 kmh 29.96 in1014.6 mb 0.00 in0.0 mm 0.00 in0.0 mm 0.14 in3.6 mm
10:18 PM 52.1°F11.2°C 54.5°F12.5°C 80% 2.0 mph SE3.2 kmh SE 2.1 mph3.4 kmh 29.96 in1014.6 mb 0.00 in0.0 mm 0.00 in0.0 mm 0.14 in3.6 mm
10:20 PM 52.4°F11.3°C 54.3°F12.4°C 80% 1.2 mph ENE1.9 kmh ENE 1.2 mph1.9 kmh 29.96 in1014.6 mb 0.00 in0.0 mm 0.00 in0.0 mm 0.14 in3.6 mm
10:21 PM 52.4°F11.3°C 54.3°F12.4°C 80% Calm Calm -- 29.96 in1014.6 mb 0.00 in0.0 mm 0.00 in0.0 mm 0.14 in3.6 mm
10:23 PM 52.1°F11.2°C 54.1°F12.3°C 79% 2.8 mph NE4.5 kmh NE 2.8 mph4.5 kmh 29.97 in1014.9 mb 0.00 in0.0 mm 0.00 in0.0 mm 0.14 in3.6 mm
10:24 PM 52.1°F11.2°C 54.1°F12.3°C 80% 2.6 mph NE4.2 kmh NE 2.6 mph4.2 kmh 29.97 in1014.9 mb 0.00 in0.0 mm 0.00 in0.0 mm 0.14 in3.6 mm
10:26 PM 52.5°F11.4°C 54.4°F12.4°C 80% 0.4 mph 0.6 kmh 0.4 mph0.6 kmh 29.97 in1014.9 mb 0.00 in0.0 mm 0.00 in0.0 mm 0.14 in3.6 mm
10:27 PM 52.5°F11.4°C 54.0°F12.2°C 80% 0.9 mph NW1.4 kmh NW 0.9 mph1.4 kmh 29.97 in1014.9 mb 0.00 in0.0 mm 0.00 in0.0 mm 0.14 in3.6 mm
10:29 PM 52.4°F11.3°C 54.5°F12.5°C 80% 3.6 mph NW5.8 kmh NW 3.6 mph5.8 kmh 29.97 in1014.9 mb 0.00 in0.0 mm 0.00 in0.0 mm 0.14 in3.6 mm
10:32 PM 52.1°F11.2°C 54.4°F12.4°C 80% 2.8 mph WSW4.5 kmh WSW 2.8 mph4.5 kmh 29.97 in1014.9 mb 0.00 in0.0 mm 0.00 in0.0 mm 0.14 in3.6 mm
10:33 PM 52.1°F11.2°C 54.3°F12.4°C 80% 3.5 mph WSW5.6 kmh WSW 3.5 mph5.6 kmh 29.97 in1014.9 mb 0.00 in0.0 mm 0.00 in0.0 mm 0.14 in3.6 mm
10:35 PM 52.0°F11.1°C 54.5°F12.5°C 81% 1.2 mph SW1.9 kmh SW 1.2 mph1.9 kmh 29.97 in1014.9 mb 0.00 in0.0 mm 0.00 in0.0 mm 0.14 in3.6 mm
10:36 PM 52.0°F11.1°C 54.5°F12.5°C 80% 0.9 mph SW1.4 kmh SW 1.1 mph1.8 kmh 29.97 in1014.9 mb 0.00 in0.0 mm 0.00 in0.0 mm 0.14 in3.6 mm
10:38 PM 52.0°F11.1°C 54.4°F12.4°C 80% 0.4 mph WNW0.6 kmh WNW 0.4 mph0.6 kmh 29.97 in1014.9 mb 0.00 in0.0 mm 0.00 in0.0 mm 0.14 in3.6 mm
10:39 PM 51.9°F11.1°C 54.1°F12.3°C 79% 0.2 mph WNW0.3 kmh WNW 0.3 mph0.5 kmh 29.98 in1015.2 mb 0.00 in0.0 mm 0.00 in0.0 mm 0.14 in3.6 mm
10:41 PM 52.0°F11.1°C 54.5°F12.5°C 80% 4.0 mph WNW6.4 kmh WNW 4.1 mph6.6 kmh 29.98 in1015.2 mb 0.00 in0.0 mm 0.00 in0.0 mm 0.14 in3.6 mm
10:42 PM 52.0°F11.1°C 54.2°F12.3°C 79% 3.0 mph NW4.8 kmh NW 3.0 mph4.8 kmh 29.98 in1015.2 mb 0.00 in0.0 mm 0.00 in0.0 mm 0.14 in3.6 mm
10:44 PM 52.1°F11.2°C 54.4°F12.4°C 80% 4.2 mph NW6.8 kmh NW 4.3 mph6.9 kmh 29.98 in1015.2 mb 0.00 in0.0 mm 0.00 in0.0 mm 0.14 in3.6 mm
10:45 PM 52.1°F11.2°C 54.3°F12.4°C 80% 4.4 mph NW7.1 kmh NW 4.4 mph7.1 kmh 29.98 in1015.2 mb 0.00 in0.0 mm 0.00 in0.0 mm 0.14 in3.6 mm
10:47 PM 52.3°F11.3°C 54.1°F12.3°C 80% 0.4 mph NW0.6 kmh NW 0.4 mph0.6 kmh 29.99 in1015.6 mb 0.00 in0.0 mm 0.00 in0.0 mm 0.14 in3.6 mm
10:48 PM 52.3°F11.3°C 54.1°F12.3°C 80% 1.1 mph WNW1.8 kmh WNW 1.1 mph1.8 kmh 29.99 in1015.6 mb 0.00 in0.0 mm 0.00 in0.0 mm 0.14 in3.6 mm
10:50 PM 52.0°F11.1°C 54.1°F12.3°C 79% 1.6 mph WNW2.6 kmh WNW 1.6 mph2.6 kmh 29.99 in1015.6 mb 0.00 in0.0 mm 0.00 in0.0 mm 0.14 in3.6 mm
10:51 PM 52.1°F11.2°C 53.9°F12.2°C 79% 0.5 mph WNW0.8 kmh WNW 0.5 mph0.8 kmh 29.99 in1015.6 mb 0.00 in0.0 mm 0.00 in0.0 mm 0.14 in3.6 mm
10:53 PM 52.0°F11.1°C 54.0°F12.2°C 79% 0.8 mph NNW1.3 kmh NNW 0.8 mph1.3 kmh 29.99 in1015.6 mb 0.00 in0.0 mm 0.00 in0.0 mm 0.14 in3.6 mm
10:54 PM 52.1°F11.2°C 54.0°F12.2°C 79% 1.8 mph NW2.9 kmh NW 1.8 mph2.9 kmh 29.99 in1015.6 mb 0.00 in0.0 mm 0.00 in0.0 mm 0.14 in3.6 mm
10:56 PM 52.0°F11.1°C 53.8°F12.1°C 79% 1.2 mph NW1.9 kmh NW 1.2 mph1.9 kmh 29.99 in1015.6 mb 0.00 in0.0 mm 0.00 in0.0 mm 0.14 in3.6 mm
10:57 PM 52.0°F11.1°C 53.9°F12.2°C 79% 1.2 mph NW1.9 kmh NW 1.2 mph1.9 kmh 29.99 in1015.6 mb 0.00 in0.0 mm 0.00 in0.0 mm 0.14 in3.6 mm
11:02 PM 51.9°F11.1°C 54.2°F12.3°C 79% 1.2 mph NNW1.9 kmh NNW 1.2 mph1.9 kmh 29.99 in1015.6 mb 0.00 in0.0 mm 0.00 in0.0 mm 0.00 in0.0 mm
11:03 PM 52.0°F11.1°C 54.1°F12.3°C 79% 0.9 mph NNW1.4 kmh NNW 1.0 mph1.6 kmh 29.99 in1015.6 mb 0.00 in0.0 mm 0.00 in0.0 mm 0.00 in0.0 mm
11:05 PM 51.8°F11.0°C 54.1°F12.3°C 79% 1.5 mph NW2.4 kmh NW 1.6 mph2.6 kmh 29.99 in1015.6 mb 0.00 in0.0 mm 0.00 in0.0 mm 0.00 in0.0 mm
11:06 PM 51.8°F11.0°C 53.9°F12.2°C 79% 1.1 mph NW1.8 kmh NW 1.3 mph2.1 kmh 29.99 in1015.6 mb 0.00 in0.0 mm 0.00 in0.0 mm 0.00 in0.0 mm
11:08 PM 51.9°F11.1°C 54.1°F12.3°C 79% 0.4 mph NW0.6 kmh NW 0.4 mph0.6 kmh 30.00 in1015.9 mb 0.00 in0.0 mm 0.00 in0.0 mm 0.00 in0.0 mm
11:09 PM 51.9°F11.1°C 54.0°F12.2°C 79% 0.3 mph NNW0.5 kmh NNW 0.3 mph0.5 kmh 30.00 in1015.9 mb 0.00 in0.0 mm 0.00 in0.0 mm 0.00 in0.0 mm
11:11 PM 52.0°F11.1°C 54.0°F12.2°C 79% 0.8 mph NW1.3 kmh NW 0.8 mph1.3 kmh 29.99 in1015.6 mb 0.00 in0.0 mm 0.00 in0.0 mm 0.00 in0.0 mm
11:12 PM 52.0°F11.1°C 54.2°F12.3°C 80% 0.9 mph NW1.4 kmh NW 1.0 mph1.6 kmh 30.00 in1015.9 mb 0.00 in0.0 mm 0.00 in0.0 mm 0.00 in0.0 mm
11:14 PM 51.9°F11.1°C 54.4°F12.4°C 80% 3.6 mph NNW5.8 kmh NNW 3.7 mph6.0 kmh 30.00 in1015.9 mb 0.00 in0.0 mm 0.00 in0.0 mm 0.00 in0.0 mm
11:15 PM 51.9°F11.1°C 54.3°F12.4°C 80% 3.3 mph NNW5.3 kmh NNW 3.3 mph5.3 kmh 29.99 in1015.6 mb 0.00 in0.0 mm 0.00 in0.0 mm 0.00 in0.0 mm
11:17 PM 51.8°F11.0°C 54.2°F12.3°C 80% 1.6 mph NW2.6 kmh NW 1.6 mph2.6 kmh 29.99 in1015.6 mb 0.00 in0.0 mm 0.00 in0.0 mm 0.00 in0.0 mm
11:18 PM 51.8°F11.0°C 53.8°F12.1°C 80% 1.2 mph WNW1.9 kmh WNW 1.2 mph1.9 kmh 29.99 in1015.6 mb 0.00 in0.0 mm 0.00 in0.0 mm 0.00 in0.0 mm
11:20 PM 51.7°F10.9°C 54.2°F12.3°C 80% 0.8 mph NNW1.3 kmh NNW 0.8 mph1.3 kmh 29.99 in1015.6 mb 0.00 in0.0 mm 0.00 in0.0 mm 0.00 in0.0 mm
11:21 PM 51.7°F10.9°C 54.3°F12.4°C 80% 0.9 mph NNW1.4 kmh NNW 0.9 mph1.4 kmh 29.99 in1015.6 mb 0.00 in0.0 mm 0.00 in0.0 mm 0.00 in0.0 mm
11:23 PM 51.8°F11.0°C 54.2°F12.3°C 80% Calm Calm -- 29.99 in1015.6 mb 0.00 in0.0 mm 0.00 in0.0 mm 0.00 in0.0 mm
11:24 PM 51.7°F10.9°C 54.0°F12.2°C 80% 0.3 mph NW0.5 kmh NW 0.3 mph0.5 kmh 29.99 in1015.6 mb 0.00 in0.0 mm 0.00 in0.0 mm 0.00 in0.0 mm
11:26 PM 51.7°F10.9°C 54.1°F12.3°C 81% 3.2 mph NW5.1 kmh NW 3.3 mph5.3 kmh 30.00 in1015.9 mb 0.00 in0.0 mm 0.00 in0.0 mm 0.00 in0.0 mm
11:27 PM 51.7°F10.9°C 54.2°F12.3°C 81% 3.0 mph NW4.8 kmh NW 3.1 mph5.0 kmh 30.00 in1015.9 mb 0.00 in0.0 mm 0.00 in0.0 mm 0.00 in0.0 mm
11:29 PM 51.6°F10.9°C 54.1°F12.3°C 81% 1.2 mph NNW1.9 kmh NNW 1.2 mph1.9 kmh 30.00 in1015.9 mb 0.00 in0.0 mm 0.00 in0.0 mm 0.00 in0.0 mm
11:30 PM 51.7°F10.9°C 54.2°F12.3°C 81% 1.6 mph NNW2.6 kmh NNW 1.6 mph2.6 kmh 30.00 in1015.9 mb 0.00 in0.0 mm 0.00 in0.0 mm 0.00 in0.0 mm
11:32 PM 51.7°F10.9°C 54.1°F12.3°C 81% 2.0 mph NW3.2 kmh NW 2.0 mph3.2 kmh 30.00 in1015.9 mb 0.00 in0.0 mm 0.00 in0.0 mm 0.00 in0.0 mm
11:33 PM 51.6°F10.9°C 54.1°F12.3°C 81% 2.3 mph NNW3.7 kmh NNW 2.4 mph3.9 kmh 30.00 in1015.9 mb 0.00 in0.0 mm 0.00 in0.0 mm 0.00 in0.0 mm
11:35 PM 51.6°F10.9°C 54.3°F12.4°C 81% Calm Calm -- 30.00 in1015.9 mb 0.00 in0.0 mm 0.00 in0.0 mm 0.00 in0.0 mm
11:36 PM 51.6°F10.9°C 54.2°F12.3°C 81% Calm Calm -- 30.00 in1015.9 mb 0.00 in0.0 mm 0.00 in0.0 mm 0.00 in0.0 mm
11:38 PM 51.7°F10.9°C 54.2°F12.3°C 81% Calm Calm -- 30.00 in1015.9 mb 0.00 in0.0 mm 0.00 in0.0 mm 0.00 in0.0 mm
11:39 PM 51.7°F10.9°C 54.2°F12.3°C 81% Calm Calm -- 30.00 in1015.9 mb 0.00 in0.0 mm 0.00 in0.0 mm 0.00 in0.0 mm
11:41 PM 51.7°F10.9°C 54.0°F12.2°C 81% Calm Calm -- 30.00 in1015.9 mb 0.00 in0.0 mm 0.00 in0.0 mm 0.00 in0.0 mm
11:42 PM 51.7°F10.9°C 54.1°F12.3°C 80% Calm Calm -- 30.00 in1015.9 mb 0.00 in0.0 mm 0.00 in0.0 mm 0.00 in0.0 mm
11:44 PM 51.7°F10.9°C 54.0°F12.2°C 81% Calm Calm -- 30.00 in1015.9 mb 0.00 in0.0 mm 0.00 in0.0 mm 0.00 in0.0 mm
11:45 PM 51.7°F10.9°C 54.2°F12.3°C 81% Calm Calm -- 30.00 in1015.9 mb 0.00 in0.0 mm 0.00 in0.0 mm 0.00 in0.0 mm
11:47 PM 51.8°F11.0°C 54.5°F12.5°C 81% 1.2 mph WNW1.9 kmh WNW 1.2 mph1.9 kmh 30.00 in1015.9 mb 0.00 in0.0 mm 0.00 in0.0 mm 0.00 in0.0 mm
11:48 PM 51.7°F10.9°C 54.4°F12.4°C 81% 1.2 mph WNW1.9 kmh WNW 1.2 mph1.9 kmh 30.00 in1015.9 mb 0.00 in0.0 mm 0.00 in0.0 mm 0.00 in0.0 mm
11:53 PM 51.8°F11.0°C 54.1°F12.3°C 81% 1.2 mph NNW1.9 kmh NNW 1.2 mph1.9 kmh 30.00 in1015.9 mb 0.00 in0.0 mm 0.00 in0.0 mm 0.00 in0.0 mm
11:54 PM 51.8°F11.0°C 54.2°F12.3°C 81% 1.1 mph WNW1.8 kmh WNW 1.2 mph1.9 kmh 30.00 in1015.9 mb 0.00 in0.0 mm 0.00 in0.0 mm 0.00 in0.0 mm
11:56 PM 51.6°F10.9°C 54.1°F12.3°C 81% 1.1 mph NNW1.8 kmh NNW 1.2 mph1.9 kmh 30.00 in1015.9 mb 0.00 in0.0 mm 0.00 in0.0 mm 0.00 in0.0 mm
11:57 PM 51.6°F10.9°C 54.3°F12.4°C 81% 1.8 mph NNW2.9 kmh NNW 1.8 mph2.9 kmh 30.00 in1015.9 mb 0.00 in0.0 mm 0.00 in0.0 mm 0.00 in0.0 mm
11:59 PM 51.7°F10.9°C 54.3°F12.4°C 81% Calm Calm -- 29.99 in1015.6 mb 0.00 in0.0 mm 0.00 in0.0 mm 0.00 in0.0 mm